<?xml version="1.0" encoding="UTF-8" standalone="no" ?>
<gpx xmlns="http://www.topografix.com/GPX/1/1" xmlns:xsi="http://www.w3.org/2001/XMLSchema-instance" xsi:schemaLocation="http://www.topografix.com/GPX/1/1 http://www.topografix.com/GPX/1/1/gpx.xsd" version="1.1" creator="VisuGPX - https://www.visugpx.com">
  <metadata>
    <name>Joze condat les montboissiers v courte</name>
    <desc><![CDATA[parcours version courte pour aller de Joze à condat les montboissiers]]></desc>
  </metadata>
  <trk>
    <name><![CDATA[Joze condat les montboissiers v courte]]></name>
    <extensions>
      <line xmlns="http://www.topografix.com/GPX/gpx_style/0/2">
        <color>ff0000</color>
        <width>4</width>
      </line>
    </extensions>
    <trkseg>
      <trkpt lat="45.8622" lon="3.30383">
        <ele>301.58422851562</ele>
        <time>2020-06-17T08:47:02.000Z</time>
      </trkpt>
      <trkpt lat="45.86219" lon="3.30383">
        <ele>301.59420776367</ele>
        <time>2020-06-17T08:47:02.000Z</time>
      </trkpt>
      <trkpt lat="45.8622" lon="3.30398">
        <ele>300.16717529297</ele>
        <time>2020-06-17T08:47:02.002Z</time>
      </trkpt>
      <trkpt lat="45.8622" lon="3.30398">
        <ele>300.16738891602</ele>
        <time>2020-06-17T08:47:02.004Z</time>
      </trkpt>
      <trkpt lat="45.86213" lon="3.30494">
        <ele>295.45919799805</ele>
        <time>2020-06-17T08:47:02.017Z</time>
      </trkpt>
      <trkpt lat="45.86197" lon="3.30588">
        <ele>293.21939086914</ele>
        <time>2020-06-17T08:47:02.040Z</time>
      </trkpt>
      <trkpt lat="45.86197" lon="3.30588">
        <ele>293.21939086914</ele>
        <time>2020-06-17T08:47:02.063Z</time>
      </trkpt>
      <trkpt lat="45.8615" lon="3.30816">
        <ele>294.36773681641</ele>
        <time>2020-06-17T08:47:02.113Z</time>
      </trkpt>
      <trkpt lat="45.86141" lon="3.30863">
        <ele>294.75244140625</ele>
        <time>2020-06-17T08:47:02.169Z</time>
      </trkpt>
      <trkpt lat="45.86127" lon="3.30933">
        <ele>294.45327758789</ele>
        <time>2020-06-17T08:47:02.233Z</time>
      </trkpt>
      <trkpt lat="45.86098" lon="3.31073">
        <ele>293.49853515625</ele>
        <time>2020-06-17T08:47:02.313Z</time>
      </trkpt>
      <trkpt lat="45.86098" lon="3.31073">
        <ele>293.49865722656</ele>
        <time>2020-06-17T08:47:02.393Z</time>
      </trkpt>
      <trkpt lat="45.86071" lon="3.31202">
        <ele>294.64721679688</ele>
        <time>2020-06-17T08:47:02.488Z</time>
      </trkpt>
      <trkpt lat="45.86046" lon="3.3133">
        <ele>293</ele>
        <time>2020-06-17T08:47:02.598Z</time>
      </trkpt>
      <trkpt lat="45.86041" lon="3.31407">
        <ele>292.63842773438</ele>
        <time>2020-06-17T08:47:02.717Z</time>
      </trkpt>
      <trkpt lat="45.8604" lon="3.31726">
        <ele>293</ele>
        <time>2020-06-17T08:47:02.871Z</time>
      </trkpt>
      <trkpt lat="45.86041" lon="3.31846">
        <ele>293.01031494141</ele>
        <time>2020-06-17T08:47:03.039Z</time>
      </trkpt>
      <trkpt lat="45.8604" lon="3.32044">
        <ele>293</ele>
        <time>2020-06-17T08:47:03.229Z</time>
      </trkpt>
      <trkpt lat="45.86046" lon="3.32211">
        <ele>293.59939575195</ele>
        <time>2020-06-17T08:47:03.437Z</time>
      </trkpt>
      <trkpt lat="45.86053" lon="3.3227">
        <ele>294.49371337891</ele>
        <time>2020-06-17T08:47:03.652Z</time>
      </trkpt>
      <trkpt lat="45.86112" lon="3.32459">
        <ele>298.65603637695</ele>
        <time>2020-06-17T08:47:03.890Z</time>
      </trkpt>
      <trkpt lat="45.86117" lon="3.3255">
        <ele>298.26748657227</ele>
        <time>2020-06-17T08:47:04.139Z</time>
      </trkpt>
      <trkpt lat="45.86098" lon="3.32679">
        <ele>298.05032348633</ele>
        <time>2020-06-17T08:47:04.402Z</time>
      </trkpt>
      <trkpt lat="45.8609" lon="3.32905">
        <ele>300.40484619141</ele>
        <time>2020-06-17T08:47:04.691Z</time>
      </trkpt>
      <trkpt lat="45.86123" lon="3.33248">
        <ele>299.19891357422</ele>
        <time>2020-06-17T08:47:05.018Z</time>
      </trkpt>
      <trkpt lat="45.86155" lon="3.3336">
        <ele>296.60165405273</ele>
        <time>2020-06-17T08:47:05.359Z</time>
      </trkpt>
      <trkpt lat="45.86171" lon="3.33416">
        <ele>296.69177246094</ele>
        <time>2020-06-17T08:47:05.707Z</time>
      </trkpt>
      <trkpt lat="45.86172" lon="3.33419">
        <ele>296.69204711914</ele>
        <time>2020-06-17T08:47:06.055Z</time>
      </trkpt>
      <trkpt lat="45.86185" lon="3.33453">
        <ele>297.18585205078</ele>
        <time>2020-06-17T08:47:06.407Z</time>
      </trkpt>
      <trkpt lat="45.86197" lon="3.33484">
        <ele>297.88095092773</ele>
        <time>2020-06-17T08:47:06.763Z</time>
      </trkpt>
      <trkpt lat="45.86227" lon="3.33511">
        <ele>297.99554443359</ele>
        <time>2020-06-17T08:47:07.125Z</time>
      </trkpt>
      <trkpt lat="45.86282" lon="3.3354">
        <ele>300.06164550781</ele>
        <time>2020-06-17T08:47:07.496Z</time>
      </trkpt>
      <trkpt lat="45.86299" lon="3.3355">
        <ele>300.67932128906</ele>
        <time>2020-06-17T08:47:07.870Z</time>
      </trkpt>
      <trkpt lat="45.86278" lon="3.3363">
        <ele>301.72463989258</ele>
        <time>2020-06-17T08:47:08.254Z</time>
      </trkpt>
      <trkpt lat="45.86263" lon="3.33732">
        <ele>302.10317993164</ele>
        <time>2020-06-17T08:47:08.649Z</time>
      </trkpt>
      <trkpt lat="45.86246" lon="3.33756">
        <ele>302.18051147461</ele>
        <time>2020-06-17T08:47:09.048Z</time>
      </trkpt>
      <trkpt lat="45.86243" lon="3.33758">
        <ele>302.16763305664</ele>
        <time>2020-06-17T08:47:09.448Z</time>
      </trkpt>
      <trkpt lat="45.86236" lon="3.33756">
        <ele>302.06457519531</ele>
        <time>2020-06-17T08:47:09.849Z</time>
      </trkpt>
      <trkpt lat="45.86209" lon="3.33806">
        <ele>302.34774780273</ele>
        <time>2020-06-17T08:47:10.257Z</time>
      </trkpt>
      <trkpt lat="45.86196" lon="3.33812">
        <ele>302.24478149414</ele>
        <time>2020-06-17T08:47:10.667Z</time>
      </trkpt>
      <trkpt lat="45.86196" lon="3.33812">
        <ele>302.24487304688</ele>
        <time>2020-06-17T08:47:11.077Z</time>
      </trkpt>
      <trkpt lat="45.86105" lon="3.33766">
        <ele>301.4455871582</ele>
        <time>2020-06-17T08:47:11.503Z</time>
      </trkpt>
      <trkpt lat="45.85961" lon="3.33756">
        <ele>303.61065673828</ele>
        <time>2020-06-17T08:47:11.952Z</time>
      </trkpt>
      <trkpt lat="45.85943" lon="3.33758">
        <ele>303.71365356445</ele>
        <time>2020-06-17T08:47:12.404Z</time>
      </trkpt>
      <trkpt lat="45.85833" lon="3.33821">
        <ele>302.4049987793</ele>
        <time>2020-06-17T08:47:12.875Z</time>
      </trkpt>
      <trkpt lat="45.85684" lon="3.33861">
        <ele>300.21435546875</ele>
        <time>2020-06-17T08:47:13.370Z</time>
      </trkpt>
      <trkpt lat="45.85627" lon="3.33891">
        <ele>300.54736328125</ele>
        <time>2020-06-17T08:47:13.875Z</time>
      </trkpt>
      <trkpt lat="45.85574" lon="3.33881">
        <ele>302.16534423828</ele>
        <time>2020-06-17T08:47:14.388Z</time>
      </trkpt>
      <trkpt lat="45.85529" lon="3.33837">
        <ele>302.04614257812</ele>
        <time>2020-06-17T08:47:14.910Z</time>
      </trkpt>
      <trkpt lat="45.85439" lon="3.33835">
        <ele>304.42092895508</ele>
        <time>2020-06-17T08:47:15.446Z</time>
      </trkpt>
      <trkpt lat="45.85373" lon="3.33843">
        <ele>304.98178100586</ele>
        <time>2020-06-17T08:47:15.993Z</time>
      </trkpt>
      <trkpt lat="45.85309" lon="3.33898">
        <ele>307.16348266602</ele>
        <time>2020-06-17T08:47:16.552Z</time>
      </trkpt>
      <trkpt lat="45.85218" lon="3.33939">
        <ele>310.15780639648</ele>
        <time>2020-06-17T08:47:17.126Z</time>
      </trkpt>
      <trkpt lat="45.85198" lon="3.33969">
        <ele>310.76293945312</ele>
        <time>2020-06-17T08:47:17.705Z</time>
      </trkpt>
      <trkpt lat="45.85188" lon="3.34002">
        <ele>311.79486083984</ele>
        <time>2020-06-17T08:47:18.288Z</time>
      </trkpt>
      <trkpt lat="45.85188" lon="3.34026">
        <ele>312.82928466797</ele>
        <time>2020-06-17T08:47:18.873Z</time>
      </trkpt>
      <trkpt lat="45.85181" lon="3.3405">
        <ele>314.2326965332</ele>
        <time>2020-06-17T08:47:19.461Z</time>
      </trkpt>
      <trkpt lat="45.85104" lon="3.34135">
        <ele>320.85119628906</ele>
        <time>2020-06-17T08:47:20.065Z</time>
      </trkpt>
      <trkpt lat="45.85063" lon="3.34154">
        <ele>323.3606262207</ele>
        <time>2020-06-17T08:47:20.676Z</time>
      </trkpt>
      <trkpt lat="45.85017" lon="3.34197">
        <ele>328.00149536133</ele>
        <time>2020-06-17T08:47:21.295Z</time>
      </trkpt>
      <trkpt lat="45.84981" lon="3.34196">
        <ele>330.77587890625</ele>
        <time>2020-06-17T08:47:21.920Z</time>
      </trkpt>
      <trkpt lat="45.84961" lon="3.3421">
        <ele>331.06100463867</ele>
        <time>2020-06-17T08:47:22.549Z</time>
      </trkpt>
      <trkpt lat="45.84955" lon="3.3426">
        <ele>332.01861572266</ele>
        <time>2020-06-17T08:47:23.184Z</time>
      </trkpt>
      <trkpt lat="45.84948" lon="3.34311">
        <ele>332.85556030273</ele>
        <time>2020-06-17T08:47:23.824Z</time>
      </trkpt>
      <trkpt lat="45.84919" lon="3.34353">
        <ele>335.29956054688</ele>
        <time>2020-06-17T08:47:24.471Z</time>
      </trkpt>
      <trkpt lat="45.84808" lon="3.34449">
        <ele>346.87850952148</ele>
        <time>2020-06-17T08:47:25.139Z</time>
      </trkpt>
      <trkpt lat="45.84764" lon="3.34529">
        <ele>355.05014038086</ele>
        <time>2020-06-17T08:47:25.818Z</time>
      </trkpt>
      <trkpt lat="45.84749" lon="3.34552">
        <ele>356.44110107422</ele>
        <time>2020-06-17T08:47:26.501Z</time>
      </trkpt>
      <trkpt lat="45.84684" lon="3.34638">
        <ele>360.55471801758</ele>
        <time>2020-06-17T08:47:27.198Z</time>
      </trkpt>
      <trkpt lat="45.84684" lon="3.34638">
        <ele>360.55493164062</ele>
        <time>2020-06-17T08:47:27.895Z</time>
      </trkpt>
      <trkpt lat="45.84586" lon="3.34756">
        <ele>361.89981079102</ele>
        <time>2020-06-17T08:47:28.612Z</time>
      </trkpt>
      <trkpt lat="45.84531" lon="3.34848">
        <ele>360.70074462891</ele>
        <time>2020-06-17T08:47:29.343Z</time>
      </trkpt>
      <trkpt lat="45.8451" lon="3.34894">
        <ele>360.11022949219</ele>
        <time>2020-06-17T08:47:30.080Z</time>
      </trkpt>
      <trkpt lat="45.84495" lon="3.3496">
        <ele>361.07565307617</ele>
        <time>2020-06-17T08:47:30.825Z</time>
      </trkpt>
      <trkpt lat="45.84496" lon="3.35028">
        <ele>361.54782104492</ele>
        <time>2020-06-17T08:47:31.577Z</time>
      </trkpt>
      <trkpt lat="45.84506" lon="3.35088">
        <ele>361.20275878906</ele>
        <time>2020-06-17T08:47:32.336Z</time>
      </trkpt>
      <trkpt lat="45.84558" lon="3.35308">
        <ele>361.52911376953</ele>
        <time>2020-06-17T08:47:33.121Z</time>
      </trkpt>
      <trkpt lat="45.84558" lon="3.35308">
        <ele>361.52911376953</ele>
        <time>2020-06-17T08:47:33.906Z</time>
      </trkpt>
      <trkpt lat="45.8458" lon="3.35423">
        <ele>362.95245361328</ele>
        <time>2020-06-17T08:47:34.705Z</time>
      </trkpt>
      <trkpt lat="45.84571" lon="3.35495">
        <ele>363.44845581055</ele>
        <time>2020-06-17T08:47:35.512Z</time>
      </trkpt>
      <trkpt lat="45.84554" lon="3.35532">
        <ele>364.43518066406</ele>
        <time>2020-06-17T08:47:36.324Z</time>
      </trkpt>
      <trkpt lat="45.84525" lon="3.35568">
        <ele>365.63034057617</ele>
        <time>2020-06-17T08:47:37.142Z</time>
      </trkpt>
      <trkpt lat="45.84426" lon="3.35667">
        <ele>365.21087646484</ele>
        <time>2020-06-17T08:47:37.979Z</time>
      </trkpt>
      <trkpt lat="45.8436" lon="3.35729">
        <ele>366.70407104492</ele>
        <time>2020-06-17T08:47:38.829Z</time>
      </trkpt>
      <trkpt lat="45.84221" lon="3.3582">
        <ele>368.70700073242</ele>
        <time>2020-06-17T08:47:39.703Z</time>
      </trkpt>
      <trkpt lat="45.84136" lon="3.35895">
        <ele>372.26751708984</ele>
        <time>2020-06-17T08:47:40.593Z</time>
      </trkpt>
      <trkpt lat="45.84106" lon="3.3602">
        <ele>373</ele>
        <time>2020-06-17T08:47:41.498Z</time>
      </trkpt>
      <trkpt lat="45.841" lon="3.36239">
        <ele>369.99725341797</ele>
        <time>2020-06-17T08:47:42.428Z</time>
      </trkpt>
      <trkpt lat="45.84122" lon="3.36312">
        <ele>369.01571655273</ele>
        <time>2020-06-17T08:47:43.366Z</time>
      </trkpt>
      <trkpt lat="45.84135" lon="3.36397">
        <ele>369.53939819336</ele>
        <time>2020-06-17T08:47:44.314Z</time>
      </trkpt>
      <trkpt lat="45.84129" lon="3.36423">
        <ele>369.71478271484</ele>
        <time>2020-06-17T08:47:45.265Z</time>
      </trkpt>
      <trkpt lat="45.84117" lon="3.36438">
        <ele>368.95516967773</ele>
        <time>2020-06-17T08:47:46.219Z</time>
      </trkpt>
      <trkpt lat="45.84081" lon="3.36448">
        <ele>367.20452880859</ele>
        <time>2020-06-17T08:47:47.179Z</time>
      </trkpt>
      <trkpt lat="45.83925" lon="3.36364">
        <ele>360.58627319336</ele>
        <time>2020-06-17T08:47:48.165Z</time>
      </trkpt>
      <trkpt lat="45.83906" lon="3.36362">
        <ele>359.50500488281</ele>
        <time>2020-06-17T08:47:49.154Z</time>
      </trkpt>
      <trkpt lat="45.83889" lon="3.36377">
        <ele>357.23742675781</ele>
        <time>2020-06-17T08:47:50.147Z</time>
      </trkpt>
      <trkpt lat="45.83874" lon="3.36434">
        <ele>353.17001342773</ele>
        <time>2020-06-17T08:47:51.146Z</time>
      </trkpt>
      <trkpt lat="45.83854" lon="3.3646">
        <ele>351.31637573242</ele>
        <time>2020-06-17T08:47:52.150Z</time>
      </trkpt>
      <trkpt lat="45.8381" lon="3.36484">
        <ele>347.73706054688</ele>
        <time>2020-06-17T08:47:53.161Z</time>
      </trkpt>
      <trkpt lat="45.83724" lon="3.36508">
        <ele>344.18817138672</ele>
        <time>2020-06-17T08:47:54.186Z</time>
      </trkpt>
      <trkpt lat="45.83709" lon="3.36523">
        <ele>343.73364257812</ele>
        <time>2020-06-17T08:47:55.214Z</time>
      </trkpt>
      <trkpt lat="45.83543" lon="3.36632">
        <ele>339.87661743164</ele>
        <time>2020-06-17T08:47:56.271Z</time>
      </trkpt>
      <trkpt lat="45.83469" lon="3.36662">
        <ele>337.34317016602</ele>
        <time>2020-06-17T08:47:57.341Z</time>
      </trkpt>
      <trkpt lat="45.83333" lon="3.36689">
        <ele>335.13708496094</ele>
        <time>2020-06-17T08:47:58.433Z</time>
      </trkpt>
      <trkpt lat="45.8321" lon="3.36726">
        <ele>333.69738769531</ele>
        <time>2020-06-17T08:47:59.545Z</time>
      </trkpt>
      <trkpt lat="45.83129" lon="3.3672">
        <ele>331.76651000977</ele>
        <time>2020-06-17T08:48:00.670Z</time>
      </trkpt>
      <trkpt lat="45.83057" lon="3.36808">
        <ele>331.02880859375</ele>
        <time>2020-06-17T08:48:01.810Z</time>
      </trkpt>
      <trkpt lat="45.83037" lon="3.36884">
        <ele>332.86871337891</ele>
        <time>2020-06-17T08:48:02.959Z</time>
      </trkpt>
      <trkpt lat="45.83034" lon="3.36902">
        <ele>333.40957641602</ele>
        <time>2020-06-17T08:48:04.110Z</time>
      </trkpt>
      <trkpt lat="45.82992" lon="3.37067">
        <ele>334.23559570312</ele>
        <time>2020-06-17T08:48:05.281Z</time>
      </trkpt>
      <trkpt lat="45.82978" lon="3.37143">
        <ele>335.15026855469</ele>
        <time>2020-06-17T08:48:06.461Z</time>
      </trkpt>
      <trkpt lat="45.82979" lon="3.37191">
        <ele>336.16244506836</ele>
        <time>2020-06-17T08:48:07.646Z</time>
      </trkpt>
      <trkpt lat="45.82979" lon="3.37191">
        <ele>336.16223144531</ele>
        <time>2020-06-17T08:48:08.831Z</time>
      </trkpt>
      <trkpt lat="45.82981" lon="3.3728">
        <ele>336.59130859375</ele>
        <time>2020-06-17T08:48:10.026Z</time>
      </trkpt>
      <trkpt lat="45.82981" lon="3.37288">
        <ele>336.77151489258</ele>
        <time>2020-06-17T08:48:11.222Z</time>
      </trkpt>
      <trkpt lat="45.82981" lon="3.37381">
        <ele>338.69055175781</ele>
        <time>2020-06-17T08:48:12.428Z</time>
      </trkpt>
      <trkpt lat="45.82988" lon="3.37407">
        <ele>339.23107910156</ele>
        <time>2020-06-17T08:48:13.637Z</time>
      </trkpt>
      <trkpt lat="45.82985" lon="3.37457">
        <ele>340.62124633789</ele>
        <time>2020-06-17T08:48:14.852Z</time>
      </trkpt>
      <trkpt lat="45.82977" lon="3.37494">
        <ele>342.13998413086</ele>
        <time>2020-06-17T08:48:16.071Z</time>
      </trkpt>
      <trkpt lat="45.82961" lon="3.3756">
        <ele>344.23443603516</ele>
        <time>2020-06-17T08:48:17.298Z</time>
      </trkpt>
      <trkpt lat="45.82958" lon="3.37576">
        <ele>344.65921020508</ele>
        <time>2020-06-17T08:48:18.527Z</time>
      </trkpt>
      <trkpt lat="45.82935" lon="3.3767">
        <ele>346.86138916016</ele>
        <time>2020-06-17T08:48:19.767Z</time>
      </trkpt>
      <trkpt lat="45.82935" lon="3.3767">
        <ele>346.86138916016</ele>
        <time>2020-06-17T08:48:21.007Z</time>
      </trkpt>
      <trkpt lat="45.82916" lon="3.37715">
        <ele>347.80407714844</ele>
        <time>2020-06-17T08:48:22.253Z</time>
      </trkpt>
      <trkpt lat="45.82903" lon="3.37751">
        <ele>348.6794128418</ele>
        <time>2020-06-17T08:48:23.504Z</time>
      </trkpt>
      <trkpt lat="45.82903" lon="3.37751">
        <ele>348.6794128418</ele>
        <time>2020-06-17T08:48:24.755Z</time>
      </trkpt>
      <trkpt lat="45.82893" lon="3.37755">
        <ele>348.75662231445</ele>
        <time>2020-06-17T08:48:26.007Z</time>
      </trkpt>
      <trkpt lat="45.82857" lon="3.37764">
        <ele>349.76666259766</ele>
        <time>2020-06-17T08:48:27.265Z</time>
      </trkpt>
      <trkpt lat="45.8283" lon="3.37767">
        <ele>350.44888305664</ele>
        <time>2020-06-17T08:48:28.527Z</time>
      </trkpt>
      <trkpt lat="45.82827" lon="3.37766">
        <ele>350.51345825195</ele>
        <time>2020-06-17T08:48:29.790Z</time>
      </trkpt>
      <trkpt lat="45.82812" lon="3.37765">
        <ele>350.86080932617</ele>
        <time>2020-06-17T08:48:31.055Z</time>
      </trkpt>
      <trkpt lat="45.82785" lon="3.37773">
        <ele>351.9407043457</ele>
        <time>2020-06-17T08:48:32.325Z</time>
      </trkpt>
      <trkpt lat="45.82762" lon="3.37821">
        <ele>354.10571289062</ele>
        <time>2020-06-17T08:48:33.601Z</time>
      </trkpt>
      <trkpt lat="45.82771" lon="3.37887">
        <ele>356.51107788086</ele>
        <time>2020-06-17T08:48:34.885Z</time>
      </trkpt>
      <trkpt lat="45.82764" lon="3.37909">
        <ele>357.67599487305</ele>
        <time>2020-06-17T08:48:36.171Z</time>
      </trkpt>
      <trkpt lat="45.82758" lon="3.37934">
        <ele>358.767578125</ele>
        <time>2020-06-17T08:48:37.460Z</time>
      </trkpt>
      <trkpt lat="45.8274" lon="3.37932">
        <ele>359.37255859375</ele>
        <time>2020-06-17T08:48:38.752Z</time>
      </trkpt>
      <trkpt lat="45.82687" lon="3.37924">
        <ele>359.64865112305</ele>
        <time>2020-06-17T08:48:40.053Z</time>
      </trkpt>
      <trkpt lat="45.82684" lon="3.37968">
        <ele>360.8798828125</ele>
        <time>2020-06-17T08:48:41.359Z</time>
      </trkpt>
      <trkpt lat="45.82657" lon="3.37967">
        <ele>360.64645385742</ele>
        <time>2020-06-17T08:48:42.669Z</time>
      </trkpt>
      <trkpt lat="45.82655" lon="3.37968">
        <ele>360.63366699219</ele>
        <time>2020-06-17T08:48:43.979Z</time>
      </trkpt>
      <trkpt lat="45.82578" lon="3.37951">
        <ele>358.76782226562</ele>
        <time>2020-06-17T08:48:45.302Z</time>
      </trkpt>
      <trkpt lat="45.82575" lon="3.37951">
        <ele>358.69036865234</ele>
        <time>2020-06-17T08:48:46.625Z</time>
      </trkpt>
      <trkpt lat="45.82575" lon="3.37951">
        <ele>358.69058227539</ele>
        <time>2020-06-17T08:48:47.948Z</time>
      </trkpt>
      <trkpt lat="45.82542" lon="3.37948">
        <ele>357.5634765625</ele>
        <time>2020-06-17T08:48:49.277Z</time>
      </trkpt>
      <trkpt lat="45.82409" lon="3.37947">
        <ele>353.79330444336</ele>
        <time>2020-06-17T08:48:50.627Z</time>
      </trkpt>
      <trkpt lat="45.82337" lon="3.37928">
        <ele>352.96365356445</ele>
        <time>2020-06-17T08:48:51.989Z</time>
      </trkpt>
      <trkpt lat="45.82332" lon="3.37918">
        <ele>352.83493041992</ele>
        <time>2020-06-17T08:48:53.352Z</time>
      </trkpt>
      <trkpt lat="45.82325" lon="3.37921">
        <ele>352.87353515625</ele>
        <time>2020-06-17T08:48:54.716Z</time>
      </trkpt>
      <trkpt lat="45.82323" lon="3.37936">
        <ele>353.05377197266</ele>
        <time>2020-06-17T08:48:56.082Z</time>
      </trkpt>
      <trkpt lat="45.82281" lon="3.37965">
        <ele>353.20492553711</ele>
        <time>2020-06-17T08:48:57.456Z</time>
      </trkpt>
      <trkpt lat="45.82172" lon="3.38084">
        <ele>351</ele>
        <time>2020-06-17T08:48:58.851Z</time>
      </trkpt>
      <trkpt lat="45.82072" lon="3.38089">
        <ele>350.89453125</ele>
        <time>2020-06-17T08:49:00.262Z</time>
      </trkpt>
      <trkpt lat="45.82061" lon="3.38096">
        <ele>350.97177124023</ele>
        <time>2020-06-17T08:49:01.675Z</time>
      </trkpt>
      <trkpt lat="45.82031" lon="3.38113">
        <ele>350.40371704102</ele>
        <time>2020-06-17T08:49:03.094Z</time>
      </trkpt>
      <trkpt lat="45.81944" lon="3.38134">
        <ele>349.43518066406</ele>
        <time>2020-06-17T08:49:04.527Z</time>
      </trkpt>
      <trkpt lat="45.8182" lon="3.38163">
        <ele>346.96170043945</ele>
        <time>2020-06-17T08:49:05.980Z</time>
      </trkpt>
      <trkpt lat="45.8182" lon="3.38163">
        <ele>346.96157836914</ele>
        <time>2020-06-17T08:49:07.433Z</time>
      </trkpt>
      <trkpt lat="45.81811" lon="3.38169">
        <ele>346.91009521484</ele>
        <time>2020-06-17T08:49:08.887Z</time>
      </trkpt>
      <trkpt lat="45.81665" lon="3.38154">
        <ele>340.58255004883</ele>
        <time>2020-06-17T08:49:10.365Z</time>
      </trkpt>
      <trkpt lat="45.81556" lon="3.38179">
        <ele>338.03643798828</ele>
        <time>2020-06-17T08:49:11.860Z</time>
      </trkpt>
      <trkpt lat="45.81458" lon="3.38229">
        <ele>337.44381713867</ele>
        <time>2020-06-17T08:49:13.372Z</time>
      </trkpt>
      <trkpt lat="45.81409" lon="3.38293">
        <ele>337.17819213867</ele>
        <time>2020-06-17T08:49:14.895Z</time>
      </trkpt>
      <trkpt lat="45.81169" lon="3.3857">
        <ele>331.75723266602</ele>
        <time>2020-06-17T08:49:16.467Z</time>
      </trkpt>
      <trkpt lat="45.8104" lon="3.38654">
        <ele>332.05181884766</ele>
        <time>2020-06-17T08:49:18.062Z</time>
      </trkpt>
      <trkpt lat="45.81008" lon="3.38694">
        <ele>332.69677734375</ele>
        <time>2020-06-17T08:49:19.664Z</time>
      </trkpt>
      <trkpt lat="45.80922" lon="3.38746">
        <ele>332.40472412109</ele>
        <time>2020-06-17T08:49:21.280Z</time>
      </trkpt>
      <trkpt lat="45.80831" lon="3.38815">
        <ele>331.19262695312</ele>
        <time>2020-06-17T08:49:22.913Z</time>
      </trkpt>
      <trkpt lat="45.80787" lon="3.3887">
        <ele>332.60357666016</ele>
        <time>2020-06-17T08:49:24.555Z</time>
      </trkpt>
      <trkpt lat="45.80721" lon="3.38904">
        <ele>332.02697753906</ele>
        <time>2020-06-17T08:49:26.209Z</time>
      </trkpt>
      <trkpt lat="45.80706" lon="3.38909">
        <ele>331.82113647461</ele>
        <time>2020-06-17T08:49:27.865Z</time>
      </trkpt>
      <trkpt lat="45.80646" lon="3.38963">
        <ele>333.31246948242</ele>
        <time>2020-06-17T08:49:29.532Z</time>
      </trkpt>
      <trkpt lat="45.80645" lon="3.38962">
        <ele>333.32620239258</ele>
        <time>2020-06-17T08:49:31.200Z</time>
      </trkpt>
      <trkpt lat="45.80629" lon="3.38973">
        <ele>332.73736572266</ele>
        <time>2020-06-17T08:49:32.870Z</time>
      </trkpt>
      <trkpt lat="45.80614" lon="3.38979">
        <ele>332.73736572266</ele>
        <time>2020-06-17T08:49:34.543Z</time>
      </trkpt>
      <trkpt lat="45.80587" lon="3.38986">
        <ele>332.96533203125</ele>
        <time>2020-06-17T08:49:36.220Z</time>
      </trkpt>
      <trkpt lat="45.80552" lon="3.38998">
        <ele>332.97253417969</ele>
        <time>2020-06-17T08:49:37.903Z</time>
      </trkpt>
      <trkpt lat="45.80508" lon="3.39019">
        <ele>333.03115844727</ele>
        <time>2020-06-17T08:49:39.593Z</time>
      </trkpt>
      <trkpt lat="45.80418" lon="3.39049">
        <ele>331</ele>
        <time>2020-06-17T08:49:41.298Z</time>
      </trkpt>
      <trkpt lat="45.80349" lon="3.3907">
        <ele>328.76907348633</ele>
        <time>2020-06-17T08:49:43.015Z</time>
      </trkpt>
      <trkpt lat="45.80321" lon="3.39078">
        <ele>327.52127075195</ele>
        <time>2020-06-17T08:49:44.736Z</time>
      </trkpt>
      <trkpt lat="45.80286" lon="3.39083">
        <ele>326.77093505859</ele>
        <time>2020-06-17T08:49:46.463Z</time>
      </trkpt>
      <trkpt lat="45.80176" lon="3.39093">
        <ele>325.3889465332</ele>
        <time>2020-06-17T08:49:48.207Z</time>
      </trkpt>
      <trkpt lat="45.80118" lon="3.39099">
        <ele>325.009765625</ele>
        <time>2020-06-17T08:49:49.961Z</time>
      </trkpt>
      <trkpt lat="45.80085" lon="3.39105">
        <ele>325.0817565918</ele>
        <time>2020-06-17T08:49:51.720Z</time>
      </trkpt>
      <trkpt lat="45.8006" lon="3.39111">
        <ele>325.24810791016</ele>
        <time>2020-06-17T08:49:53.483Z</time>
      </trkpt>
      <trkpt lat="45.80031" lon="3.39121">
        <ele>325.54745483398</ele>
        <time>2020-06-17T08:49:55.251Z</time>
      </trkpt>
      <trkpt lat="45.7997" lon="3.39147">
        <ele>326.19177246094</ele>
        <time>2020-06-17T08:49:57.029Z</time>
      </trkpt>
      <trkpt lat="45.79949" lon="3.39154">
        <ele>326.61172485352</ele>
        <time>2020-06-17T08:49:58.810Z</time>
      </trkpt>
      <trkpt lat="45.79917" lon="3.3916">
        <ele>326.34365844727</ele>
        <time>2020-06-17T08:50:00.597Z</time>
      </trkpt>
      <trkpt lat="45.79838" lon="3.39172">
        <ele>324.30187988281</ele>
        <time>2020-06-17T08:50:02.396Z</time>
      </trkpt>
      <trkpt lat="45.79747" lon="3.39188">
        <ele>323.07760620117</ele>
        <time>2020-06-17T08:50:04.210Z</time>
      </trkpt>
      <trkpt lat="45.79708" lon="3.39199">
        <ele>323.09133911133</ele>
        <time>2020-06-17T08:50:06.030Z</time>
      </trkpt>
      <trkpt lat="45.79687" lon="3.39207">
        <ele>322.77938842773</ele>
        <time>2020-06-17T08:50:07.854Z</time>
      </trkpt>
      <trkpt lat="45.79654" lon="3.39227">
        <ele>322.82473754883</ele>
        <time>2020-06-17T08:50:09.684Z</time>
      </trkpt>
      <trkpt lat="45.79614" lon="3.39253">
        <ele>323.86410522461</ele>
        <time>2020-06-17T08:50:11.521Z</time>
      </trkpt>
      <trkpt lat="45.79574" lon="3.39274">
        <ele>325.20932006836</ele>
        <time>2020-06-17T08:50:13.364Z</time>
      </trkpt>
      <trkpt lat="45.79543" lon="3.39287">
        <ele>326.03982543945</ele>
        <time>2020-06-17T08:50:15.213Z</time>
      </trkpt>
      <trkpt lat="45.79517" lon="3.39294">
        <ele>325.83587646484</ele>
        <time>2020-06-17T08:50:17.066Z</time>
      </trkpt>
      <trkpt lat="45.79455" lon="3.39306">
        <ele>325.466796875</ele>
        <time>2020-06-17T08:50:18.929Z</time>
      </trkpt>
      <trkpt lat="45.79398" lon="3.39307">
        <ele>325.52679443359</ele>
        <time>2020-06-17T08:50:20.801Z</time>
      </trkpt>
      <trkpt lat="45.7932" lon="3.39297">
        <ele>325.54150390625</ele>
        <time>2020-06-17T08:50:22.686Z</time>
      </trkpt>
      <trkpt lat="45.79247" lon="3.39286">
        <ele>324.31860351562</ele>
        <time>2020-06-17T08:50:24.582Z</time>
      </trkpt>
      <trkpt lat="45.79173" lon="3.39276">
        <ele>322.36801147461</ele>
        <time>2020-06-17T08:50:26.490Z</time>
      </trkpt>
      <trkpt lat="45.79137" lon="3.39275">
        <ele>321.48568725586</ele>
        <time>2020-06-17T08:50:28.404Z</time>
      </trkpt>
      <trkpt lat="45.79111" lon="3.39277">
        <ele>321.58166503906</ele>
        <time>2020-06-17T08:50:30.322Z</time>
      </trkpt>
      <trkpt lat="45.79073" lon="3.39283">
        <ele>321.86953735352</ele>
        <time>2020-06-17T08:50:32.246Z</time>
      </trkpt>
      <trkpt lat="45.79022" lon="3.39293">
        <ele>321.67477416992</ele>
        <time>2020-06-17T08:50:34.178Z</time>
      </trkpt>
      <trkpt lat="45.79" lon="3.39301">
        <ele>321.95858764648</ele>
        <time>2020-06-17T08:50:36.114Z</time>
      </trkpt>
      <trkpt lat="45.78975" lon="3.39316">
        <ele>322.79846191406</ele>
        <time>2020-06-17T08:50:38.054Z</time>
      </trkpt>
      <trkpt lat="45.789" lon="3.3938">
        <ele>326.14556884766</ele>
        <time>2020-06-17T08:50:40.008Z</time>
      </trkpt>
      <trkpt lat="45.78884" lon="3.39392">
        <ele>327.00033569336</ele>
        <time>2020-06-17T08:50:41.965Z</time>
      </trkpt>
      <trkpt lat="45.78855" lon="3.39407">
        <ele>327.24307250977</ele>
        <time>2020-06-17T08:50:43.927Z</time>
      </trkpt>
      <trkpt lat="45.78837" lon="3.39413">
        <ele>327.60299682617</ele>
        <time>2020-06-17T08:50:45.892Z</time>
      </trkpt>
      <trkpt lat="45.78806" lon="3.3942">
        <ele>327.90295410156</ele>
        <time>2020-06-17T08:50:47.862Z</time>
      </trkpt>
      <trkpt lat="45.78755" lon="3.39426">
        <ele>328.0007019043</ele>
        <time>2020-06-17T08:50:49.840Z</time>
      </trkpt>
      <trkpt lat="45.78664" lon="3.39434">
        <ele>327.51391601562</ele>
        <time>2020-06-17T08:50:51.833Z</time>
      </trkpt>
      <trkpt lat="45.78543" lon="3.3944">
        <ele>328.39517211914</ele>
        <time>2020-06-17T08:50:53.845Z</time>
      </trkpt>
      <trkpt lat="45.78399" lon="3.3945">
        <ele>331.34143066406</ele>
        <time>2020-06-17T08:50:55.880Z</time>
      </trkpt>
      <trkpt lat="45.78337" lon="3.39453">
        <ele>330.95748901367</ele>
        <time>2020-06-17T08:50:57.925Z</time>
      </trkpt>
      <trkpt lat="45.78288" lon="3.39458">
        <ele>331.05456542969</ele>
        <time>2020-06-17T08:50:59.978Z</time>
      </trkpt>
      <trkpt lat="45.78267" lon="3.3946">
        <ele>331.52249145508</ele>
        <time>2020-06-17T08:51:02.035Z</time>
      </trkpt>
      <trkpt lat="45.78246" lon="3.39466">
        <ele>332.30432128906</ele>
        <time>2020-06-17T08:51:04.095Z</time>
      </trkpt>
      <trkpt lat="45.78195" lon="3.39484">
        <ele>334.03204345703</ele>
        <time>2020-06-17T08:51:06.163Z</time>
      </trkpt>
      <trkpt lat="45.78163" lon="3.39488">
        <ele>334.03814697266</ele>
        <time>2020-06-17T08:51:08.237Z</time>
      </trkpt>
      <trkpt lat="45.78125" lon="3.39493">
        <ele>334.1589050293</ele>
        <time>2020-06-17T08:51:10.317Z</time>
      </trkpt>
      <trkpt lat="45.78102" lon="3.39499">
        <ele>334.42114257812</ele>
        <time>2020-06-17T08:51:12.400Z</time>
      </trkpt>
      <trkpt lat="45.78077" lon="3.3951">
        <ele>334.91305541992</ele>
        <time>2020-06-17T08:51:14.488Z</time>
      </trkpt>
      <trkpt lat="45.78043" lon="3.39519">
        <ele>335.53204345703</ele>
        <time>2020-06-17T08:51:16.581Z</time>
      </trkpt>
      <trkpt lat="45.78004" lon="3.39528">
        <ele>336.86383056641</ele>
        <time>2020-06-17T08:51:18.681Z</time>
      </trkpt>
      <trkpt lat="45.77983" lon="3.39534">
        <ele>337.60232543945</ele>
        <time>2020-06-17T08:51:20.784Z</time>
      </trkpt>
      <trkpt lat="45.77964" lon="3.39544">
        <ele>338.53060913086</ele>
        <time>2020-06-17T08:51:22.890Z</time>
      </trkpt>
      <trkpt lat="45.7793" lon="3.39566">
        <ele>340.45864868164</ele>
        <time>2020-06-17T08:51:25.002Z</time>
      </trkpt>
      <trkpt lat="45.779" lon="3.39579">
        <ele>340.36267089844</ele>
        <time>2020-06-17T08:51:27.119Z</time>
      </trkpt>
      <trkpt lat="45.77867" lon="3.39588">
        <ele>340.12594604492</ele>
        <time>2020-06-17T08:51:29.242Z</time>
      </trkpt>
      <trkpt lat="45.77842" lon="3.39595">
        <ele>339.77798461914</ele>
        <time>2020-06-17T08:51:31.369Z</time>
      </trkpt>
      <trkpt lat="45.77813" lon="3.39608">
        <ele>339.76666259766</ele>
        <time>2020-06-17T08:51:33.500Z</time>
      </trkpt>
      <trkpt lat="45.77793" lon="3.39613">
        <ele>339.56689453125</ele>
        <time>2020-06-17T08:51:35.635Z</time>
      </trkpt>
      <trkpt lat="45.77778" lon="3.39613">
        <ele>339.38693237305</ele>
        <time>2020-06-17T08:51:37.772Z</time>
      </trkpt>
      <trkpt lat="45.77764" lon="3.39614">
        <ele>339.26696777344</ele>
        <time>2020-06-17T08:51:39.911Z</time>
      </trkpt>
      <trkpt lat="45.77753" lon="3.39618">
        <ele>339.32693481445</ele>
        <time>2020-06-17T08:51:42.052Z</time>
      </trkpt>
      <trkpt lat="45.77702" lon="3.39643">
        <ele>339.45104980469</ele>
        <time>2020-06-17T08:51:44.202Z</time>
      </trkpt>
      <trkpt lat="45.77649" lon="3.39674">
        <ele>339.80752563477</ele>
        <time>2020-06-17T08:51:46.361Z</time>
      </trkpt>
      <trkpt lat="45.77612" lon="3.39698">
        <ele>338.91598510742</ele>
        <time>2020-06-17T08:51:48.526Z</time>
      </trkpt>
      <trkpt lat="45.77585" lon="3.39711">
        <ele>337.59622192383</ele>
        <time>2020-06-17T08:51:50.696Z</time>
      </trkpt>
      <trkpt lat="45.77551" lon="3.39725">
        <ele>335.43078613281</ele>
        <time>2020-06-17T08:51:52.872Z</time>
      </trkpt>
      <trkpt lat="45.77499" lon="3.39739">
        <ele>334.06301879883</ele>
        <time>2020-06-17T08:51:55.056Z</time>
      </trkpt>
      <trkpt lat="45.7749" lon="3.39741">
        <ele>333.81103515625</ele>
        <time>2020-06-17T08:51:57.242Z</time>
      </trkpt>
      <trkpt lat="45.77485" lon="3.39739">
        <ele>333.55908203125</ele>
        <time>2020-06-17T08:51:59.428Z</time>
      </trkpt>
      <trkpt lat="45.77477" lon="3.39734">
        <ele>333.09115600586</ele>
        <time>2020-06-17T08:52:01.616Z</time>
      </trkpt>
      <trkpt lat="45.77462" lon="3.39734">
        <ele>332.99691772461</ele>
        <time>2020-06-17T08:52:03.806Z</time>
      </trkpt>
      <trkpt lat="45.77458" lon="3.39733">
        <ele>333.00894165039</ele>
        <time>2020-06-17T08:52:05.997Z</time>
      </trkpt>
      <trkpt lat="45.77456" lon="3.39741">
        <ele>333.32086181641</ele>
        <time>2020-06-17T08:52:08.189Z</time>
      </trkpt>
      <trkpt lat="45.77453" lon="3.39751">
        <ele>333.50933837891</ele>
        <time>2020-06-17T08:52:10.382Z</time>
      </trkpt>
      <trkpt lat="45.77441" lon="3.39771">
        <ele>332.98229980469</ele>
        <time>2020-06-17T08:52:12.578Z</time>
      </trkpt>
      <trkpt lat="45.77392" lon="3.39824">
        <ele>331.8544921875</ele>
        <time>2020-06-17T08:52:14.784Z</time>
      </trkpt>
      <trkpt lat="45.77373" lon="3.39843">
        <ele>332.35848999023</ele>
        <time>2020-06-17T08:52:16.994Z</time>
      </trkpt>
      <trkpt lat="45.77351" lon="3.39871">
        <ele>333.43084716797</ele>
        <time>2020-06-17T08:52:19.208Z</time>
      </trkpt>
      <trkpt lat="45.77316" lon="3.39942">
        <ele>334.37225341797</ele>
        <time>2020-06-17T08:52:21.432Z</time>
      </trkpt>
      <trkpt lat="45.77264" lon="3.40059">
        <ele>335.95916748047</ele>
        <time>2020-06-17T08:52:23.672Z</time>
      </trkpt>
      <trkpt lat="45.77244" lon="3.40117">
        <ele>336.17446899414</ele>
        <time>2020-06-17T08:52:25.919Z</time>
      </trkpt>
      <trkpt lat="45.77226" lon="3.40191">
        <ele>339.04949951172</ele>
        <time>2020-06-17T08:52:28.175Z</time>
      </trkpt>
      <trkpt lat="45.772" lon="3.40334">
        <ele>343.57543945312</ele>
        <time>2020-06-17T08:52:30.447Z</time>
      </trkpt>
      <trkpt lat="45.772" lon="3.40334">
        <ele>343.57241821289</ele>
        <time>2020-06-17T08:52:32.719Z</time>
      </trkpt>
      <trkpt lat="45.77153" lon="3.4059">
        <ele>347.333984375</ele>
        <time>2020-06-17T08:52:35.021Z</time>
      </trkpt>
      <trkpt lat="45.7711" lon="3.40825">
        <ele>344.33471679688</ele>
        <time>2020-06-17T08:52:37.350Z</time>
      </trkpt>
      <trkpt lat="45.77106" lon="3.40892">
        <ele>345.42709350586</ele>
        <time>2020-06-17T08:52:39.687Z</time>
      </trkpt>
      <trkpt lat="45.77106" lon="3.40917">
        <ele>345.41244506836</ele>
        <time>2020-06-17T08:52:42.026Z</time>
      </trkpt>
      <trkpt lat="45.77101" lon="3.40944">
        <ele>344.82244873047</ele>
        <time>2020-06-17T08:52:44.369Z</time>
      </trkpt>
      <trkpt lat="45.77096" lon="3.40967">
        <ele>344.15054321289</ele>
        <time>2020-06-17T08:52:46.714Z</time>
      </trkpt>
      <trkpt lat="45.77089" lon="3.40982">
        <ele>343.62265014648</ele>
        <time>2020-06-17T08:52:49.061Z</time>
      </trkpt>
      <trkpt lat="45.77078" lon="3.4099">
        <ele>343.1667175293</ele>
        <time>2020-06-17T08:52:51.410Z</time>
      </trkpt>
      <trkpt lat="45.77071" lon="3.40988">
        <ele>343.04672241211</ele>
        <time>2020-06-17T08:52:53.760Z</time>
      </trkpt>
      <trkpt lat="45.77064" lon="3.40989">
        <ele>342.8547668457</ele>
        <time>2020-06-17T08:52:56.111Z</time>
      </trkpt>
      <trkpt lat="45.77058" lon="3.40994">
        <ele>342.5908203125</ele>
        <time>2020-06-17T08:52:58.464Z</time>
      </trkpt>
      <trkpt lat="45.77053" lon="3.41001">
        <ele>342.37725830078</ele>
        <time>2020-06-17T08:53:00.818Z</time>
      </trkpt>
      <trkpt lat="45.77049" lon="3.4101">
        <ele>342.26181030273</ele>
        <time>2020-06-17T08:53:03.173Z</time>
      </trkpt>
      <trkpt lat="45.77048" lon="3.4102">
        <ele>342.06198120117</ele>
        <time>2020-06-17T08:53:05.529Z</time>
      </trkpt>
      <trkpt lat="45.77049" lon="3.41035">
        <ele>341.4860534668</ele>
        <time>2020-06-17T08:53:07.887Z</time>
      </trkpt>
      <trkpt lat="45.77045" lon="3.41077">
        <ele>340.11828613281</ele>
        <time>2020-06-17T08:53:10.249Z</time>
      </trkpt>
      <trkpt lat="45.77042" lon="3.41103">
        <ele>339.39797973633</ele>
        <time>2020-06-17T08:53:12.614Z</time>
      </trkpt>
      <trkpt lat="45.77037" lon="3.4112">
        <ele>339.37396240234</ele>
        <time>2020-06-17T08:53:14.981Z</time>
      </trkpt>
      <trkpt lat="45.77031" lon="3.41132">
        <ele>339.44595336914</ele>
        <time>2020-06-17T08:53:17.350Z</time>
      </trkpt>
      <trkpt lat="45.77004" lon="3.4118">
        <ele>339.25778198242</ele>
        <time>2020-06-17T08:53:19.726Z</time>
      </trkpt>
      <trkpt lat="45.76958" lon="3.41266">
        <ele>340.48468017578</ele>
        <time>2020-06-17T08:53:22.114Z</time>
      </trkpt>
      <trkpt lat="45.76943" lon="3.4129">
        <ele>341.31253051758</ele>
        <time>2020-06-17T08:53:24.506Z</time>
      </trkpt>
      <trkpt lat="45.76924" lon="3.41313">
        <ele>341.99298095703</ele>
        <time>2020-06-17T08:53:26.902Z</time>
      </trkpt>
      <trkpt lat="45.76841" lon="3.41399">
        <ele>342</ele>
        <time>2020-06-17T08:53:29.314Z</time>
      </trkpt>
      <trkpt lat="45.76671" lon="3.41577">
        <ele>346.34265136719</ele>
        <time>2020-06-17T08:53:31.760Z</time>
      </trkpt>
      <trkpt lat="45.76529" lon="3.41725">
        <ele>347.96694946289</ele>
        <time>2020-06-17T08:53:34.234Z</time>
      </trkpt>
      <trkpt lat="45.76475" lon="3.4178">
        <ele>346.42419433594</ele>
        <time>2020-06-17T08:53:36.719Z</time>
      </trkpt>
      <trkpt lat="45.76446" lon="3.41804">
        <ele>346.2096862793</ele>
        <time>2020-06-17T08:53:39.209Z</time>
      </trkpt>
      <trkpt lat="45.76433" lon="3.41813">
        <ele>346.19769287109</ele>
        <time>2020-06-17T08:53:41.701Z</time>
      </trkpt>
      <trkpt lat="45.76414" lon="3.41822">
        <ele>346.32965087891</ele>
        <time>2020-06-17T08:53:44.197Z</time>
      </trkpt>
      <trkpt lat="45.764" lon="3.4183">
        <ele>346.3776550293</ele>
        <time>2020-06-17T08:53:46.695Z</time>
      </trkpt>
      <trkpt lat="45.7639" lon="3.41837">
        <ele>346.36566162109</ele>
        <time>2020-06-17T08:53:49.195Z</time>
      </trkpt>
      <trkpt lat="45.76384" lon="3.41847">
        <ele>346.18106079102</ele>
        <time>2020-06-17T08:53:51.696Z</time>
      </trkpt>
      <trkpt lat="45.76382" lon="3.41858">
        <ele>345.94024658203</ele>
        <time>2020-06-17T08:53:54.198Z</time>
      </trkpt>
      <trkpt lat="45.76379" lon="3.41897">
        <ele>344.68048095703</ele>
        <time>2020-06-17T08:53:56.705Z</time>
      </trkpt>
      <trkpt lat="45.76374" lon="3.41925">
        <ele>343.99395751953</ele>
        <time>2020-06-17T08:53:59.215Z</time>
      </trkpt>
      <trkpt lat="45.76359" lon="3.41957">
        <ele>344.42599487305</ele>
        <time>2020-06-17T08:54:01.729Z</time>
      </trkpt>
      <trkpt lat="45.76337" lon="3.41993">
        <ele>345.31384277344</ele>
        <time>2020-06-17T08:54:04.249Z</time>
      </trkpt>
      <trkpt lat="45.76324" lon="3.42027">
        <ele>345.96563720703</ele>
        <time>2020-06-17T08:54:06.773Z</time>
      </trkpt>
      <trkpt lat="45.76313" lon="3.42053">
        <ele>346.58847045898</ele>
        <time>2020-06-17T08:54:09.300Z</time>
      </trkpt>
      <trkpt lat="45.76305" lon="3.42064">
        <ele>346.97241210938</ele>
        <time>2020-06-17T08:54:11.829Z</time>
      </trkpt>
      <trkpt lat="45.76293" lon="3.42072">
        <ele>347.27416992188</ele>
        <time>2020-06-17T08:54:14.360Z</time>
      </trkpt>
      <trkpt lat="45.76284" lon="3.42076">
        <ele>347.49011230469</ele>
        <time>2020-06-17T08:54:16.893Z</time>
      </trkpt>
      <trkpt lat="45.76284" lon="3.42074">
        <ele>347.48867797852</ele>
        <time>2020-06-17T08:54:19.426Z</time>
      </trkpt>
      <trkpt lat="45.76284" lon="3.42074">
        <ele>347.48941040039</ele>
        <time>2020-06-17T08:54:21.959Z</time>
      </trkpt>
      <trkpt lat="45.76284" lon="3.42074">
        <ele>347.49011230469</ele>
        <time>2020-06-17T08:54:24.492Z</time>
      </trkpt>
      <trkpt lat="45.76265" lon="3.42076">
        <ele>347.54437255859</ele>
        <time>2020-06-17T08:54:27.028Z</time>
      </trkpt>
      <trkpt lat="45.76233" lon="3.42069">
        <ele>347.71234130859</ele>
        <time>2020-06-17T08:54:29.569Z</time>
      </trkpt>
      <trkpt lat="45.76218" lon="3.42071">
        <ele>347.73818969727</ele>
        <time>2020-06-17T08:54:32.113Z</time>
      </trkpt>
      <trkpt lat="45.76176" lon="3.42108">
        <ele>347.88217163086</ele>
        <time>2020-06-17T08:54:34.665Z</time>
      </trkpt>
      <trkpt lat="45.76133" lon="3.42144">
        <ele>348.08291625977</ele>
        <time>2020-06-17T08:54:37.225Z</time>
      </trkpt>
      <trkpt lat="45.76111" lon="3.42155">
        <ele>348.61080932617</ele>
        <time>2020-06-17T08:54:39.788Z</time>
      </trkpt>
      <trkpt lat="45.76086" lon="3.42159">
        <ele>348.72604370117</ele>
        <time>2020-06-17T08:54:42.355Z</time>
      </trkpt>
      <trkpt lat="45.76066" lon="3.42167">
        <ele>348.58206176758</ele>
        <time>2020-06-17T08:54:44.926Z</time>
      </trkpt>
      <trkpt lat="45.76054" lon="3.42179">
        <ele>348.14553833008</ele>
        <time>2020-06-17T08:54:47.499Z</time>
      </trkpt>
      <trkpt lat="45.76045" lon="3.42194">
        <ele>348.19415283203</ele>
        <time>2020-06-17T08:54:50.074Z</time>
      </trkpt>
      <trkpt lat="45.75995" lon="3.42263">
        <ele>348.48208618164</ele>
        <time>2020-06-17T08:54:52.660Z</time>
      </trkpt>
      <trkpt lat="45.75987" lon="3.4229">
        <ele>349.10385131836</ele>
        <time>2020-06-17T08:54:55.250Z</time>
      </trkpt>
      <trkpt lat="45.75988" lon="3.4233">
        <ele>349.57177734375</ele>
        <time>2020-06-17T08:54:57.844Z</time>
      </trkpt>
      <trkpt lat="45.75983" lon="3.42403">
        <ele>350.50762939453</ele>
        <time>2020-06-17T08:55:00.446Z</time>
      </trkpt>
      <trkpt lat="45.75989" lon="3.42437">
        <ele>350.84356689453</ele>
        <time>2020-06-17T08:55:03.052Z</time>
      </trkpt>
      <trkpt lat="45.75991" lon="3.42469">
        <ele>351</ele>
        <time>2020-06-17T08:55:05.662Z</time>
      </trkpt>
      <trkpt lat="45.75981" lon="3.42517">
        <ele>351</ele>
        <time>2020-06-17T08:55:08.278Z</time>
      </trkpt>
      <trkpt lat="45.75963" lon="3.42548">
        <ele>351.5837097168</ele>
        <time>2020-06-17T08:55:10.898Z</time>
      </trkpt>
      <trkpt lat="45.75933" lon="3.4259">
        <ele>352.80752563477</ele>
        <time>2020-06-17T08:55:13.525Z</time>
      </trkpt>
      <trkpt lat="45.75873" lon="3.42677">
        <ele>355.04956054688</ele>
        <time>2020-06-17T08:55:16.165Z</time>
      </trkpt>
      <trkpt lat="45.75812" lon="3.42763">
        <ele>356</ele>
        <time>2020-06-17T08:55:18.819Z</time>
      </trkpt>
      <trkpt lat="45.75752" lon="3.4285">
        <ele>358.27029418945</ele>
        <time>2020-06-17T08:55:21.487Z</time>
      </trkpt>
      <trkpt lat="45.75692" lon="3.42937">
        <ele>358.10836791992</ele>
        <time>2020-06-17T08:55:24.169Z</time>
      </trkpt>
      <trkpt lat="45.75631" lon="3.43023">
        <ele>359.24545288086</ele>
        <time>2020-06-17T08:55:26.864Z</time>
      </trkpt>
      <trkpt lat="45.75571" lon="3.4311">
        <ele>361.59927368164</ele>
        <time>2020-06-17T08:55:29.573Z</time>
      </trkpt>
      <trkpt lat="45.75531" lon="3.43148">
        <ele>362.55911254883</ele>
        <time>2020-06-17T08:55:32.290Z</time>
      </trkpt>
      <trkpt lat="45.75506" lon="3.43162">
        <ele>363.15899658203</ele>
        <time>2020-06-17T08:55:35.011Z</time>
      </trkpt>
      <trkpt lat="45.75466" lon="3.43166">
        <ele>364.1188659668</ele>
        <time>2020-06-17T08:55:37.738Z</time>
      </trkpt>
      <trkpt lat="45.75424" lon="3.43174">
        <ele>364.19674682617</ele>
        <time>2020-06-17T08:55:40.472Z</time>
      </trkpt>
      <trkpt lat="45.75383" lon="3.43169">
        <ele>364.42724609375</ele>
        <time>2020-06-17T08:55:43.213Z</time>
      </trkpt>
      <trkpt lat="45.75331" lon="3.4316">
        <ele>365.89099121094</ele>
        <time>2020-06-17T08:55:45.962Z</time>
      </trkpt>
      <trkpt lat="45.75271" lon="3.43139">
        <ele>367.8346862793</ele>
        <time>2020-06-17T08:55:48.721Z</time>
      </trkpt>
      <trkpt lat="45.75216" lon="3.43115">
        <ele>369.28396606445</ele>
        <time>2020-06-17T08:55:51.489Z</time>
      </trkpt>
      <trkpt lat="45.7517" lon="3.43084">
        <ele>370.61083984375</ele>
        <time>2020-06-17T08:55:54.265Z</time>
      </trkpt>
      <trkpt lat="45.75136" lon="3.43067">
        <ele>371.07507324219</ele>
        <time>2020-06-17T08:55:57.047Z</time>
      </trkpt>
      <trkpt lat="45.75071" lon="3.43042">
        <ele>373.85699462891</ele>
        <time>2020-06-17T08:55:59.840Z</time>
      </trkpt>
      <trkpt lat="45.75006" lon="3.43016">
        <ele>377.28421020508</ele>
        <time>2020-06-17T08:56:02.644Z</time>
      </trkpt>
      <trkpt lat="45.74941" lon="3.42991">
        <ele>379.42272949219</ele>
        <time>2020-06-17T08:56:05.458Z</time>
      </trkpt>
      <trkpt lat="45.74913" lon="3.42988">
        <ele>380.05862426758</ele>
        <time>2020-06-17T08:56:08.277Z</time>
      </trkpt>
      <trkpt lat="45.74866" lon="3.42999">
        <ele>380.79598999023</ele>
        <time>2020-06-17T08:56:11.104Z</time>
      </trkpt>
      <trkpt lat="45.74818" lon="3.43009">
        <ele>380.92196655273</ele>
        <time>2020-06-17T08:56:13.938Z</time>
      </trkpt>
      <trkpt lat="45.74756" lon="3.43006">
        <ele>381.92794799805</ele>
        <time>2020-06-17T08:56:16.782Z</time>
      </trkpt>
      <trkpt lat="45.74698" lon="3.42993">
        <ele>382.18997192383</ele>
        <time>2020-06-17T08:56:19.636Z</time>
      </trkpt>
      <trkpt lat="45.74693" lon="3.42991">
        <ele>382.11798095703</ele>
        <time>2020-06-17T08:56:22.490Z</time>
      </trkpt>
      <trkpt lat="45.74634" lon="3.42978">
        <ele>381.69781494141</ele>
        <time>2020-06-17T08:56:25.354Z</time>
      </trkpt>
      <trkpt lat="45.74574" lon="3.42965">
        <ele>381.63241577148</ele>
        <time>2020-06-17T08:56:28.228Z</time>
      </trkpt>
      <trkpt lat="45.74547" lon="3.42965">
        <ele>381.65081787109</ele>
        <time>2020-06-17T08:56:31.106Z</time>
      </trkpt>
      <trkpt lat="45.74505" lon="3.42954">
        <ele>383.03057861328</ele>
        <time>2020-06-17T08:56:33.991Z</time>
      </trkpt>
      <trkpt lat="45.74442" lon="3.4296">
        <ele>383.32055664062</ele>
        <time>2020-06-17T08:56:36.886Z</time>
      </trkpt>
      <trkpt lat="45.74395" lon="3.42956">
        <ele>383</ele>
        <time>2020-06-17T08:56:39.789Z</time>
      </trkpt>
      <trkpt lat="45.74337" lon="3.4296">
        <ele>383.61117553711</ele>
        <time>2020-06-17T08:56:42.701Z</time>
      </trkpt>
      <trkpt lat="45.74278" lon="3.42964">
        <ele>384.24404907227</ele>
        <time>2020-06-17T08:56:45.622Z</time>
      </trkpt>
      <trkpt lat="45.7424" lon="3.42965">
        <ele>385.3069152832</ele>
        <time>2020-06-17T08:56:48.549Z</time>
      </trkpt>
      <trkpt lat="45.74207" lon="3.42962">
        <ele>386.3298034668</ele>
        <time>2020-06-17T08:56:51.482Z</time>
      </trkpt>
      <trkpt lat="45.7412" lon="3.42949">
        <ele>389.05032348633</ele>
        <time>2020-06-17T08:56:54.429Z</time>
      </trkpt>
      <trkpt lat="45.74033" lon="3.42936">
        <ele>393.83764648438</ele>
        <time>2020-06-17T08:56:57.390Z</time>
      </trkpt>
      <trkpt lat="45.73959" lon="3.42919">
        <ele>395.31573486328</ele>
        <time>2020-06-17T08:57:00.363Z</time>
      </trkpt>
      <trkpt lat="45.73891" lon="3.42897">
        <ele>395.84362792969</ele>
        <time>2020-06-17T08:57:03.347Z</time>
      </trkpt>
      <trkpt lat="45.7384" lon="3.42874">
        <ele>397.54391479492</ele>
        <time>2020-06-17T08:57:06.339Z</time>
      </trkpt>
      <trkpt lat="45.73788" lon="3.42851">
        <ele>399.13952636719</ele>
        <time>2020-06-17T08:57:09.340Z</time>
      </trkpt>
      <trkpt lat="45.73719" lon="3.42825">
        <ele>399.42864990234</ele>
        <time>2020-06-17T08:57:12.353Z</time>
      </trkpt>
      <trkpt lat="45.73635" lon="3.42803">
        <ele>399.00201416016</ele>
        <time>2020-06-17T08:57:15.379Z</time>
      </trkpt>
      <trkpt lat="45.7355" lon="3.42781">
        <ele>401.19036865234</ele>
        <time>2020-06-17T08:57:18.419Z</time>
      </trkpt>
      <trkpt lat="45.73518" lon="3.42761">
        <ele>402.45837402344</ele>
        <time>2020-06-17T08:57:21.465Z</time>
      </trkpt>
      <trkpt lat="45.73476" lon="3.42727">
        <ele>402.40435791016</ele>
        <time>2020-06-17T08:57:24.518Z</time>
      </trkpt>
      <trkpt lat="45.73434" lon="3.42692">
        <ele>405.86529541016</ele>
        <time>2020-06-17T08:57:27.579Z</time>
      </trkpt>
      <trkpt lat="45.73368" lon="3.42623">
        <ele>413.86541748047</ele>
        <time>2020-06-17T08:57:30.653Z</time>
      </trkpt>
      <trkpt lat="45.7333" lon="3.42569">
        <ele>416.07858276367</ele>
        <time>2020-06-17T08:57:33.736Z</time>
      </trkpt>
      <trkpt lat="45.73292" lon="3.42515">
        <ele>417.71032714844</ele>
        <time>2020-06-17T08:57:36.827Z</time>
      </trkpt>
      <trkpt lat="45.73256" lon="3.42485">
        <ele>419.5100402832</ele>
        <time>2020-06-17T08:57:39.925Z</time>
      </trkpt>
      <trkpt lat="45.73238" lon="3.42475">
        <ele>420.46987915039</ele>
        <time>2020-06-17T08:57:43.026Z</time>
      </trkpt>
      <trkpt lat="45.73198" lon="3.42485">
        <ele>421.90588378906</ele>
        <time>2020-06-17T08:57:46.134Z</time>
      </trkpt>
      <trkpt lat="45.73156" lon="3.42468">
        <ele>423.23504638672</ele>
        <time>2020-06-17T08:57:49.249Z</time>
      </trkpt>
      <trkpt lat="45.73132" lon="3.42462">
        <ele>424.40533447266</ele>
        <time>2020-06-17T08:57:52.368Z</time>
      </trkpt>
      <trkpt lat="45.73114" lon="3.42467">
        <ele>425.62911987305</ele>
        <time>2020-06-17T08:57:55.489Z</time>
      </trkpt>
      <trkpt lat="45.73097" lon="3.42476">
        <ele>427.1123046875</ele>
        <time>2020-06-17T08:57:58.613Z</time>
      </trkpt>
      <trkpt lat="45.73078" lon="3.42481">
        <ele>428.95999145508</ele>
        <time>2020-06-17T08:58:01.740Z</time>
      </trkpt>
      <trkpt lat="45.73049" lon="3.42478">
        <ele>431.05264282227</ele>
        <time>2020-06-17T08:58:04.872Z</time>
      </trkpt>
      <trkpt lat="45.73029" lon="3.42472">
        <ele>433.11630249023</ele>
        <time>2020-06-17T08:58:08.007Z</time>
      </trkpt>
      <trkpt lat="45.73022" lon="3.42467">
        <ele>433.56024169922</ele>
        <time>2020-06-17T08:58:11.144Z</time>
      </trkpt>
      <trkpt lat="45.73009" lon="3.42452">
        <ele>433.83618164062</ele>
        <time>2020-06-17T08:58:14.283Z</time>
      </trkpt>
      <trkpt lat="45.73001" lon="3.42431">
        <ele>432.94079589844</ele>
        <time>2020-06-17T08:58:17.425Z</time>
      </trkpt>
      <trkpt lat="45.72998" lon="3.42388">
        <ele>431.78900146484</ele>
        <time>2020-06-17T08:58:20.572Z</time>
      </trkpt>
      <trkpt lat="45.72992" lon="3.42368">
        <ele>431.86096191406</ele>
        <time>2020-06-17T08:58:23.721Z</time>
      </trkpt>
      <trkpt lat="45.72984" lon="3.42357">
        <ele>432.52087402344</ele>
        <time>2020-06-17T08:58:26.872Z</time>
      </trkpt>
      <trkpt lat="45.72977" lon="3.42353">
        <ele>433.30075073242</ele>
        <time>2020-06-17T08:58:30.024Z</time>
      </trkpt>
      <trkpt lat="45.72958" lon="3.42356">
        <ele>435.31466674805</ele>
        <time>2020-06-17T08:58:33.179Z</time>
      </trkpt>
      <trkpt lat="45.72907" lon="3.42425">
        <ele>442.08154296875</ele>
        <time>2020-06-17T08:58:36.346Z</time>
      </trkpt>
      <trkpt lat="45.72876" lon="3.42491">
        <ele>445.40222167969</ele>
        <time>2020-06-17T08:58:39.521Z</time>
      </trkpt>
      <trkpt lat="45.72844" lon="3.42556">
        <ele>449.59594726562</ele>
        <time>2020-06-17T08:58:42.705Z</time>
      </trkpt>
      <trkpt lat="45.72815" lon="3.42588">
        <ele>452.06753540039</ele>
        <time>2020-06-17T08:58:45.895Z</time>
      </trkpt>
      <trkpt lat="45.72753" lon="3.42605">
        <ele>455.14096069336</ele>
        <time>2020-06-17T08:58:49.095Z</time>
      </trkpt>
      <trkpt lat="45.72733" lon="3.42606">
        <ele>456.05279541016</ele>
        <time>2020-06-17T08:58:52.299Z</time>
      </trkpt>
      <trkpt lat="45.72712" lon="3.42604">
        <ele>457.21939086914</ele>
        <time>2020-06-17T08:58:55.506Z</time>
      </trkpt>
      <trkpt lat="45.72689" lon="3.426">
        <ele>458.46716308594</ele>
        <time>2020-06-17T08:58:58.717Z</time>
      </trkpt>
      <trkpt lat="45.72672" lon="3.42595">
        <ele>459.41778564453</ele>
        <time>2020-06-17T08:59:01.930Z</time>
      </trkpt>
      <trkpt lat="45.72647" lon="3.42599">
        <ele>460.5188293457</ele>
        <time>2020-06-17T08:59:05.147Z</time>
      </trkpt>
      <trkpt lat="45.72637" lon="3.42605">
        <ele>460.5549621582</ele>
        <time>2020-06-17T08:59:08.366Z</time>
      </trkpt>
      <trkpt lat="45.72614" lon="3.42644">
        <ele>458.29934692383</ele>
        <time>2020-06-17T08:59:11.591Z</time>
      </trkpt>
      <trkpt lat="45.7259" lon="3.42661">
        <ele>457.65145874023</ele>
        <time>2020-06-17T08:59:14.820Z</time>
      </trkpt>
      <trkpt lat="45.72565" lon="3.42661">
        <ele>458.25134277344</ele>
        <time>2020-06-17T08:59:18.053Z</time>
      </trkpt>
      <trkpt lat="45.725" lon="3.4267">
        <ele>458.66305541992</ele>
        <time>2020-06-17T08:59:21.297Z</time>
      </trkpt>
      <trkpt lat="45.72453" lon="3.42681">
        <ele>457.47891235352</ele>
        <time>2020-06-17T08:59:24.548Z</time>
      </trkpt>
      <trkpt lat="45.72399" lon="3.42701">
        <ele>453.41400146484</ele>
        <time>2020-06-17T08:59:27.808Z</time>
      </trkpt>
      <trkpt lat="45.72345" lon="3.42721">
        <ele>450.21871948242</ele>
        <time>2020-06-17T08:59:31.077Z</time>
      </trkpt>
      <trkpt lat="45.72309" lon="3.4278">
        <ele>452.40185546875</ele>
        <time>2020-06-17T08:59:34.355Z</time>
      </trkpt>
      <trkpt lat="45.72273" lon="3.42838">
        <ele>456.95986938477</ele>
        <time>2020-06-17T08:59:37.642Z</time>
      </trkpt>
      <trkpt lat="45.72232" lon="3.429">
        <ele>460.56442260742</ele>
        <time>2020-06-17T08:59:40.938Z</time>
      </trkpt>
      <trkpt lat="45.72161" lon="3.42921">
        <ele>463.45712280273</ele>
        <time>2020-06-17T08:59:44.246Z</time>
      </trkpt>
      <trkpt lat="45.72089" lon="3.42941">
        <ele>466.21322631836</ele>
        <time>2020-06-17T08:59:47.565Z</time>
      </trkpt>
      <trkpt lat="45.72041" lon="3.42962">
        <ele>468.86441040039</ele>
        <time>2020-06-17T08:59:50.893Z</time>
      </trkpt>
      <trkpt lat="45.71992" lon="3.42983">
        <ele>472.28201293945</ele>
        <time>2020-06-17T08:59:54.229Z</time>
      </trkpt>
      <trkpt lat="45.71952" lon="3.42992">
        <ele>474.39547729492</ele>
        <time>2020-06-17T08:59:57.571Z</time>
      </trkpt>
      <trkpt lat="45.71902" lon="3.42985">
        <ele>474.15063476562</ele>
        <time>2020-06-17T09:00:00.921Z</time>
      </trkpt>
      <trkpt lat="45.71885" lon="3.4299">
        <ele>475.33709716797</ele>
        <time>2020-06-17T09:00:04.274Z</time>
      </trkpt>
      <trkpt lat="45.71862" lon="3.4304">
        <ele>480.24328613281</ele>
        <time>2020-06-17T09:00:07.634Z</time>
      </trkpt>
      <trkpt lat="45.71846" lon="3.43061">
        <ele>481.05123901367</ele>
        <time>2020-06-17T09:00:10.997Z</time>
      </trkpt>
      <trkpt lat="45.71807" lon="3.43104">
        <ele>483.61380004883</ele>
        <time>2020-06-17T09:00:14.368Z</time>
      </trkpt>
      <trkpt lat="45.71799" lon="3.43116">
        <ele>484.08499145508</ele>
        <time>2020-06-17T09:00:17.741Z</time>
      </trkpt>
      <trkpt lat="45.71795" lon="3.43128">
        <ele>484.75689697266</ele>
        <time>2020-06-17T09:00:21.115Z</time>
      </trkpt>
      <trkpt lat="45.71794" lon="3.43153">
        <ele>487.03649902344</ele>
        <time>2020-06-17T09:00:24.492Z</time>
      </trkpt>
      <trkpt lat="45.71802" lon="3.43181">
        <ele>490.66677856445</ele>
        <time>2020-06-17T09:00:27.873Z</time>
      </trkpt>
      <trkpt lat="45.71822" lon="3.43215">
        <ele>492.49285888672</ele>
        <time>2020-06-17T09:00:31.259Z</time>
      </trkpt>
      <trkpt lat="45.71831" lon="3.43242">
        <ele>493.35668945312</ele>
        <time>2020-06-17T09:00:34.648Z</time>
      </trkpt>
      <trkpt lat="45.7183" lon="3.43292">
        <ele>492.95062255859</ele>
        <time>2020-06-17T09:00:38.043Z</time>
      </trkpt>
      <trkpt lat="45.71823" lon="3.43322">
        <ele>493.58651733398</ele>
        <time>2020-06-17T09:00:41.441Z</time>
      </trkpt>
      <trkpt lat="45.71814" lon="3.43344">
        <ele>494.00643920898</ele>
        <time>2020-06-17T09:00:44.842Z</time>
      </trkpt>
      <trkpt lat="45.71808" lon="3.43351">
        <ele>493.95080566406</ele>
        <time>2020-06-17T09:00:48.244Z</time>
      </trkpt>
      <trkpt lat="45.71772" lon="3.43369">
        <ele>494.10241699219</ele>
        <time>2020-06-17T09:00:51.652Z</time>
      </trkpt>
      <trkpt lat="45.71704" lon="3.43393">
        <ele>496.70434570312</ele>
        <time>2020-06-17T09:00:55.072Z</time>
      </trkpt>
      <trkpt lat="45.71635" lon="3.43417">
        <ele>499.63217163086</ele>
        <time>2020-06-17T09:00:58.503Z</time>
      </trkpt>
      <trkpt lat="45.71612" lon="3.43423">
        <ele>501.50073242188</ele>
        <time>2020-06-17T09:01:01.938Z</time>
      </trkpt>
      <trkpt lat="45.71559" lon="3.43411">
        <ele>503.38442993164</ele>
        <time>2020-06-17T09:01:05.381Z</time>
      </trkpt>
      <trkpt lat="45.7153" lon="3.43415">
        <ele>507.36431884766</ele>
        <time>2020-06-17T09:01:08.829Z</time>
      </trkpt>
      <trkpt lat="45.71518" lon="3.43411">
        <ele>508.22817993164</ele>
        <time>2020-06-17T09:01:12.279Z</time>
      </trkpt>
      <trkpt lat="45.71509" lon="3.43402">
        <ele>508.66009521484</ele>
        <time>2020-06-17T09:01:15.731Z</time>
      </trkpt>
      <trkpt lat="45.71486" lon="3.43352">
        <ele>507.8844909668</ele>
        <time>2020-06-17T09:01:19.189Z</time>
      </trkpt>
      <trkpt lat="45.71471" lon="3.43335">
        <ele>508.88848876953</ele>
        <time>2020-06-17T09:01:22.650Z</time>
      </trkpt>
      <trkpt lat="45.71454" lon="3.43325">
        <ele>508.27993774414</ele>
        <time>2020-06-17T09:01:26.114Z</time>
      </trkpt>
      <trkpt lat="45.71436" lon="3.43326">
        <ele>509.03536987305</ele>
        <time>2020-06-17T09:01:29.581Z</time>
      </trkpt>
      <trkpt lat="45.71422" lon="3.4333">
        <ele>510.40313720703</ele>
        <time>2020-06-17T09:01:33.050Z</time>
      </trkpt>
      <trkpt lat="45.71405" lon="3.43339">
        <ele>512.61077880859</ele>
        <time>2020-06-17T09:01:36.522Z</time>
      </trkpt>
      <trkpt lat="45.71334" lon="3.4339">
        <ele>522.75653076172</ele>
        <time>2020-06-17T09:01:40.007Z</time>
      </trkpt>
      <trkpt lat="45.71288" lon="3.43397">
        <ele>526.55279541016</ele>
        <time>2020-06-17T09:01:43.499Z</time>
      </trkpt>
      <trkpt lat="45.71228" lon="3.43399">
        <ele>530.29614257812</ele>
        <time>2020-06-17T09:01:47.001Z</time>
      </trkpt>
      <trkpt lat="45.71168" lon="3.434">
        <ele>530.13171386719</ele>
        <time>2020-06-17T09:01:50.513Z</time>
      </trkpt>
      <trkpt lat="45.71095" lon="3.4337">
        <ele>531.55920410156</ele>
        <time>2020-06-17T09:01:54.037Z</time>
      </trkpt>
      <trkpt lat="45.71034" lon="3.43362">
        <ele>536.34826660156</ele>
        <time>2020-06-17T09:01:57.571Z</time>
      </trkpt>
      <trkpt lat="45.70986" lon="3.43328">
        <ele>539.48101806641</ele>
        <time>2020-06-17T09:02:01.113Z</time>
      </trkpt>
      <trkpt lat="45.70967" lon="3.43324">
        <ele>540.99743652344</ele>
        <time>2020-06-17T09:02:04.658Z</time>
      </trkpt>
      <trkpt lat="45.70901" lon="3.43338">
        <ele>544.93505859375</ele>
        <time>2020-06-17T09:02:08.214Z</time>
      </trkpt>
      <trkpt lat="45.70834" lon="3.43351">
        <ele>551.02276611328</ele>
        <time>2020-06-17T09:02:11.781Z</time>
      </trkpt>
      <trkpt lat="45.70813" lon="3.43341">
        <ele>552.99426269531</ele>
        <time>2020-06-17T09:02:15.351Z</time>
      </trkpt>
      <trkpt lat="45.70791" lon="3.43321">
        <ele>554.71588134766</ele>
        <time>2020-06-17T09:02:18.926Z</time>
      </trkpt>
      <trkpt lat="45.70765" lon="3.43309">
        <ele>556.75555419922</ele>
        <time>2020-06-17T09:02:22.505Z</time>
      </trkpt>
      <trkpt lat="45.70716" lon="3.43299">
        <ele>560.24963378906</ele>
        <time>2020-06-17T09:02:26.092Z</time>
      </trkpt>
      <trkpt lat="45.707" lon="3.43305">
        <ele>561.20947265625</ele>
        <time>2020-06-17T09:02:29.681Z</time>
      </trkpt>
      <trkpt lat="45.70693" lon="3.43311">
        <ele>561.62939453125</ele>
        <time>2020-06-17T09:02:33.272Z</time>
      </trkpt>
      <trkpt lat="45.70693" lon="3.43333">
        <ele>561.89978027344</ele>
        <time>2020-06-17T09:02:36.865Z</time>
      </trkpt>
      <trkpt lat="45.707" lon="3.43381">
        <ele>562.07849121094</ele>
        <time>2020-06-17T09:02:40.464Z</time>
      </trkpt>
      <trkpt lat="45.70702" lon="3.43411">
        <ele>562.27044677734</ele>
        <time>2020-06-17T09:02:44.066Z</time>
      </trkpt>
      <trkpt lat="45.70687" lon="3.43439">
        <ele>564.18298339844</ele>
        <time>2020-06-17T09:02:47.672Z</time>
      </trkpt>
      <trkpt lat="45.70657" lon="3.43458">
        <ele>566.86187744141</ele>
        <time>2020-06-17T09:02:51.283Z</time>
      </trkpt>
      <trkpt lat="45.70633" lon="3.43471">
        <ele>567.97100830078</ele>
        <time>2020-06-17T09:02:54.898Z</time>
      </trkpt>
      <trkpt lat="45.7061" lon="3.43478">
        <ele>569.92669677734</ele>
        <time>2020-06-17T09:02:58.517Z</time>
      </trkpt>
      <trkpt lat="45.70565" lon="3.43486">
        <ele>573.45135498047</ele>
        <time>2020-06-17T09:03:02.143Z</time>
      </trkpt>
      <trkpt lat="45.70521" lon="3.43481">
        <ele>576.21807861328</ele>
        <time>2020-06-17T09:03:05.777Z</time>
      </trkpt>
      <trkpt lat="45.70481" lon="3.4343">
        <ele>580.60046386719</ele>
        <time>2020-06-17T09:03:09.419Z</time>
      </trkpt>
      <trkpt lat="45.7044" lon="3.43378">
        <ele>584.03649902344</ele>
        <time>2020-06-17T09:03:13.070Z</time>
      </trkpt>
      <trkpt lat="45.70442" lon="3.43347">
        <ele>585.17120361328</ele>
        <time>2020-06-17T09:03:16.724Z</time>
      </trkpt>
      <trkpt lat="45.70442" lon="3.43319">
        <ele>587.41638183594</ele>
        <time>2020-06-17T09:03:20.382Z</time>
      </trkpt>
      <trkpt lat="45.70437" lon="3.43273">
        <ele>589.00012207031</ele>
        <time>2020-06-17T09:03:24.045Z</time>
      </trkpt>
      <trkpt lat="45.70441" lon="3.43199">
        <ele>594.30590820312</ele>
        <time>2020-06-17T09:03:27.716Z</time>
      </trkpt>
      <trkpt lat="45.70444" lon="3.43124">
        <ele>601.66937255859</ele>
        <time>2020-06-17T09:03:31.395Z</time>
      </trkpt>
      <trkpt lat="45.70443" lon="3.43112">
        <ele>603.09710693359</ele>
        <time>2020-06-17T09:03:35.076Z</time>
      </trkpt>
      <trkpt lat="45.70438" lon="3.43102">
        <ele>604.23693847656</ele>
        <time>2020-06-17T09:03:38.758Z</time>
      </trkpt>
      <trkpt lat="45.70431" lon="3.43096">
        <ele>604.73596191406</ele>
        <time>2020-06-17T09:03:42.442Z</time>
      </trkpt>
      <trkpt lat="45.7042" lon="3.43094">
        <ele>604.74792480469</ele>
        <time>2020-06-17T09:03:46.127Z</time>
      </trkpt>
      <trkpt lat="45.70397" lon="3.43096">
        <ele>604.32800292969</ele>
        <time>2020-06-17T09:03:49.816Z</time>
      </trkpt>
      <trkpt lat="45.70367" lon="3.43105">
        <ele>602.845703125</ele>
        <time>2020-06-17T09:03:53.510Z</time>
      </trkpt>
      <trkpt lat="45.70346" lon="3.43133">
        <ele>600.07421875</ele>
        <time>2020-06-17T09:03:57.208Z</time>
      </trkpt>
      <trkpt lat="45.70287" lon="3.4322">
        <ele>601.39416503906</ele>
        <time>2020-06-17T09:04:00.920Z</time>
      </trkpt>
      <trkpt lat="45.70272" lon="3.4323">
        <ele>601.75408935547</ele>
        <time>2020-06-17T09:04:04.635Z</time>
      </trkpt>
      <trkpt lat="45.70266" lon="3.4323">
        <ele>601.94311523438</ele>
        <time>2020-06-17T09:04:08.351Z</time>
      </trkpt>
      <trkpt lat="45.70189" lon="3.43287">
        <ele>607.35272216797</ele>
        <time>2020-06-17T09:04:12.081Z</time>
      </trkpt>
      <trkpt lat="45.70164" lon="3.43325">
        <ele>609.38256835938</ele>
        <time>2020-06-17T09:04:15.816Z</time>
      </trkpt>
      <trkpt lat="45.70156" lon="3.43339">
        <ele>610.15045166016</ele>
        <time>2020-06-17T09:04:19.553Z</time>
      </trkpt>
      <trkpt lat="45.70113" lon="3.43392">
        <ele>611.35485839844</ele>
        <time>2020-06-17T09:04:23.300Z</time>
      </trkpt>
      <trkpt lat="45.70091" lon="3.43433">
        <ele>614.05364990234</ele>
        <time>2020-06-17T09:04:27.052Z</time>
      </trkpt>
      <trkpt lat="45.70046" lon="3.43543">
        <ele>615.03881835938</ele>
        <time>2020-06-17T09:04:30.819Z</time>
      </trkpt>
      <trkpt lat="45.70008" lon="3.43589">
        <ele>613.37890625</ele>
        <time>2020-06-17T09:04:34.594Z</time>
      </trkpt>
      <trkpt lat="45.6997" lon="3.43635">
        <ele>610.40673828125</ele>
        <time>2020-06-17T09:04:38.377Z</time>
      </trkpt>
      <trkpt lat="45.6997" lon="3.43635">
        <ele>610.40411376953</ele>
        <time>2020-06-17T09:04:42.160Z</time>
      </trkpt>
      <trkpt lat="45.6997" lon="3.43635">
        <ele>610.40380859375</ele>
        <time>2020-06-17T09:04:45.943Z</time>
      </trkpt>
      <trkpt lat="45.69938" lon="3.43693">
        <ele>608.53747558594</ele>
        <time>2020-06-17T09:04:49.734Z</time>
      </trkpt>
      <trkpt lat="45.69921" lon="3.43756">
        <ele>609.35333251953</ele>
        <time>2020-06-17T09:04:53.532Z</time>
      </trkpt>
      <trkpt lat="45.69904" lon="3.43818">
        <ele>610.58984375</ele>
        <time>2020-06-17T09:04:57.338Z</time>
      </trkpt>
      <trkpt lat="45.69885" lon="3.43873">
        <ele>612.32873535156</ele>
        <time>2020-06-17T09:05:01.151Z</time>
      </trkpt>
      <trkpt lat="45.69878" lon="3.43869">
        <ele>612.44873046875</ele>
        <time>2020-06-17T09:05:04.965Z</time>
      </trkpt>
      <trkpt lat="45.69865" lon="3.43868">
        <ele>612.74871826172</ele>
        <time>2020-06-17T09:05:08.781Z</time>
      </trkpt>
      <trkpt lat="45.69845" lon="3.43876">
        <ele>613.32458496094</ele>
        <time>2020-06-17T09:05:12.600Z</time>
      </trkpt>
      <trkpt lat="45.69819" lon="3.43892">
        <ele>613.81213378906</ele>
        <time>2020-06-17T09:05:16.424Z</time>
      </trkpt>
      <trkpt lat="45.69816" lon="3.43892">
        <ele>613.84814453125</ele>
        <time>2020-06-17T09:05:20.248Z</time>
      </trkpt>
      <trkpt lat="45.69799" lon="3.43779">
        <ele>614.63732910156</ele>
        <time>2020-06-17T09:05:24.085Z</time>
      </trkpt>
      <trkpt lat="45.69782" lon="3.43665">
        <ele>613.32922363281</ele>
        <time>2020-06-17T09:05:27.935Z</time>
      </trkpt>
      <trkpt lat="45.69765" lon="3.43552">
        <ele>612.53997802734</ele>
        <time>2020-06-17T09:05:31.798Z</time>
      </trkpt>
      <trkpt lat="45.69748" lon="3.43438">
        <ele>612.20581054688</ele>
        <time>2020-06-17T09:05:35.674Z</time>
      </trkpt>
      <trkpt lat="45.69738" lon="3.43388">
        <ele>611.33331298828</ele>
        <time>2020-06-17T09:05:39.556Z</time>
      </trkpt>
      <trkpt lat="45.69725" lon="3.43343">
        <ele>610.22955322266</ele>
        <time>2020-06-17T09:05:43.444Z</time>
      </trkpt>
      <trkpt lat="45.69707" lon="3.433">
        <ele>608.63385009766</ele>
        <time>2020-06-17T09:05:47.337Z</time>
      </trkpt>
      <trkpt lat="45.69667" lon="3.43228">
        <ele>605.37036132812</ele>
        <time>2020-06-17T09:05:51.241Z</time>
      </trkpt>
      <trkpt lat="45.69627" lon="3.43156">
        <ele>601.19677734375</ele>
        <time>2020-06-17T09:05:55.155Z</time>
      </trkpt>
      <trkpt lat="45.69607" lon="3.43113">
        <ele>598.13732910156</ele>
        <time>2020-06-17T09:05:59.075Z</time>
      </trkpt>
      <trkpt lat="45.69595" lon="3.43104">
        <ele>597.30944824219</ele>
        <time>2020-06-17T09:06:02.997Z</time>
      </trkpt>
      <trkpt lat="45.69575" lon="3.43113">
        <ele>597.36944580078</ele>
        <time>2020-06-17T09:06:06.922Z</time>
      </trkpt>
      <trkpt lat="45.69555" lon="3.43133">
        <ele>596.92138671875</ele>
        <time>2020-06-17T09:06:10.851Z</time>
      </trkpt>
      <trkpt lat="45.69538" lon="3.43148">
        <ele>597.36291503906</ele>
        <time>2020-06-17T09:06:14.783Z</time>
      </trkpt>
      <trkpt lat="45.69483" lon="3.43148">
        <ele>597.58966064453</ele>
        <time>2020-06-17T09:06:18.724Z</time>
      </trkpt>
      <trkpt lat="45.69445" lon="3.43153">
        <ele>597.05090332031</ele>
        <time>2020-06-17T09:06:22.671Z</time>
      </trkpt>
      <trkpt lat="45.69368" lon="3.43147">
        <ele>595.13122558594</ele>
        <time>2020-06-17T09:06:26.631Z</time>
      </trkpt>
      <trkpt lat="45.69368" lon="3.43146">
        <ele>595.11920166016</ele>
        <time>2020-06-17T09:06:30.591Z</time>
      </trkpt>
      <trkpt lat="45.69332" lon="3.43144">
        <ele>593.83764648438</ele>
        <time>2020-06-17T09:06:34.557Z</time>
      </trkpt>
      <trkpt lat="45.69271" lon="3.43147">
        <ele>590.87414550781</ele>
        <time>2020-06-17T09:06:38.532Z</time>
      </trkpt>
      <trkpt lat="45.6921" lon="3.4315">
        <ele>588.76214599609</ele>
        <time>2020-06-17T09:06:42.517Z</time>
      </trkpt>
      <trkpt lat="45.69149" lon="3.43153">
        <ele>588.7998046875</ele>
        <time>2020-06-17T09:06:46.512Z</time>
      </trkpt>
      <trkpt lat="45.6912" lon="3.4315">
        <ele>589.43725585938</ele>
        <time>2020-06-17T09:06:50.511Z</time>
      </trkpt>
      <trkpt lat="45.6908" lon="3.43136">
        <ele>590.373046875</ele>
        <time>2020-06-17T09:06:54.517Z</time>
      </trkpt>
      <trkpt lat="45.69038" lon="3.43106">
        <ele>590.98754882812</ele>
        <time>2020-06-17T09:06:58.531Z</time>
      </trkpt>
      <trkpt lat="45.68997" lon="3.43054">
        <ele>593.23608398438</ele>
        <time>2020-06-17T09:07:02.553Z</time>
      </trkpt>
      <trkpt lat="45.68948" lon="3.43003">
        <ele>594.19110107422</ele>
        <time>2020-06-17T09:07:06.585Z</time>
      </trkpt>
      <trkpt lat="45.689" lon="3.42953">
        <ele>591.80755615234</ele>
        <time>2020-06-17T09:07:10.627Z</time>
      </trkpt>
      <trkpt lat="45.68851" lon="3.42902">
        <ele>588.40283203125</ele>
        <time>2020-06-17T09:07:14.678Z</time>
      </trkpt>
      <trkpt lat="45.68826" lon="3.42896">
        <ele>587.67095947266</ele>
        <time>2020-06-17T09:07:18.733Z</time>
      </trkpt>
      <trkpt lat="45.68737" lon="3.42898">
        <ele>586.36291503906</ele>
        <time>2020-06-17T09:07:22.803Z</time>
      </trkpt>
      <trkpt lat="45.68685" lon="3.42905">
        <ele>585.67687988281</ele>
        <time>2020-06-17T09:07:26.881Z</time>
      </trkpt>
      <trkpt lat="45.68633" lon="3.42912">
        <ele>583.51629638672</ele>
        <time>2020-06-17T09:07:30.967Z</time>
      </trkpt>
      <trkpt lat="45.68579" lon="3.42908">
        <ele>582.62066650391</ele>
        <time>2020-06-17T09:07:35.062Z</time>
      </trkpt>
      <trkpt lat="45.68506" lon="3.42891">
        <ele>580.93469238281</ele>
        <time>2020-06-17T09:07:39.169Z</time>
      </trkpt>
      <trkpt lat="45.68432" lon="3.42874">
        <ele>581.20892333984</ele>
        <time>2020-06-17T09:07:43.288Z</time>
      </trkpt>
      <trkpt lat="45.6838" lon="3.42868">
        <ele>582.53771972656</ele>
        <time>2020-06-17T09:07:47.415Z</time>
      </trkpt>
      <trkpt lat="45.68343" lon="3.42873">
        <ele>583.10162353516</ele>
        <time>2020-06-17T09:07:51.548Z</time>
      </trkpt>
      <trkpt lat="45.68299" lon="3.42885">
        <ele>583.05511474609</ele>
        <time>2020-06-17T09:07:55.688Z</time>
      </trkpt>
      <trkpt lat="45.68254" lon="3.42897">
        <ele>583.42181396484</ele>
        <time>2020-06-17T09:07:59.836Z</time>
      </trkpt>
      <trkpt lat="45.6824" lon="3.42894">
        <ele>583.45782470703</ele>
        <time>2020-06-17T09:08:03.986Z</time>
      </trkpt>
      <trkpt lat="45.68227" lon="3.42885">
        <ele>583.56579589844</ele>
        <time>2020-06-17T09:08:08.138Z</time>
      </trkpt>
      <trkpt lat="45.68214" lon="3.42872">
        <ele>583.79071044922</ele>
        <time>2020-06-17T09:08:12.293Z</time>
      </trkpt>
      <trkpt lat="45.68173" lon="3.42813">
        <ele>585.42016601562</ele>
        <time>2020-06-17T09:08:16.457Z</time>
      </trkpt>
      <trkpt lat="45.68143" lon="3.42788">
        <ele>586.38000488281</ele>
        <time>2020-06-17T09:08:20.627Z</time>
      </trkpt>
      <trkpt lat="45.68101" lon="3.42762">
        <ele>589.68200683594</ele>
        <time>2020-06-17T09:08:24.804Z</time>
      </trkpt>
      <trkpt lat="45.68058" lon="3.42735">
        <ele>591.02581787109</ele>
        <time>2020-06-17T09:08:28.988Z</time>
      </trkpt>
      <trkpt lat="45.68006" lon="3.42673">
        <ele>590.87817382812</ele>
        <time>2020-06-17T09:08:33.183Z</time>
      </trkpt>
      <trkpt lat="45.67953" lon="3.4261">
        <ele>594.13677978516</ele>
        <time>2020-06-17T09:08:37.389Z</time>
      </trkpt>
      <trkpt lat="45.67908" lon="3.42605">
        <ele>596.77630615234</ele>
        <time>2020-06-17T09:08:41.603Z</time>
      </trkpt>
      <trkpt lat="45.67858" lon="3.42595">
        <ele>598.51153564453</ele>
        <time>2020-06-17T09:08:45.825Z</time>
      </trkpt>
      <trkpt lat="45.67807" lon="3.42585">
        <ele>599.24340820312</ele>
        <time>2020-06-17T09:08:50.055Z</time>
      </trkpt>
      <trkpt lat="45.67792" lon="3.42574">
        <ele>599.4716796875</ele>
        <time>2020-06-17T09:08:54.288Z</time>
      </trkpt>
      <trkpt lat="45.67776" lon="3.42556">
        <ele>599.56768798828</ele>
        <time>2020-06-17T09:08:58.524Z</time>
      </trkpt>
      <trkpt lat="45.67762" lon="3.42536">
        <ele>599.44769287109</ele>
        <time>2020-06-17T09:09:02.763Z</time>
      </trkpt>
      <trkpt lat="45.67747" lon="3.4252">
        <ele>599.57971191406</ele>
        <time>2020-06-17T09:09:07.005Z</time>
      </trkpt>
      <trkpt lat="45.67731" lon="3.42508">
        <ele>600.23077392578</ele>
        <time>2020-06-17T09:09:11.250Z</time>
      </trkpt>
      <trkpt lat="45.67686" lon="3.42486">
        <ele>603.32147216797</ele>
        <time>2020-06-17T09:09:15.502Z</time>
      </trkpt>
      <trkpt lat="45.67641" lon="3.42464">
        <ele>606.00903320312</ele>
        <time>2020-06-17T09:09:19.762Z</time>
      </trkpt>
      <trkpt lat="45.67592" lon="3.42401">
        <ele>607.15881347656</ele>
        <time>2020-06-17T09:09:24.033Z</time>
      </trkpt>
      <trkpt lat="45.67544" lon="3.42339">
        <ele>607.46459960938</ele>
        <time>2020-06-17T09:09:28.314Z</time>
      </trkpt>
      <trkpt lat="45.67495" lon="3.42276">
        <ele>610.13610839844</ele>
        <time>2020-06-17T09:09:32.606Z</time>
      </trkpt>
      <trkpt lat="45.67423" lon="3.42208">
        <ele>615.18560791016</ele>
        <time>2020-06-17T09:09:36.911Z</time>
      </trkpt>
      <trkpt lat="45.67351" lon="3.42139">
        <ele>618.51629638672</ele>
        <time>2020-06-17T09:09:41.230Z</time>
      </trkpt>
      <trkpt lat="45.67321" lon="3.4212">
        <ele>618.78314208984</ele>
        <time>2020-06-17T09:09:45.555Z</time>
      </trkpt>
      <trkpt lat="45.67242" lon="3.42102">
        <ele>620.46197509766</ele>
        <time>2020-06-17T09:09:49.892Z</time>
      </trkpt>
      <trkpt lat="45.67162" lon="3.42081">
        <ele>621.74505615234</ele>
        <time>2020-06-17T09:09:54.242Z</time>
      </trkpt>
      <trkpt lat="45.67082" lon="3.4206">
        <ele>621.42102050781</ele>
        <time>2020-06-17T09:09:58.605Z</time>
      </trkpt>
      <trkpt lat="45.67017" lon="3.4204">
        <ele>620.591796875</ele>
        <time>2020-06-17T09:10:02.979Z</time>
      </trkpt>
      <trkpt lat="45.66952" lon="3.4202">
        <ele>619.52325439453</ele>
        <time>2020-06-17T09:10:07.364Z</time>
      </trkpt>
      <trkpt lat="45.66883" lon="3.41975">
        <ele>616.95550537109</ele>
        <time>2020-06-17T09:10:11.761Z</time>
      </trkpt>
      <trkpt lat="45.66814" lon="3.4193">
        <ele>614.10052490234</ele>
        <time>2020-06-17T09:10:16.170Z</time>
      </trkpt>
      <trkpt lat="45.66728" lon="3.41907">
        <ele>612.20092773438</ele>
        <time>2020-06-17T09:10:20.593Z</time>
      </trkpt>
      <trkpt lat="45.66641" lon="3.41884">
        <ele>609.96942138672</ele>
        <time>2020-06-17T09:10:25.030Z</time>
      </trkpt>
      <trkpt lat="45.66557" lon="3.41865">
        <ele>609.48114013672</ele>
        <time>2020-06-17T09:10:29.481Z</time>
      </trkpt>
      <trkpt lat="45.66472" lon="3.41846">
        <ele>609.93890380859</ele>
        <time>2020-06-17T09:10:33.946Z</time>
      </trkpt>
      <trkpt lat="45.66441" lon="3.41835">
        <ele>610.16369628906</ele>
        <time>2020-06-17T09:10:38.416Z</time>
      </trkpt>
      <trkpt lat="45.6638" lon="3.41798">
        <ele>610.68090820312</ele>
        <time>2020-06-17T09:10:42.896Z</time>
      </trkpt>
      <trkpt lat="45.6632" lon="3.4176">
        <ele>611.79711914062</ele>
        <time>2020-06-17T09:10:47.387Z</time>
      </trkpt>
      <trkpt lat="45.66259" lon="3.41723">
        <ele>614.13513183594</ele>
        <time>2020-06-17T09:10:51.888Z</time>
      </trkpt>
      <trkpt lat="45.66198" lon="3.41687">
        <ele>616.89984130859</ele>
        <time>2020-06-17T09:10:56.400Z</time>
      </trkpt>
      <trkpt lat="45.66137" lon="3.41652">
        <ele>617.51293945312</ele>
        <time>2020-06-17T09:11:00.922Z</time>
      </trkpt>
      <trkpt lat="45.66076" lon="3.41616">
        <ele>617.27624511719</ele>
        <time>2020-06-17T09:11:05.455Z</time>
      </trkpt>
      <trkpt lat="45.66023" lon="3.41587">
        <ele>618.12835693359</ele>
        <time>2020-06-17T09:11:09.997Z</time>
      </trkpt>
      <trkpt lat="45.66023" lon="3.41589">
        <ele>618.05871582031</ele>
        <time>2020-06-17T09:11:14.539Z</time>
      </trkpt>
      <trkpt lat="45.65988" lon="3.41566">
        <ele>619.72644042969</ele>
        <time>2020-06-17T09:11:19.087Z</time>
      </trkpt>
      <trkpt lat="45.65957" lon="3.41538">
        <ele>621.32971191406</ele>
        <time>2020-06-17T09:11:23.641Z</time>
      </trkpt>
      <trkpt lat="45.65934" lon="3.41514">
        <ele>622.54479980469</ele>
        <time>2020-06-17T09:11:28.200Z</time>
      </trkpt>
      <trkpt lat="45.65918" lon="3.41506">
        <ele>623.50463867188</ele>
        <time>2020-06-17T09:11:32.762Z</time>
      </trkpt>
      <trkpt lat="45.65892" lon="3.41496">
        <ele>624.77642822266</ele>
        <time>2020-06-17T09:11:37.328Z</time>
      </trkpt>
      <trkpt lat="45.65839" lon="3.4147">
        <ele>626.34265136719</ele>
        <time>2020-06-17T09:11:41.903Z</time>
      </trkpt>
      <trkpt lat="45.65825" lon="3.41466">
        <ele>627.11053466797</ele>
        <time>2020-06-17T09:11:46.480Z</time>
      </trkpt>
      <trkpt lat="45.65812" lon="3.41465">
        <ele>627.75842285156</ele>
        <time>2020-06-17T09:11:51.059Z</time>
      </trkpt>
      <trkpt lat="45.65803" lon="3.4147">
        <ele>628.07037353516</ele>
        <time>2020-06-17T09:11:55.640Z</time>
      </trkpt>
      <trkpt lat="45.65798" lon="3.41476">
        <ele>628.11022949219</ele>
        <time>2020-06-17T09:12:00.222Z</time>
      </trkpt>
      <trkpt lat="45.6579" lon="3.41493">
        <ele>627.990234375</ele>
        <time>2020-06-17T09:12:04.806Z</time>
      </trkpt>
      <trkpt lat="45.65789" lon="3.41499">
        <ele>627.88226318359</ele>
        <time>2020-06-17T09:12:09.391Z</time>
      </trkpt>
      <trkpt lat="45.6579" lon="3.41514">
        <ele>627.76037597656</ele>
        <time>2020-06-17T09:12:13.978Z</time>
      </trkpt>
      <trkpt lat="45.65796" lon="3.4153">
        <ele>627.40045166016</ele>
        <time>2020-06-17T09:12:18.567Z</time>
      </trkpt>
      <trkpt lat="45.6582" lon="3.4158">
        <ele>625.54498291016</ele>
        <time>2020-06-17T09:12:23.162Z</time>
      </trkpt>
      <trkpt lat="45.65835" lon="3.41619">
        <ele>624.52990722656</ele>
        <time>2020-06-17T09:12:27.762Z</time>
      </trkpt>
      <trkpt lat="45.65837" lon="3.41637">
        <ele>624.67565917969</ele>
        <time>2020-06-17T09:12:32.364Z</time>
      </trkpt>
      <trkpt lat="45.65837" lon="3.41668">
        <ele>625.79144287109</ele>
        <time>2020-06-17T09:12:36.970Z</time>
      </trkpt>
      <trkpt lat="45.65837" lon="3.41693">
        <ele>627.75201416016</ele>
        <time>2020-06-17T09:12:41.579Z</time>
      </trkpt>
      <trkpt lat="45.65841" lon="3.41721">
        <ele>630.96319580078</ele>
        <time>2020-06-17T09:12:46.191Z</time>
      </trkpt>
      <trkpt lat="45.65855" lon="3.41782">
        <ele>633.91827392578</ele>
        <time>2020-06-17T09:12:50.810Z</time>
      </trkpt>
      <trkpt lat="45.6587" lon="3.4183">
        <ele>635.68194580078</ele>
        <time>2020-06-17T09:12:55.435Z</time>
      </trkpt>
      <trkpt lat="45.65873" lon="3.41854">
        <ele>635.66986083984</ele>
        <time>2020-06-17T09:13:00.063Z</time>
      </trkpt>
      <trkpt lat="45.65867" lon="3.41889">
        <ele>631.61450195312</ele>
        <time>2020-06-17T09:13:04.695Z</time>
      </trkpt>
      <trkpt lat="45.65829" lon="3.42">
        <ele>622.81390380859</ele>
        <time>2020-06-17T09:13:09.341Z</time>
      </trkpt>
      <trkpt lat="45.65818" lon="3.42027">
        <ele>623.39721679688</ele>
        <time>2020-06-17T09:13:13.990Z</time>
      </trkpt>
      <trkpt lat="45.65762" lon="3.42165">
        <ele>624.89672851562</ele>
        <time>2020-06-17T09:13:18.657Z</time>
      </trkpt>
      <trkpt lat="45.65751" lon="3.42204">
        <ele>624.88354492188</ele>
        <time>2020-06-17T09:13:23.329Z</time>
      </trkpt>
      <trkpt lat="45.65743" lon="3.42246">
        <ele>624.51654052734</ele>
        <time>2020-06-17T09:13:28.006Z</time>
      </trkpt>
      <trkpt lat="45.65732" lon="3.42297">
        <ele>624.83551025391</ele>
        <time>2020-06-17T09:13:32.689Z</time>
      </trkpt>
      <trkpt lat="45.65723" lon="3.42326">
        <ele>624.85949707031</ele>
        <time>2020-06-17T09:13:37.375Z</time>
      </trkpt>
      <trkpt lat="45.65703" lon="3.42387">
        <ele>624.60821533203</ele>
        <time>2020-06-17T09:13:42.069Z</time>
      </trkpt>
      <trkpt lat="45.65688" lon="3.4245">
        <ele>622.90557861328</ele>
        <time>2020-06-17T09:13:46.770Z</time>
      </trkpt>
      <trkpt lat="45.65679" lon="3.42478">
        <ele>622.02972412109</ele>
        <time>2020-06-17T09:13:51.475Z</time>
      </trkpt>
      <trkpt lat="45.6567" lon="3.42497">
        <ele>621.26184082031</ele>
        <time>2020-06-17T09:13:56.182Z</time>
      </trkpt>
      <trkpt lat="45.65652" lon="3.42524">
        <ele>620.26977539062</ele>
        <time>2020-06-17T09:14:00.893Z</time>
      </trkpt>
      <trkpt lat="45.65628" lon="3.42558">
        <ele>619.638671875</ele>
        <time>2020-06-17T09:14:05.610Z</time>
      </trkpt>
      <trkpt lat="45.65601" lon="3.42596">
        <ele>618.86828613281</ele>
        <time>2020-06-17T09:14:10.333Z</time>
      </trkpt>
      <trkpt lat="45.65585" lon="3.42612">
        <ele>618.73541259766</ele>
        <time>2020-06-17T09:14:15.059Z</time>
      </trkpt>
      <trkpt lat="45.6555" lon="3.42642">
        <ele>618.40386962891</ele>
        <time>2020-06-17T09:14:19.792Z</time>
      </trkpt>
      <trkpt lat="45.65523" lon="3.42661">
        <ele>617.49780273438</ele>
        <time>2020-06-17T09:14:24.529Z</time>
      </trkpt>
      <trkpt lat="45.655" lon="3.42681">
        <ele>616.52593994141</ele>
        <time>2020-06-17T09:14:29.271Z</time>
      </trkpt>
      <trkpt lat="45.6548" lon="3.42706">
        <ele>616.90570068359</ele>
        <time>2020-06-17T09:14:34.017Z</time>
      </trkpt>
      <trkpt lat="45.65469" lon="3.42725">
        <ele>617.56732177734</ele>
        <time>2020-06-17T09:14:38.766Z</time>
      </trkpt>
      <trkpt lat="45.6546" lon="3.42756">
        <ele>619.09106445312</ele>
        <time>2020-06-17T09:14:43.518Z</time>
      </trkpt>
      <trkpt lat="45.65453" lon="3.42794">
        <ele>621.58966064453</ele>
        <time>2020-06-17T09:14:48.275Z</time>
      </trkpt>
      <trkpt lat="45.65443" lon="3.42835">
        <ele>623.6064453125</ele>
        <time>2020-06-17T09:14:53.037Z</time>
      </trkpt>
      <trkpt lat="45.65428" lon="3.42873">
        <ele>622.44036865234</ele>
        <time>2020-06-17T09:14:57.804Z</time>
      </trkpt>
      <trkpt lat="45.6542" lon="3.42884">
        <ele>621.39654541016</ele>
        <time>2020-06-17T09:15:02.572Z</time>
      </trkpt>
      <trkpt lat="45.65426" lon="3.42908">
        <ele>623.34020996094</ele>
        <time>2020-06-17T09:15:07.343Z</time>
      </trkpt>
      <trkpt lat="45.65428" lon="3.42964">
        <ele>623.42358398438</ele>
        <time>2020-06-17T09:15:12.121Z</time>
      </trkpt>
      <trkpt lat="45.65432" lon="3.42999">
        <ele>623.63165283203</ele>
        <time>2020-06-17T09:15:16.903Z</time>
      </trkpt>
      <trkpt lat="45.65442" lon="3.4305">
        <ele>622.58819580078</ele>
        <time>2020-06-17T09:15:21.691Z</time>
      </trkpt>
      <trkpt lat="45.65453" lon="3.43088">
        <ele>621.69720458984</ele>
        <time>2020-06-17T09:15:26.483Z</time>
      </trkpt>
      <trkpt lat="45.65469" lon="3.43143">
        <ele>621.91314697266</ele>
        <time>2020-06-17T09:15:31.282Z</time>
      </trkpt>
      <trkpt lat="45.65483" lon="3.43192">
        <ele>621.14086914062</ele>
        <time>2020-06-17T09:15:36.087Z</time>
      </trkpt>
      <trkpt lat="45.65498" lon="3.43236">
        <ele>621.30096435547</ele>
        <time>2020-06-17T09:15:40.897Z</time>
      </trkpt>
      <trkpt lat="45.65517" lon="3.43282">
        <ele>621.03271484375</ele>
        <time>2020-06-17T09:15:45.713Z</time>
      </trkpt>
      <trkpt lat="45.65542" lon="3.43317">
        <ele>619.89288330078</ele>
        <time>2020-06-17T09:15:50.535Z</time>
      </trkpt>
      <trkpt lat="45.65554" lon="3.43338">
        <ele>619.14666748047</ele>
        <time>2020-06-17T09:15:55.360Z</time>
      </trkpt>
      <trkpt lat="45.65557" lon="3.43351">
        <ele>618.58276367188</ele>
        <time>2020-06-17T09:16:00.186Z</time>
      </trkpt>
      <trkpt lat="45.65559" lon="3.43369">
        <ele>618.14770507812</ele>
        <time>2020-06-17T09:16:05.014Z</time>
      </trkpt>
      <trkpt lat="45.65557" lon="3.4339">
        <ele>618.08770751953</ele>
        <time>2020-06-17T09:16:09.845Z</time>
      </trkpt>
      <trkpt lat="45.65547" lon="3.43416">
        <ele>618.05969238281</ele>
        <time>2020-06-17T09:16:14.679Z</time>
      </trkpt>
      <trkpt lat="45.65536" lon="3.43441">
        <ele>618.71441650391</ele>
        <time>2020-06-17T09:16:19.516Z</time>
      </trkpt>
      <trkpt lat="45.65527" lon="3.43453">
        <ele>619.3623046875</ele>
        <time>2020-06-17T09:16:24.355Z</time>
      </trkpt>
      <trkpt lat="45.65516" lon="3.4346">
        <ele>619.87823486328</ele>
        <time>2020-06-17T09:16:29.196Z</time>
      </trkpt>
      <trkpt lat="45.655" lon="3.43462">
        <ele>620.33416748047</ele>
        <time>2020-06-17T09:16:34.040Z</time>
      </trkpt>
      <trkpt lat="45.65493" lon="3.43461">
        <ele>620.58715820312</ele>
        <time>2020-06-17T09:16:38.885Z</time>
      </trkpt>
      <trkpt lat="45.65478" lon="3.43454">
        <ele>620.88714599609</ele>
        <time>2020-06-17T09:16:43.733Z</time>
      </trkpt>
      <trkpt lat="45.65439" lon="3.43434">
        <ele>621.92242431641</ele>
        <time>2020-06-17T09:16:48.587Z</time>
      </trkpt>
      <trkpt lat="45.65428" lon="3.43427">
        <ele>621.65930175781</ele>
        <time>2020-06-17T09:16:53.443Z</time>
      </trkpt>
      <trkpt lat="45.654" lon="3.43416">
        <ele>621.62329101562</ele>
        <time>2020-06-17T09:16:58.304Z</time>
      </trkpt>
      <trkpt lat="45.6535" lon="3.43395">
        <ele>620.91619873047</ele>
        <time>2020-06-17T09:17:03.173Z</time>
      </trkpt>
      <trkpt lat="45.65299" lon="3.43379">
        <ele>621.99493408203</ele>
        <time>2020-06-17T09:17:08.051Z</time>
      </trkpt>
      <trkpt lat="45.65281" lon="3.43378">
        <ele>622.88275146484</ele>
        <time>2020-06-17T09:17:12.931Z</time>
      </trkpt>
      <trkpt lat="45.6526" lon="3.43381">
        <ele>624.71844482422</ele>
        <time>2020-06-17T09:17:17.815Z</time>
      </trkpt>
      <trkpt lat="45.65226" lon="3.43383">
        <ele>628.12652587891</ele>
        <time>2020-06-17T09:17:22.704Z</time>
      </trkpt>
      <trkpt lat="45.65184" lon="3.43378">
        <ele>630.17230224609</ele>
        <time>2020-06-17T09:17:27.600Z</time>
      </trkpt>
      <trkpt lat="45.65118" lon="3.43371">
        <ele>632.20361328125</ele>
        <time>2020-06-17T09:17:32.507Z</time>
      </trkpt>
      <trkpt lat="45.65096" lon="3.43374">
        <ele>633.37945556641</ele>
        <time>2020-06-17T09:17:37.417Z</time>
      </trkpt>
      <trkpt lat="45.65046" lon="3.43392">
        <ele>638.07360839844</ele>
        <time>2020-06-17T09:17:42.335Z</time>
      </trkpt>
      <trkpt lat="45.65018" lon="3.43404">
        <ele>639.20318603516</ele>
        <time>2020-06-17T09:17:47.258Z</time>
      </trkpt>
      <trkpt lat="45.65005" lon="3.43412">
        <ele>638.95123291016</ele>
        <time>2020-06-17T09:17:52.183Z</time>
      </trkpt>
      <trkpt lat="45.64994" lon="3.43422">
        <ele>639.20318603516</ele>
        <time>2020-06-17T09:17:57.110Z</time>
      </trkpt>
      <trkpt lat="45.64987" lon="3.43436">
        <ele>640.23748779297</ele>
        <time>2020-06-17T09:18:02.039Z</time>
      </trkpt>
      <trkpt lat="45.64984" lon="3.43454">
        <ele>641.25817871094</ele>
        <time>2020-06-17T09:18:06.970Z</time>
      </trkpt>
      <trkpt lat="45.64985" lon="3.43472">
        <ele>642.47003173828</ele>
        <time>2020-06-17T09:18:11.903Z</time>
      </trkpt>
      <trkpt lat="45.64996" lon="3.43517">
        <ele>646.51965332031</ele>
        <time>2020-06-17T09:18:16.842Z</time>
      </trkpt>
      <trkpt lat="45.64997" lon="3.4354">
        <ele>646.37567138672</ele>
        <time>2020-06-17T09:18:21.783Z</time>
      </trkpt>
      <trkpt lat="45.64993" lon="3.43555">
        <ele>646.79187011719</ele>
        <time>2020-06-17T09:18:26.726Z</time>
      </trkpt>
      <trkpt lat="45.64988" lon="3.43565">
        <ele>647.09185791016</ele>
        <time>2020-06-17T09:18:31.671Z</time>
      </trkpt>
      <trkpt lat="45.64973" lon="3.4358">
        <ele>647.09185791016</ele>
        <time>2020-06-17T09:18:36.618Z</time>
      </trkpt>
      <trkpt lat="45.64961" lon="3.43588">
        <ele>646.556640625</ele>
        <time>2020-06-17T09:18:41.568Z</time>
      </trkpt>
      <trkpt lat="45.64943" lon="3.43605">
        <ele>645.55767822266</ele>
        <time>2020-06-17T09:18:46.521Z</time>
      </trkpt>
      <trkpt lat="45.64921" lon="3.43632">
        <ele>643.77001953125</ele>
        <time>2020-06-17T09:18:51.479Z</time>
      </trkpt>
      <trkpt lat="45.64902" lon="3.4366">
        <ele>644.43804931641</ele>
        <time>2020-06-17T09:18:56.441Z</time>
      </trkpt>
      <trkpt lat="45.64889" lon="3.43673">
        <ele>644.59405517578</ele>
        <time>2020-06-17T09:19:01.406Z</time>
      </trkpt>
      <trkpt lat="45.64876" lon="3.4368">
        <ele>645.15435791016</ele>
        <time>2020-06-17T09:19:06.373Z</time>
      </trkpt>
      <trkpt lat="45.64863" lon="3.43682">
        <ele>645.53826904297</ele>
        <time>2020-06-17T09:19:11.342Z</time>
      </trkpt>
      <trkpt lat="45.64836" lon="3.43681">
        <ele>646.15014648438</ele>
        <time>2020-06-17T09:19:16.315Z</time>
      </trkpt>
      <trkpt lat="45.64813" lon="3.43681">
        <ele>646.70208740234</ele>
        <time>2020-06-17T09:19:21.292Z</time>
      </trkpt>
      <trkpt lat="45.64807" lon="3.4368">
        <ele>646.81005859375</ele>
        <time>2020-06-17T09:19:26.270Z</time>
      </trkpt>
      <trkpt lat="45.648" lon="3.43674">
        <ele>646.94262695312</ele>
        <time>2020-06-17T09:19:31.249Z</time>
      </trkpt>
      <trkpt lat="45.6478" lon="3.43655">
        <ele>648.17846679688</ele>
        <time>2020-06-17T09:19:36.232Z</time>
      </trkpt>
      <trkpt lat="45.64774" lon="3.43649">
        <ele>648.53839111328</ele>
        <time>2020-06-17T09:19:41.216Z</time>
      </trkpt>
      <trkpt lat="45.64763" lon="3.43629">
        <ele>648.87432861328</ele>
        <time>2020-06-17T09:19:46.203Z</time>
      </trkpt>
      <trkpt lat="45.64756" lon="3.43604">
        <ele>648.64636230469</ele>
        <time>2020-06-17T09:19:51.193Z</time>
      </trkpt>
      <trkpt lat="45.64717" lon="3.43504">
        <ele>652.31115722656</ele>
        <time>2020-06-17T09:19:56.196Z</time>
      </trkpt>
      <trkpt lat="45.64707" lon="3.43477">
        <ele>653.75091552734</ele>
        <time>2020-06-17T09:20:01.202Z</time>
      </trkpt>
      <trkpt lat="45.64694" lon="3.43455">
        <ele>655.62261962891</ele>
        <time>2020-06-17T09:20:06.212Z</time>
      </trkpt>
      <trkpt lat="45.64682" lon="3.43447">
        <ele>657.35034179688</ele>
        <time>2020-06-17T09:20:11.224Z</time>
      </trkpt>
      <trkpt lat="45.64673" lon="3.43447">
        <ele>658.64611816406</ele>
        <time>2020-06-17T09:20:16.237Z</time>
      </trkpt>
      <trkpt lat="45.64667" lon="3.43451">
        <ele>659.50994873047</ele>
        <time>2020-06-17T09:20:21.251Z</time>
      </trkpt>
      <trkpt lat="45.6466" lon="3.4346">
        <ele>660.56066894531</ele>
        <time>2020-06-17T09:20:26.267Z</time>
      </trkpt>
      <trkpt lat="45.64649" lon="3.4346">
        <ele>662.2763671875</ele>
        <time>2020-06-17T09:20:31.284Z</time>
      </trkpt>
      <trkpt lat="45.64636" lon="3.43457">
        <ele>664.26806640625</ele>
        <time>2020-06-17T09:20:36.304Z</time>
      </trkpt>
      <trkpt lat="45.64625" lon="3.43459">
        <ele>664.58056640625</ele>
        <time>2020-06-17T09:20:41.325Z</time>
      </trkpt>
      <trkpt lat="45.64616" lon="3.43466">
        <ele>664.88049316406</ele>
        <time>2020-06-17T09:20:46.348Z</time>
      </trkpt>
      <trkpt lat="45.6461" lon="3.43475">
        <ele>665.13244628906</ele>
        <time>2020-06-17T09:20:51.372Z</time>
      </trkpt>
      <trkpt lat="45.64605" lon="3.43483">
        <ele>665.34844970703</ele>
        <time>2020-06-17T09:20:56.398Z</time>
      </trkpt>
      <trkpt lat="45.64599" lon="3.43486">
        <ele>666.04858398438</ele>
        <time>2020-06-17T09:21:01.425Z</time>
      </trkpt>
      <trkpt lat="45.64549" lon="3.43476">
        <ele>669.92474365234</ele>
        <time>2020-06-17T09:21:06.460Z</time>
      </trkpt>
      <trkpt lat="45.64498" lon="3.43472">
        <ele>673.26019287109</ele>
        <time>2020-06-17T09:21:11.503Z</time>
      </trkpt>
      <trkpt lat="45.64489" lon="3.43474">
        <ele>674.07604980469</ele>
        <time>2020-06-17T09:21:16.547Z</time>
      </trkpt>
      <trkpt lat="45.64484" lon="3.43481">
        <ele>675.02386474609</ele>
        <time>2020-06-17T09:21:21.592Z</time>
      </trkpt>
      <trkpt lat="45.64478" lon="3.43501">
        <ele>677.13549804688</ele>
        <time>2020-06-17T09:21:26.640Z</time>
      </trkpt>
      <trkpt lat="45.64467" lon="3.43509">
        <ele>678.54840087891</ele>
        <time>2020-06-17T09:21:31.690Z</time>
      </trkpt>
      <trkpt lat="45.64457" lon="3.43524">
        <ele>679.13348388672</ele>
        <time>2020-06-17T09:21:36.742Z</time>
      </trkpt>
      <trkpt lat="45.64437" lon="3.43514">
        <ele>680.04180908203</ele>
        <time>2020-06-17T09:21:41.798Z</time>
      </trkpt>
      <trkpt lat="45.64428" lon="3.43508">
        <ele>679.93377685547</ele>
        <time>2020-06-17T09:21:46.855Z</time>
      </trkpt>
      <trkpt lat="45.64398" lon="3.43476">
        <ele>678.71002197266</ele>
        <time>2020-06-17T09:21:51.918Z</time>
      </trkpt>
      <trkpt lat="45.6438" lon="3.43459">
        <ele>677.99560546875</ele>
        <time>2020-06-17T09:21:56.985Z</time>
      </trkpt>
      <trkpt lat="45.64374" lon="3.43455">
        <ele>677.77960205078</ele>
        <time>2020-06-17T09:22:02.053Z</time>
      </trkpt>
      <trkpt lat="45.64368" lon="3.43454">
        <ele>677.77960205078</ele>
        <time>2020-06-17T09:22:07.122Z</time>
      </trkpt>
      <trkpt lat="45.64361" lon="3.43456">
        <ele>678.00756835938</ele>
        <time>2020-06-17T09:22:12.192Z</time>
      </trkpt>
      <trkpt lat="45.64341" lon="3.43474">
        <ele>679.50512695312</ele>
        <time>2020-06-17T09:22:17.266Z</time>
      </trkpt>
      <trkpt lat="45.64327" lon="3.43487">
        <ele>680.28497314453</ele>
        <time>2020-06-17T09:22:22.342Z</time>
      </trkpt>
      <trkpt lat="45.64235" lon="3.43509">
        <ele>679.74969482422</ele>
        <time>2020-06-17T09:22:27.433Z</time>
      </trkpt>
      <trkpt lat="45.64216" lon="3.43511">
        <ele>679.55963134766</ele>
        <time>2020-06-17T09:22:32.527Z</time>
      </trkpt>
      <trkpt lat="45.64206" lon="3.43511">
        <ele>679.55963134766</ele>
        <time>2020-06-17T09:22:37.623Z</time>
      </trkpt>
      <trkpt lat="45.64137" lon="3.43498">
        <ele>678.31182861328</ele>
        <time>2020-06-17T09:22:42.730Z</time>
      </trkpt>
      <trkpt lat="45.64112" lon="3.43497">
        <ele>678.82318115234</ele>
        <time>2020-06-17T09:22:47.841Z</time>
      </trkpt>
      <trkpt lat="45.64075" lon="3.43499">
        <ele>678.47528076172</ele>
        <time>2020-06-17T09:22:52.958Z</time>
      </trkpt>
      <trkpt lat="45.64048" lon="3.43505">
        <ele>678.49188232422</ele>
        <time>2020-06-17T09:22:58.079Z</time>
      </trkpt>
      <trkpt lat="45.64017" lon="3.43516">
        <ele>678.185546875</ele>
        <time>2020-06-17T09:23:03.205Z</time>
      </trkpt>
      <trkpt lat="45.63961" lon="3.43539">
        <ele>679.6328125</ele>
        <time>2020-06-17T09:23:08.341Z</time>
      </trkpt>
      <trkpt lat="45.63893" lon="3.43566">
        <ele>682.90222167969</ele>
        <time>2020-06-17T09:23:13.488Z</time>
      </trkpt>
      <trkpt lat="45.63876" lon="3.43571">
        <ele>683.11071777344</ele>
        <time>2020-06-17T09:23:18.638Z</time>
      </trkpt>
      <trkpt lat="45.63861" lon="3.43571">
        <ele>683.29071044922</ele>
        <time>2020-06-17T09:23:23.790Z</time>
      </trkpt>
      <trkpt lat="45.63812" lon="3.43553">
        <ele>682.56475830078</ele>
        <time>2020-06-17T09:23:28.950Z</time>
      </trkpt>
      <trkpt lat="45.63778" lon="3.43537">
        <ele>681.96484375</ele>
        <time>2020-06-17T09:23:34.116Z</time>
      </trkpt>
      <trkpt lat="45.63772" lon="3.4353">
        <ele>681.80889892578</ele>
        <time>2020-06-17T09:23:39.283Z</time>
      </trkpt>
      <trkpt lat="45.63749" lon="3.43481">
        <ele>682.19000244141</ele>
        <time>2020-06-17T09:23:44.457Z</time>
      </trkpt>
      <trkpt lat="45.6373" lon="3.43438">
        <ele>682.86798095703</ele>
        <time>2020-06-17T09:23:49.637Z</time>
      </trkpt>
      <trkpt lat="45.63713" lon="3.43402">
        <ele>683.06872558594</ele>
        <time>2020-06-17T09:23:54.821Z</time>
      </trkpt>
      <trkpt lat="45.63696" lon="3.43376">
        <ele>683.98052978516</ele>
        <time>2020-06-17T09:24:00.009Z</time>
      </trkpt>
      <trkpt lat="45.63676" lon="3.43349">
        <ele>685.09637451172</ele>
        <time>2020-06-17T09:24:05.202Z</time>
      </trkpt>
      <trkpt lat="45.6366" lon="3.43335">
        <ele>686.08020019531</ele>
        <time>2020-06-17T09:24:10.398Z</time>
      </trkpt>
      <trkpt lat="45.63627" lon="3.43309">
        <ele>688.45513916016</ele>
        <time>2020-06-17T09:24:15.600Z</time>
      </trkpt>
      <trkpt lat="45.63603" lon="3.43292">
        <ele>690.84271240234</ele>
        <time>2020-06-17T09:24:20.806Z</time>
      </trkpt>
      <trkpt lat="45.63592" lon="3.43288">
        <ele>691.98254394531</ele>
        <time>2020-06-17T09:24:26.014Z</time>
      </trkpt>
      <trkpt lat="45.63574" lon="3.43285">
        <ele>693.89019775391</ele>
        <time>2020-06-17T09:24:31.225Z</time>
      </trkpt>
      <trkpt lat="45.6355" lon="3.43286">
        <ele>694.61334228516</ele>
        <time>2020-06-17T09:24:36.440Z</time>
      </trkpt>
      <trkpt lat="45.6353" lon="3.43289">
        <ele>697.24090576172</ele>
        <time>2020-06-17T09:24:41.658Z</time>
      </trkpt>
      <trkpt lat="45.63518" lon="3.43297">
        <ele>698.29675292969</ele>
        <time>2020-06-17T09:24:46.878Z</time>
      </trkpt>
      <trkpt lat="45.63509" lon="3.43309">
        <ele>698.62554931641</ele>
        <time>2020-06-17T09:24:52.100Z</time>
      </trkpt>
      <trkpt lat="45.63504" lon="3.43317">
        <ele>698.82952880859</ele>
        <time>2020-06-17T09:24:57.323Z</time>
      </trkpt>
      <trkpt lat="45.63484" lon="3.43369">
        <ele>698.38458251953</ele>
        <time>2020-06-17T09:25:02.553Z</time>
      </trkpt>
      <trkpt lat="45.63471" lon="3.43397">
        <ele>696.60888671875</ele>
        <time>2020-06-17T09:25:07.787Z</time>
      </trkpt>
      <trkpt lat="45.63465" lon="3.43406">
        <ele>696.26037597656</ele>
        <time>2020-06-17T09:25:13.022Z</time>
      </trkpt>
      <trkpt lat="45.63457" lon="3.43413">
        <ele>696.36840820312</ele>
        <time>2020-06-17T09:25:18.259Z</time>
      </trkpt>
      <trkpt lat="45.63448" lon="3.43417">
        <ele>696.90826416016</ele>
        <time>2020-06-17T09:25:23.497Z</time>
      </trkpt>
      <trkpt lat="45.63437" lon="3.43417">
        <ele>698.09606933594</ele>
        <time>2020-06-17T09:25:28.737Z</time>
      </trkpt>
      <trkpt lat="45.63426" lon="3.43414">
        <ele>699.60784912109</ele>
        <time>2020-06-17T09:25:33.979Z</time>
      </trkpt>
      <trkpt lat="45.63405" lon="3.43404">
        <ele>702.95526123047</ele>
        <time>2020-06-17T09:25:39.224Z</time>
      </trkpt>
      <trkpt lat="45.63394" lon="3.43403">
        <ele>704.25109863281</ele>
        <time>2020-06-17T09:25:44.471Z</time>
      </trkpt>
      <trkpt lat="45.63383" lon="3.43406">
        <ele>705.08367919922</ele>
        <time>2020-06-17T09:25:49.720Z</time>
      </trkpt>
      <trkpt lat="45.63335" lon="3.43434">
        <ele>708.48889160156</ele>
        <time>2020-06-17T09:25:54.977Z</time>
      </trkpt>
      <trkpt lat="45.63314" lon="3.43451">
        <ele>709.17218017578</ele>
        <time>2020-06-17T09:26:00.238Z</time>
      </trkpt>
      <trkpt lat="45.63284" lon="3.43481">
        <ele>709.26586914062</ele>
        <time>2020-06-17T09:26:05.505Z</time>
      </trkpt>
      <trkpt lat="45.63274" lon="3.43493">
        <ele>709.54193115234</ele>
        <time>2020-06-17T09:26:10.774Z</time>
      </trkpt>
      <trkpt lat="45.6326" lon="3.43519">
        <ele>709.83978271484</ele>
        <time>2020-06-17T09:26:16.047Z</time>
      </trkpt>
      <trkpt lat="45.63233" lon="3.43607">
        <ele>706.75476074219</ele>
        <time>2020-06-17T09:26:21.330Z</time>
      </trkpt>
      <trkpt lat="45.63222" lon="3.43636">
        <ele>707.73999023438</ele>
        <time>2020-06-17T09:26:26.617Z</time>
      </trkpt>
      <trkpt lat="45.63212" lon="3.43651">
        <ele>708.66278076172</ele>
        <time>2020-06-17T09:26:31.906Z</time>
      </trkpt>
      <trkpt lat="45.63196" lon="3.43661">
        <ele>710.43676757812</ele>
        <time>2020-06-17T09:26:37.198Z</time>
      </trkpt>
      <trkpt lat="45.63185" lon="3.43664">
        <ele>710.97668457031</ele>
        <time>2020-06-17T09:26:42.492Z</time>
      </trkpt>
      <trkpt lat="45.63174" lon="3.43664">
        <ele>711.7685546875</ele>
        <time>2020-06-17T09:26:47.788Z</time>
      </trkpt>
      <trkpt lat="45.63159" lon="3.43661">
        <ele>713.10034179688</ele>
        <time>2020-06-17T09:26:53.086Z</time>
      </trkpt>
      <trkpt lat="45.63141" lon="3.43655">
        <ele>714.90002441406</ele>
        <time>2020-06-17T09:26:58.387Z</time>
      </trkpt>
      <trkpt lat="45.6312" lon="3.43649">
        <ele>716.91571044922</ele>
        <time>2020-06-17T09:27:03.692Z</time>
      </trkpt>
      <trkpt lat="45.63077" lon="3.43642">
        <ele>719.72174072266</ele>
        <time>2020-06-17T09:27:09.003Z</time>
      </trkpt>
      <trkpt lat="45.63042" lon="3.43638">
        <ele>721.57983398438</ele>
        <time>2020-06-17T09:27:14.320Z</time>
      </trkpt>
      <trkpt lat="45.63026" lon="3.43638">
        <ele>722.73162841797</ele>
        <time>2020-06-17T09:27:19.640Z</time>
      </trkpt>
      <trkpt lat="45.63019" lon="3.4364">
        <ele>722.97161865234</ele>
        <time>2020-06-17T09:27:24.961Z</time>
      </trkpt>
      <trkpt lat="45.63007" lon="3.43647">
        <ele>722.55401611328</ele>
        <time>2020-06-17T09:27:30.284Z</time>
      </trkpt>
      <trkpt lat="45.6299" lon="3.43658">
        <ele>721.31823730469</ele>
        <time>2020-06-17T09:27:35.610Z</time>
      </trkpt>
      <trkpt lat="45.62984" lon="3.43662">
        <ele>720.8623046875</ele>
        <time>2020-06-17T09:27:40.937Z</time>
      </trkpt>
      <trkpt lat="45.62969" lon="3.43665">
        <ele>720.89831542969</ele>
        <time>2020-06-17T09:27:46.266Z</time>
      </trkpt>
      <trkpt lat="45.62954" lon="3.4366">
        <ele>723.34851074219</ele>
        <time>2020-06-17T09:27:51.598Z</time>
      </trkpt>
      <trkpt lat="45.62938" lon="3.43649">
        <ele>726.92388916016</ele>
        <time>2020-06-17T09:27:56.933Z</time>
      </trkpt>
      <trkpt lat="45.62926" lon="3.43641">
        <ele>729.44921875</ele>
        <time>2020-06-17T09:28:02.270Z</time>
      </trkpt>
      <trkpt lat="45.62914" lon="3.43635">
        <ele>731.32092285156</ele>
        <time>2020-06-17T09:28:07.609Z</time>
      </trkpt>
      <trkpt lat="45.62896" lon="3.43638">
        <ele>731.24890136719</ele>
        <time>2020-06-17T09:28:12.951Z</time>
      </trkpt>
      <trkpt lat="45.62884" lon="3.43647">
        <ele>729.53948974609</ele>
        <time>2020-06-17T09:28:18.295Z</time>
      </trkpt>
      <trkpt lat="45.62874" lon="3.43657">
        <ele>727.61981201172</ele>
        <time>2020-06-17T09:28:23.641Z</time>
      </trkpt>
      <trkpt lat="45.62845" lon="3.43694">
        <ele>720.47863769531</ele>
        <time>2020-06-17T09:28:28.993Z</time>
      </trkpt>
      <trkpt lat="45.62834" lon="3.43704">
        <ele>718.61895751953</ele>
        <time>2020-06-17T09:28:34.347Z</time>
      </trkpt>
      <trkpt lat="45.62823" lon="3.43708">
        <ele>718.62322998047</ele>
        <time>2020-06-17T09:28:39.703Z</time>
      </trkpt>
      <trkpt lat="45.62807" lon="3.43711">
        <ele>720.19494628906</ele>
        <time>2020-06-17T09:28:45.062Z</time>
      </trkpt>
      <trkpt lat="45.62797" lon="3.43716">
        <ele>721.04956054688</ele>
        <time>2020-06-17T09:28:50.422Z</time>
      </trkpt>
      <trkpt lat="45.6279" lon="3.43721">
        <ele>721.66143798828</ele>
        <time>2020-06-17T09:28:55.783Z</time>
      </trkpt>
      <trkpt lat="45.62779" lon="3.43742">
        <ele>720.25769042969</ele>
        <time>2020-06-17T09:29:01.147Z</time>
      </trkpt>
      <trkpt lat="45.62766" lon="3.43796">
        <ele>718.36236572266</ele>
        <time>2020-06-17T09:29:06.518Z</time>
      </trkpt>
      <trkpt lat="45.6276" lon="3.43812">
        <ele>718.60717773438</ele>
        <time>2020-06-17T09:29:11.891Z</time>
      </trkpt>
      <trkpt lat="45.62753" lon="3.43824">
        <ele>718.90716552734</ele>
        <time>2020-06-17T09:29:17.266Z</time>
      </trkpt>
      <trkpt lat="45.62738" lon="3.43838">
        <ele>720.81481933594</ele>
        <time>2020-06-17T09:29:22.644Z</time>
      </trkpt>
      <trkpt lat="45.62728" lon="3.43843">
        <ele>722.55456542969</ele>
        <time>2020-06-17T09:29:28.023Z</time>
      </trkpt>
      <trkpt lat="45.62713" lon="3.43848">
        <ele>724.60711669922</ele>
        <time>2020-06-17T09:29:33.405Z</time>
      </trkpt>
      <trkpt lat="45.62699" lon="3.43851">
        <ele>725.0390625</ele>
        <time>2020-06-17T09:29:38.789Z</time>
      </trkpt>
      <trkpt lat="45.62649" lon="3.43852">
        <ele>728.44647216797</ele>
        <time>2020-06-17T09:29:44.181Z</time>
      </trkpt>
      <trkpt lat="45.62626" lon="3.43852">
        <ele>729.49719238281</ele>
        <time>2020-06-17T09:29:49.577Z</time>
      </trkpt>
      <trkpt lat="45.62612" lon="3.43854">
        <ele>729.25720214844</ele>
        <time>2020-06-17T09:29:54.975Z</time>
      </trkpt>
      <trkpt lat="45.62598" lon="3.43859">
        <ele>728.40533447266</ele>
        <time>2020-06-17T09:30:00.375Z</time>
      </trkpt>
      <trkpt lat="45.62582" lon="3.43877">
        <ele>724.92596435547</ele>
        <time>2020-06-17T09:30:05.778Z</time>
      </trkpt>
      <trkpt lat="45.62573" lon="3.43891">
        <ele>722.43225097656</ele>
        <time>2020-06-17T09:30:11.184Z</time>
      </trkpt>
      <trkpt lat="45.62552" lon="3.43935">
        <ele>714.62756347656</ele>
        <time>2020-06-17T09:30:16.596Z</time>
      </trkpt>
      <trkpt lat="45.62541" lon="3.43946">
        <ele>714.09967041016</ele>
        <time>2020-06-17T09:30:22.010Z</time>
      </trkpt>
      <trkpt lat="45.62532" lon="3.43951">
        <ele>714.24365234375</ele>
        <time>2020-06-17T09:30:27.425Z</time>
      </trkpt>
      <trkpt lat="45.62515" lon="3.43955">
        <ele>715.29943847656</ele>
        <time>2020-06-17T09:30:32.843Z</time>
      </trkpt>
      <trkpt lat="45.62481" lon="3.43958">
        <ele>717.00036621094</ele>
        <time>2020-06-17T09:30:38.266Z</time>
      </trkpt>
      <trkpt lat="45.62398" lon="3.43964">
        <ele>718.09765625</ele>
        <time>2020-06-17T09:30:43.703Z</time>
      </trkpt>
      <trkpt lat="45.62381" lon="3.43963">
        <ele>718.1064453125</ele>
        <time>2020-06-17T09:30:49.142Z</time>
      </trkpt>
      <trkpt lat="45.62364" lon="3.43957">
        <ele>717.50653076172</ele>
        <time>2020-06-17T09:30:54.584Z</time>
      </trkpt>
      <trkpt lat="45.62346" lon="3.43945">
        <ele>718.22644042969</ele>
        <time>2020-06-17T09:31:00.029Z</time>
      </trkpt>
      <trkpt lat="45.62319" lon="3.43921">
        <ele>720.06665039062</ele>
        <time>2020-06-17T09:31:05.480Z</time>
      </trkpt>
      <trkpt lat="45.62297" lon="3.43898">
        <ele>721.32202148438</ele>
        <time>2020-06-17T09:31:10.935Z</time>
      </trkpt>
      <trkpt lat="45.62261" lon="3.43857">
        <ele>722.65380859375</ele>
        <time>2020-06-17T09:31:16.397Z</time>
      </trkpt>
      <trkpt lat="45.62241" lon="3.43842">
        <ele>722.32879638672</ele>
        <time>2020-06-17T09:31:21.863Z</time>
      </trkpt>
      <trkpt lat="45.62231" lon="3.43837">
        <ele>721.78887939453</ele>
        <time>2020-06-17T09:31:27.331Z</time>
      </trkpt>
      <trkpt lat="45.62204" lon="3.43828">
        <ele>719.83599853516</ele>
        <time>2020-06-17T09:31:32.803Z</time>
      </trkpt>
      <trkpt lat="45.6217" lon="3.43823">
        <ele>717.03491210938</ele>
        <time>2020-06-17T09:31:38.281Z</time>
      </trkpt>
      <trkpt lat="45.62132" lon="3.43821">
        <ele>713.09490966797</ele>
        <time>2020-06-17T09:31:43.765Z</time>
      </trkpt>
      <trkpt lat="45.62119" lon="3.43823">
        <ele>710.34741210938</ele>
        <time>2020-06-17T09:31:49.251Z</time>
      </trkpt>
      <trkpt lat="45.62113" lon="3.43827">
        <ele>708.50720214844</ele>
        <time>2020-06-17T09:31:54.738Z</time>
      </trkpt>
      <trkpt lat="45.62099" lon="3.43842">
        <ele>706.75549316406</ele>
        <time>2020-06-17T09:32:00.228Z</time>
      </trkpt>
      <trkpt lat="45.6203" lon="3.43925">
        <ele>698.94177246094</ele>
        <time>2020-06-17T09:32:05.732Z</time>
      </trkpt>
      <trkpt lat="45.62016" lon="3.43944">
        <ele>698.26989746094</ele>
        <time>2020-06-17T09:32:11.239Z</time>
      </trkpt>
      <trkpt lat="45.62008" lon="3.43959">
        <ele>697.88592529297</ele>
        <time>2020-06-17T09:32:16.748Z</time>
      </trkpt>
      <trkpt lat="45.61964" lon="3.44062">
        <ele>696.66143798828</ele>
        <time>2020-06-17T09:32:22.271Z</time>
      </trkpt>
      <trkpt lat="45.61949" lon="3.44095">
        <ele>696.14617919922</ele>
        <time>2020-06-17T09:32:27.798Z</time>
      </trkpt>
      <trkpt lat="45.61937" lon="3.44112">
        <ele>696.48187255859</ele>
        <time>2020-06-17T09:32:33.328Z</time>
      </trkpt>
      <trkpt lat="45.61917" lon="3.44127">
        <ele>696.48187255859</ele>
        <time>2020-06-17T09:32:38.862Z</time>
      </trkpt>
      <trkpt lat="45.61876" lon="3.44156">
        <ele>700.275390625</ele>
        <time>2020-06-17T09:32:44.403Z</time>
      </trkpt>
      <trkpt lat="45.61854" lon="3.44174">
        <ele>700.56353759766</ele>
        <time>2020-06-17T09:32:49.948Z</time>
      </trkpt>
      <trkpt lat="45.61815" lon="3.44209">
        <ele>702.90008544922</ele>
        <time>2020-06-17T09:32:55.500Z</time>
      </trkpt>
      <trkpt lat="45.61752" lon="3.44267">
        <ele>704.67785644531</ele>
        <time>2020-06-17T09:33:01.064Z</time>
      </trkpt>
      <trkpt lat="45.6172" lon="3.44305">
        <ele>704.92028808594</ele>
        <time>2020-06-17T09:33:06.635Z</time>
      </trkpt>
      <trkpt lat="45.6169" lon="3.44363">
        <ele>707.11065673828</ele>
        <time>2020-06-17T09:33:12.214Z</time>
      </trkpt>
      <trkpt lat="45.61648" lon="3.4445">
        <ele>711.33801269531</ele>
        <time>2020-06-17T09:33:17.805Z</time>
      </trkpt>
      <trkpt lat="45.6163" lon="3.44486">
        <ele>711.568359375</ele>
        <time>2020-06-17T09:33:23.401Z</time>
      </trkpt>
      <trkpt lat="45.61624" lon="3.44505">
        <ele>712.96118164062</ele>
        <time>2020-06-17T09:33:28.999Z</time>
      </trkpt>
      <trkpt lat="45.61619" lon="3.44538">
        <ele>713.17419433594</ele>
        <time>2020-06-17T09:33:34.601Z</time>
      </trkpt>
      <trkpt lat="45.61624" lon="3.44599">
        <ele>717.06335449219</ele>
        <time>2020-06-17T09:33:40.210Z</time>
      </trkpt>
      <trkpt lat="45.61624" lon="3.4464">
        <ele>715.59124755859</ele>
        <time>2020-06-17T09:33:45.823Z</time>
      </trkpt>
      <trkpt lat="45.61623" lon="3.44655">
        <ele>714.70343017578</ele>
        <time>2020-06-17T09:33:51.438Z</time>
      </trkpt>
      <trkpt lat="45.61609" lon="3.44744">
        <ele>707.32116699219</ele>
        <time>2020-06-17T09:33:57.063Z</time>
      </trkpt>
      <trkpt lat="45.61608" lon="3.44779">
        <ele>706.86260986328</ele>
        <time>2020-06-17T09:34:02.692Z</time>
      </trkpt>
      <trkpt lat="45.61608" lon="3.44796">
        <ele>706.04675292969</ele>
        <time>2020-06-17T09:34:08.323Z</time>
      </trkpt>
      <trkpt lat="45.61614" lon="3.44838">
        <ele>706.72888183594</ele>
        <time>2020-06-17T09:34:13.959Z</time>
      </trkpt>
      <trkpt lat="45.61615" lon="3.44862">
        <ele>705.91650390625</ele>
        <time>2020-06-17T09:34:19.598Z</time>
      </trkpt>
      <trkpt lat="45.61613" lon="3.44877">
        <ele>703.90087890625</ele>
        <time>2020-06-17T09:34:25.239Z</time>
      </trkpt>
      <trkpt lat="45.61603" lon="3.44907">
        <ele>699.2060546875</ele>
        <time>2020-06-17T09:34:30.883Z</time>
      </trkpt>
      <trkpt lat="45.61576" lon="3.44969">
        <ele>695.43072509766</ele>
        <time>2020-06-17T09:34:36.535Z</time>
      </trkpt>
      <trkpt lat="45.6157" lon="3.44987">
        <ele>694.42291259766</ele>
        <time>2020-06-17T09:34:42.190Z</time>
      </trkpt>
      <trkpt lat="45.61562" lon="3.45029">
        <ele>692.04528808594</ele>
        <time>2020-06-17T09:34:47.850Z</time>
      </trkpt>
      <trkpt lat="45.61552" lon="3.4509">
        <ele>690.22161865234</ele>
        <time>2020-06-17T09:34:53.517Z</time>
      </trkpt>
      <trkpt lat="45.61546" lon="3.45125">
        <ele>687.04443359375</ele>
        <time>2020-06-17T09:34:59.188Z</time>
      </trkpt>
      <trkpt lat="45.61534" lon="3.45171">
        <ele>681.90612792969</ele>
        <time>2020-06-17T09:35:04.864Z</time>
      </trkpt>
      <trkpt lat="45.6151" lon="3.45239">
        <ele>676.44989013672</ele>
        <time>2020-06-17T09:35:10.549Z</time>
      </trkpt>
      <trkpt lat="45.61492" lon="3.45286">
        <ele>673.19555664062</ele>
        <time>2020-06-17T09:35:16.240Z</time>
      </trkpt>
      <trkpt lat="45.61464" lon="3.45358">
        <ele>671.66186523438</ele>
        <time>2020-06-17T09:35:21.940Z</time>
      </trkpt>
      <trkpt lat="45.61456" lon="3.45378">
        <ele>671.13391113281</ele>
        <time>2020-06-17T09:35:27.643Z</time>
      </trkpt>
      <trkpt lat="45.61451" lon="3.45388">
        <ele>670.77398681641</ele>
        <time>2020-06-17T09:35:33.347Z</time>
      </trkpt>
      <trkpt lat="45.61458" lon="3.45386">
        <ele>671.421875</ele>
        <time>2020-06-17T09:35:39.052Z</time>
      </trkpt>
      <trkpt lat="45.61452" lon="3.4541">
        <ele>671.13391113281</ele>
        <time>2020-06-17T09:35:44.760Z</time>
      </trkpt>
      <trkpt lat="45.61443" lon="3.45444">
        <ele>670.77764892578</ele>
        <time>2020-06-17T09:35:50.472Z</time>
      </trkpt>
      <trkpt lat="45.61439" lon="3.4551">
        <ele>668.56866455078</ele>
        <time>2020-06-17T09:35:56.191Z</time>
      </trkpt>
      <trkpt lat="45.61432" lon="3.45602">
        <ele>664.87890625</ele>
        <time>2020-06-17T09:36:01.921Z</time>
      </trkpt>
      <trkpt lat="45.61426" lon="3.45643">
        <ele>662.43133544922</ele>
        <time>2020-06-17T09:36:07.656Z</time>
      </trkpt>
      <trkpt lat="45.61421" lon="3.45661">
        <ele>661.55548095703</ele>
        <time>2020-06-17T09:36:13.393Z</time>
      </trkpt>
      <trkpt lat="45.61413" lon="3.45684">
        <ele>660.33917236328</ele>
        <time>2020-06-17T09:36:19.133Z</time>
      </trkpt>
      <trkpt lat="45.61391" lon="3.45721">
        <ele>655.6591796875</ele>
        <time>2020-06-17T09:36:24.878Z</time>
      </trkpt>
      <trkpt lat="45.61372" lon="3.45732">
        <ele>654.06787109375</ele>
        <time>2020-06-17T09:36:30.626Z</time>
      </trkpt>
      <trkpt lat="45.61339" lon="3.45753">
        <ele>652.95318603516</ele>
        <time>2020-06-17T09:36:36.380Z</time>
      </trkpt>
      <trkpt lat="45.61324" lon="3.45766">
        <ele>653.40472412109</ele>
        <time>2020-06-17T09:36:42.137Z</time>
      </trkpt>
      <trkpt lat="45.6131" lon="3.45778">
        <ele>652.82470703125</ele>
        <time>2020-06-17T09:36:47.897Z</time>
      </trkpt>
      <trkpt lat="45.61292" lon="3.4581">
        <ele>652.12005615234</ele>
        <time>2020-06-17T09:36:53.661Z</time>
      </trkpt>
      <trkpt lat="45.61284" lon="3.45845">
        <ele>650.48187255859</ele>
        <time>2020-06-17T09:36:59.429Z</time>
      </trkpt>
      <trkpt lat="45.61283" lon="3.45897">
        <ele>647.59320068359</ele>
        <time>2020-06-17T09:37:05.203Z</time>
      </trkpt>
      <trkpt lat="45.61295" lon="3.4591">
        <ele>646.525390625</ele>
        <time>2020-06-17T09:37:10.980Z</time>
      </trkpt>
      <trkpt lat="45.61309" lon="3.45936">
        <ele>644.64172363281</ele>
        <time>2020-06-17T09:37:16.760Z</time>
      </trkpt>
      <trkpt lat="45.61318" lon="3.45983">
        <ele>642.94427490234</ele>
        <time>2020-06-17T09:37:22.546Z</time>
      </trkpt>
      <trkpt lat="45.61346" lon="3.46117">
        <ele>644.65502929688</ele>
        <time>2020-06-17T09:37:28.347Z</time>
      </trkpt>
      <trkpt lat="45.61346" lon="3.4614">
        <ele>646.58673095703</ele>
        <time>2020-06-17T09:37:34.151Z</time>
      </trkpt>
      <trkpt lat="45.61343" lon="3.46156">
        <ele>647.3408203125</ele>
        <time>2020-06-17T09:37:39.957Z</time>
      </trkpt>
      <trkpt lat="45.61334" lon="3.46177">
        <ele>647.73675537109</ele>
        <time>2020-06-17T09:37:45.766Z</time>
      </trkpt>
      <trkpt lat="45.61317" lon="3.46202">
        <ele>646.13592529297</ele>
        <time>2020-06-17T09:37:51.579Z</time>
      </trkpt>
      <trkpt lat="45.61311" lon="3.46219">
        <ele>645.97991943359</ele>
        <time>2020-06-17T09:37:57.394Z</time>
      </trkpt>
      <trkpt lat="45.6131" lon="3.46234">
        <ele>646.09991455078</ele>
        <time>2020-06-17T09:38:03.210Z</time>
      </trkpt>
      <trkpt lat="45.61326" lon="3.46232">
        <ele>647.03576660156</ele>
        <time>2020-06-17T09:38:09.029Z</time>
      </trkpt>
      <trkpt lat="45.61357" lon="3.46232">
        <ele>649.10327148438</ele>
        <time>2020-06-17T09:38:14.853Z</time>
      </trkpt>
      <trkpt lat="45.61383" lon="3.46238">
        <ele>651.45489501953</ele>
        <time>2020-06-17T09:38:20.681Z</time>
      </trkpt>
      <trkpt lat="45.61426" lon="3.46254">
        <ele>649.82312011719</ele>
        <time>2020-06-17T09:38:26.516Z</time>
      </trkpt>
      <trkpt lat="45.61478" lon="3.46271">
        <ele>648.15045166016</ele>
        <time>2020-06-17T09:38:32.360Z</time>
      </trkpt>
      <trkpt lat="45.61531" lon="3.46288">
        <ele>647.41857910156</ele>
        <time>2020-06-17T09:38:38.212Z</time>
      </trkpt>
      <trkpt lat="45.61595" lon="3.46298">
        <ele>650.68298339844</ele>
        <time>2020-06-17T09:38:44.075Z</time>
      </trkpt>
      <trkpt lat="45.6161" lon="3.46303">
        <ele>652.18273925781</ele>
        <time>2020-06-17T09:38:49.940Z</time>
      </trkpt>
      <trkpt lat="45.61618" lon="3.46309">
        <ele>653.62249755859</ele>
        <time>2020-06-17T09:38:55.807Z</time>
      </trkpt>
      <trkpt lat="45.6163" lon="3.46323">
        <ele>656.74194335938</ele>
        <time>2020-06-17T09:39:01.676Z</time>
      </trkpt>
      <trkpt lat="45.61633" lon="3.4633">
        <ele>658.19372558594</ele>
        <time>2020-06-17T09:39:07.546Z</time>
      </trkpt>
      <trkpt lat="45.61635" lon="3.46346">
        <ele>661.33721923828</ele>
        <time>2020-06-17T09:39:13.418Z</time>
      </trkpt>
      <trkpt lat="45.61634" lon="3.46351">
        <ele>662.12091064453</ele>
        <time>2020-06-17T09:39:19.290Z</time>
      </trkpt>
      <trkpt lat="45.61629" lon="3.46361">
        <ele>663.14074707031</ele>
        <time>2020-06-17T09:39:25.164Z</time>
      </trkpt>
      <trkpt lat="45.61618" lon="3.46372">
        <ele>663.80059814453</ele>
        <time>2020-06-17T09:39:31.040Z</time>
      </trkpt>
      <trkpt lat="45.61556" lon="3.46396">
        <ele>661.02734375</ele>
        <time>2020-06-17T09:39:36.926Z</time>
      </trkpt>
      <trkpt lat="45.61518" lon="3.46416">
        <ele>662.17053222656</ele>
        <time>2020-06-17T09:39:42.819Z</time>
      </trkpt>
      <trkpt lat="45.6149" lon="3.46434">
        <ele>662.99615478516</ele>
        <time>2020-06-17T09:39:48.717Z</time>
      </trkpt>
      <trkpt lat="45.61441" lon="3.46473">
        <ele>666.80218505859</ele>
        <time>2020-06-17T09:39:54.624Z</time>
      </trkpt>
      <trkpt lat="45.61378" lon="3.46538">
        <ele>670.052734375</ele>
        <time>2020-06-17T09:40:00.543Z</time>
      </trkpt>
      <trkpt lat="45.61301" lon="3.46627">
        <ele>673.01110839844</ele>
        <time>2020-06-17T09:40:06.478Z</time>
      </trkpt>
      <trkpt lat="45.61275" lon="3.46662">
        <ele>673.54412841797</ele>
        <time>2020-06-17T09:40:12.419Z</time>
      </trkpt>
      <trkpt lat="45.61265" lon="3.46682">
        <ele>674.74395751953</ele>
        <time>2020-06-17T09:40:18.362Z</time>
      </trkpt>
      <trkpt lat="45.61256" lon="3.46707">
        <ele>674.62292480469</ele>
        <time>2020-06-17T09:40:24.309Z</time>
      </trkpt>
      <trkpt lat="45.61247" lon="3.46731">
        <ele>674.95397949219</ele>
        <time>2020-06-17T09:40:30.259Z</time>
      </trkpt>
      <trkpt lat="45.61235" lon="3.46745">
        <ele>675.81781005859</ele>
        <time>2020-06-17T09:40:36.211Z</time>
      </trkpt>
      <trkpt lat="45.61223" lon="3.46753">
        <ele>676.681640625</ele>
        <time>2020-06-17T09:40:42.165Z</time>
      </trkpt>
      <trkpt lat="45.61215" lon="3.46757">
        <ele>677.17169189453</ele>
        <time>2020-06-17T09:40:48.121Z</time>
      </trkpt>
      <trkpt lat="45.61196" lon="3.4676">
        <ele>678.28088378906</ele>
        <time>2020-06-17T09:40:54.080Z</time>
      </trkpt>
      <trkpt lat="45.61165" lon="3.46762">
        <ele>680.16461181641</ele>
        <time>2020-06-17T09:41:00.044Z</time>
      </trkpt>
      <trkpt lat="45.61157" lon="3.46765">
        <ele>680.68048095703</ele>
        <time>2020-06-17T09:41:06.009Z</time>
      </trkpt>
      <trkpt lat="45.61135" lon="3.46778">
        <ele>682.0166015625</ele>
        <time>2020-06-17T09:41:11.978Z</time>
      </trkpt>
      <trkpt lat="45.61114" lon="3.46798">
        <ele>683.52838134766</ele>
        <time>2020-06-17T09:41:17.951Z</time>
      </trkpt>
      <trkpt lat="45.61101" lon="3.46819">
        <ele>684.41918945312</ele>
        <time>2020-06-17T09:41:23.927Z</time>
      </trkpt>
      <trkpt lat="45.61087" lon="3.46859">
        <ele>685.23614501953</ele>
        <time>2020-06-17T09:41:29.908Z</time>
      </trkpt>
      <trkpt lat="45.61061" lon="3.46988">
        <ele>690.31988525391</ele>
        <time>2020-06-17T09:41:35.904Z</time>
      </trkpt>
      <trkpt lat="45.61059" lon="3.47008">
        <ele>691.35168457031</ele>
        <time>2020-06-17T09:41:41.902Z</time>
      </trkpt>
      <trkpt lat="45.61062" lon="3.47025">
        <ele>692.48327636719</ele>
        <time>2020-06-17T09:41:47.902Z</time>
      </trkpt>
      <trkpt lat="45.61074" lon="3.47065">
        <ele>694.60870361328</ele>
        <time>2020-06-17T09:41:53.907Z</time>
      </trkpt>
      <trkpt lat="45.61094" lon="3.47121">
        <ele>697.7939453125</ele>
        <time>2020-06-17T09:41:59.919Z</time>
      </trkpt>
      <trkpt lat="45.61102" lon="3.47152">
        <ele>699.69293212891</ele>
        <time>2020-06-17T09:42:05.935Z</time>
      </trkpt>
      <trkpt lat="45.61108" lon="3.47175">
        <ele>700.73675537109</ele>
        <time>2020-06-17T09:42:11.954Z</time>
      </trkpt>
      <trkpt lat="45.6111" lon="3.47197">
        <ele>701.26141357422</ele>
        <time>2020-06-17T09:42:17.975Z</time>
      </trkpt>
      <trkpt lat="45.61109" lon="3.47215">
        <ele>701.44140625</ele>
        <time>2020-06-17T09:42:23.998Z</time>
      </trkpt>
      <trkpt lat="45.61105" lon="3.47235">
        <ele>701.53735351562</ele>
        <time>2020-06-17T09:42:30.024Z</time>
      </trkpt>
      <trkpt lat="45.61096" lon="3.47253">
        <ele>701.42938232422</ele>
        <time>2020-06-17T09:42:36.052Z</time>
      </trkpt>
      <trkpt lat="45.61079" lon="3.4727">
        <ele>700.93060302734</ele>
        <time>2020-06-17T09:42:42.083Z</time>
      </trkpt>
      <trkpt lat="45.61042" lon="3.47286">
        <ele>700.23693847656</ele>
        <time>2020-06-17T09:42:48.121Z</time>
      </trkpt>
      <trkpt lat="45.6099" lon="3.47312">
        <ele>701.25323486328</ele>
        <time>2020-06-17T09:42:54.167Z</time>
      </trkpt>
      <trkpt lat="45.60835" lon="3.4739">
        <ele>702.98272705078</ele>
        <time>2020-06-17T09:43:00.240Z</time>
      </trkpt>
      <trkpt lat="45.60808" lon="3.47404">
        <ele>703.43859863281</ele>
        <time>2020-06-17T09:43:06.317Z</time>
      </trkpt>
      <trkpt lat="45.60787" lon="3.47418">
        <ele>703.42852783203</ele>
        <time>2020-06-17T09:43:12.398Z</time>
      </trkpt>
      <trkpt lat="45.60769" lon="3.47436">
        <ele>703.353515625</ele>
        <time>2020-06-17T09:43:18.483Z</time>
      </trkpt>
      <trkpt lat="45.60756" lon="3.47453">
        <ele>702.75366210938</ele>
        <time>2020-06-17T09:43:24.570Z</time>
      </trkpt>
      <trkpt lat="45.60746" lon="3.47471">
        <ele>702.06481933594</ele>
        <time>2020-06-17T09:43:30.660Z</time>
      </trkpt>
      <trkpt lat="45.60736" lon="3.47496">
        <ele>701.16491699219</ele>
        <time>2020-06-17T09:43:36.753Z</time>
      </trkpt>
      <trkpt lat="45.60725" lon="3.47537">
        <ele>700.81005859375</ele>
        <time>2020-06-17T09:43:42.851Z</time>
      </trkpt>
      <trkpt lat="45.60645" lon="3.47905">
        <ele>703.15374755859</ele>
        <time>2020-06-17T09:43:48.992Z</time>
      </trkpt>
      <trkpt lat="45.60605" lon="3.48093">
        <ele>703.97387695312</ele>
        <time>2020-06-17T09:43:55.155Z</time>
      </trkpt>
      <trkpt lat="45.606" lon="3.48123">
        <ele>704.93304443359</ele>
        <time>2020-06-17T09:44:01.322Z</time>
      </trkpt>
      <trkpt lat="45.60595" lon="3.48186">
        <ele>707.85247802734</ele>
        <time>2020-06-17T09:44:07.496Z</time>
      </trkpt>
      <trkpt lat="45.60592" lon="3.48245">
        <ele>708.39794921875</ele>
        <time>2020-06-17T09:44:13.677Z</time>
      </trkpt>
      <trkpt lat="45.6058" lon="3.48242">
        <ele>709.58575439453</ele>
        <time>2020-06-17T09:44:19.860Z</time>
      </trkpt>
      <trkpt lat="45.60568" lon="3.48242">
        <ele>710.73760986328</ele>
        <time>2020-06-17T09:44:26.045Z</time>
      </trkpt>
      <trkpt lat="45.60563" lon="3.48244">
        <ele>711.19354248047</ele>
        <time>2020-06-17T09:44:32.230Z</time>
      </trkpt>
      <trkpt lat="45.60559" lon="3.48249">
        <ele>711.51745605469</ele>
        <time>2020-06-17T09:44:38.416Z</time>
      </trkpt>
      <trkpt lat="45.60552" lon="3.48265">
        <ele>711.99737548828</ele>
        <time>2020-06-17T09:44:44.604Z</time>
      </trkpt>
      <trkpt lat="45.60549" lon="3.48293">
        <ele>712.90753173828</ele>
        <time>2020-06-17T09:44:50.796Z</time>
      </trkpt>
      <trkpt lat="45.60546" lon="3.48357">
        <ele>714.31262207031</ele>
        <time>2020-06-17T09:44:56.995Z</time>
      </trkpt>
      <trkpt lat="45.60542" lon="3.48387">
        <ele>713.92864990234</ele>
        <time>2020-06-17T09:45:03.197Z</time>
      </trkpt>
      <trkpt lat="45.60534" lon="3.48412">
        <ele>714.00067138672</ele>
        <time>2020-06-17T09:45:09.402Z</time>
      </trkpt>
      <trkpt lat="45.60518" lon="3.48441">
        <ele>715.96026611328</ele>
        <time>2020-06-17T09:45:15.611Z</time>
      </trkpt>
      <trkpt lat="45.60445" lon="3.48534">
        <ele>723.01043701172</ele>
        <time>2020-06-17T09:45:21.836Z</time>
      </trkpt>
      <trkpt lat="45.60406" lon="3.48585">
        <ele>725.51300048828</ele>
        <time>2020-06-17T09:45:28.070Z</time>
      </trkpt>
      <trkpt lat="45.60398" lon="3.48597">
        <ele>725.32104492188</ele>
        <time>2020-06-17T09:45:34.305Z</time>
      </trkpt>
      <trkpt lat="45.60391" lon="3.48615">
        <ele>726.26336669922</ele>
        <time>2020-06-17T09:45:40.543Z</time>
      </trkpt>
      <trkpt lat="45.60387" lon="3.48631">
        <ele>727.07928466797</ele>
        <time>2020-06-17T09:45:46.783Z</time>
      </trkpt>
      <trkpt lat="45.60386" lon="3.48651">
        <ele>727.47521972656</ele>
        <time>2020-06-17T09:45:53.025Z</time>
      </trkpt>
      <trkpt lat="45.60388" lon="3.48694">
        <ele>727.28741455078</ele>
        <time>2020-06-17T09:45:59.272Z</time>
      </trkpt>
      <trkpt lat="45.60386" lon="3.48717">
        <ele>727.04742431641</ele>
        <time>2020-06-17T09:46:05.521Z</time>
      </trkpt>
      <trkpt lat="45.6038" lon="3.48739">
        <ele>727.5166015625</ele>
        <time>2020-06-17T09:46:11.773Z</time>
      </trkpt>
      <trkpt lat="45.6036" lon="3.48782">
        <ele>734.23291015625</ele>
        <time>2020-06-17T09:46:18.031Z</time>
      </trkpt>
      <trkpt lat="45.60249" lon="3.48973">
        <ele>747.20581054688</ele>
        <time>2020-06-17T09:46:24.317Z</time>
      </trkpt>
      <trkpt lat="45.60236" lon="3.48994">
        <ele>747.81768798828</ele>
        <time>2020-06-17T09:46:30.606Z</time>
      </trkpt>
      <trkpt lat="45.60208" lon="3.49029">
        <ele>750.47387695312</ele>
        <time>2020-06-17T09:46:36.901Z</time>
      </trkpt>
      <trkpt lat="45.60181" lon="3.49057">
        <ele>754.61322021484</ele>
        <time>2020-06-17T09:46:43.201Z</time>
      </trkpt>
      <trkpt lat="45.60158" lon="3.49075">
        <ele>754.29412841797</ele>
        <time>2020-06-17T09:46:49.505Z</time>
      </trkpt>
      <trkpt lat="45.60061" lon="3.49138">
        <ele>760.12542724609</ele>
        <time>2020-06-17T09:46:55.826Z</time>
      </trkpt>
      <trkpt lat="45.59984" lon="3.49188">
        <ele>763.04760742188</ele>
        <time>2020-06-17T09:47:02.161Z</time>
      </trkpt>
      <trkpt lat="45.5996" lon="3.49208">
        <ele>763.70245361328</ele>
        <time>2020-06-17T09:47:08.500Z</time>
      </trkpt>
      <trkpt lat="45.59929" lon="3.49236">
        <ele>763.26062011719</ele>
        <time>2020-06-17T09:47:14.845Z</time>
      </trkpt>
      <trkpt lat="45.59918" lon="3.4925">
        <ele>762.79272460938</ele>
        <time>2020-06-17T09:47:21.193Z</time>
      </trkpt>
      <trkpt lat="45.59902" lon="3.49268">
        <ele>762.25604248047</ele>
        <time>2020-06-17T09:47:27.544Z</time>
      </trkpt>
      <trkpt lat="45.59881" lon="3.49289">
        <ele>763.15393066406</ele>
        <time>2020-06-17T09:47:33.899Z</time>
      </trkpt>
      <trkpt lat="45.59868" lon="3.49302">
        <ele>763.30993652344</ele>
        <time>2020-06-17T09:47:40.256Z</time>
      </trkpt>
      <trkpt lat="45.59857" lon="3.49309">
        <ele>763.20190429688</ele>
        <time>2020-06-17T09:47:46.615Z</time>
      </trkpt>
      <trkpt lat="45.59848" lon="3.49313">
        <ele>763.01306152344</ele>
        <time>2020-06-17T09:47:52.976Z</time>
      </trkpt>
      <trkpt lat="45.59834" lon="3.49316">
        <ele>762.92907714844</ele>
        <time>2020-06-17T09:47:59.339Z</time>
      </trkpt>
      <trkpt lat="45.59823" lon="3.49313">
        <ele>762.41314697266</ele>
        <time>2020-06-17T09:48:05.704Z</time>
      </trkpt>
      <trkpt lat="45.59811" lon="3.49306">
        <ele>761.53729248047</ele>
        <time>2020-06-17T09:48:12.071Z</time>
      </trkpt>
      <trkpt lat="45.59789" lon="3.49294">
        <ele>759.08911132812</ele>
        <time>2020-06-17T09:48:18.442Z</time>
      </trkpt>
      <trkpt lat="45.59769" lon="3.49289">
        <ele>756.74951171875</ele>
        <time>2020-06-17T09:48:24.816Z</time>
      </trkpt>
      <trkpt lat="45.59755" lon="3.49292">
        <ele>755.65765380859</ele>
        <time>2020-06-17T09:48:31.192Z</time>
      </trkpt>
      <trkpt lat="45.59747" lon="3.49296">
        <ele>755.33825683594</ele>
        <time>2020-06-17T09:48:37.570Z</time>
      </trkpt>
      <trkpt lat="45.59725" lon="3.49315">
        <ele>760.72534179688</ele>
        <time>2020-06-17T09:48:43.952Z</time>
      </trkpt>
      <trkpt lat="45.59682" lon="3.49358">
        <ele>761.54711914062</ele>
        <time>2020-06-17T09:48:50.342Z</time>
      </trkpt>
      <trkpt lat="45.59664" lon="3.49371">
        <ele>759.25549316406</ele>
        <time>2020-06-17T09:48:56.735Z</time>
      </trkpt>
      <trkpt lat="45.59638" lon="3.49384">
        <ele>758.40100097656</ele>
        <time>2020-06-17T09:49:03.133Z</time>
      </trkpt>
      <trkpt lat="45.59608" lon="3.49393">
        <ele>756.81732177734</ele>
        <time>2020-06-17T09:49:09.536Z</time>
      </trkpt>
      <trkpt lat="45.59585" lon="3.49402">
        <ele>755.70770263672</ele>
        <time>2020-06-17T09:49:15.943Z</time>
      </trkpt>
      <trkpt lat="45.59575" lon="3.49408">
        <ele>755.58776855469</ele>
        <time>2020-06-17T09:49:22.351Z</time>
      </trkpt>
      <trkpt lat="45.59563" lon="3.49418">
        <ele>756.11566162109</ele>
        <time>2020-06-17T09:49:28.762Z</time>
      </trkpt>
      <trkpt lat="45.59532" lon="3.49449">
        <ele>758.00939941406</ele>
        <time>2020-06-17T09:49:35.179Z</time>
      </trkpt>
      <trkpt lat="45.59505" lon="3.49468">
        <ele>757.54150390625</ele>
        <time>2020-06-17T09:49:41.600Z</time>
      </trkpt>
      <trkpt lat="45.59486" lon="3.49481">
        <ele>756.06408691406</ele>
        <time>2020-06-17T09:49:48.025Z</time>
      </trkpt>
      <trkpt lat="45.59478" lon="3.49489">
        <ele>755.77612304688</ele>
        <time>2020-06-17T09:49:54.451Z</time>
      </trkpt>
      <trkpt lat="45.59472" lon="3.49505">
        <ele>756.99993896484</ele>
        <time>2020-06-17T09:50:00.879Z</time>
      </trkpt>
      <trkpt lat="45.59468" lon="3.49519">
        <ele>758.2294921875</ele>
        <time>2020-06-17T09:50:07.309Z</time>
      </trkpt>
      <trkpt lat="45.59467" lon="3.4955">
        <ele>761.46899414062</ele>
        <time>2020-06-17T09:50:13.743Z</time>
      </trkpt>
      <trkpt lat="45.59466" lon="3.49584">
        <ele>765.03240966797</ele>
        <time>2020-06-17T09:50:20.180Z</time>
      </trkpt>
      <trkpt lat="45.59467" lon="3.49621">
        <ele>767.28942871094</ele>
        <time>2020-06-17T09:50:26.622Z</time>
      </trkpt>
      <trkpt lat="45.59466" lon="3.49662">
        <ele>768.10528564453</ele>
        <time>2020-06-17T09:50:33.068Z</time>
      </trkpt>
      <trkpt lat="45.59462" lon="3.49683">
        <ele>767.5771484375</ele>
        <time>2020-06-17T09:50:39.517Z</time>
      </trkpt>
      <trkpt lat="45.59455" lon="3.49696">
        <ele>767.95483398438</ele>
        <time>2020-06-17T09:50:45.967Z</time>
      </trkpt>
      <trkpt lat="45.5945" lon="3.497">
        <ele>767.43890380859</ele>
        <time>2020-06-17T09:50:52.418Z</time>
      </trkpt>
      <trkpt lat="45.5944" lon="3.49702">
        <ele>765.47119140625</ele>
        <time>2020-06-17T09:50:58.871Z</time>
      </trkpt>
      <trkpt lat="45.59432" lon="3.497">
        <ele>763.33557128906</ele>
        <time>2020-06-17T09:51:05.325Z</time>
      </trkpt>
      <trkpt lat="45.59426" lon="3.49689">
        <ele>760.25207519531</ele>
        <time>2020-06-17T09:51:11.781Z</time>
      </trkpt>
      <trkpt lat="45.59421" lon="3.49666">
        <ele>758.84259033203</ele>
        <time>2020-06-17T09:51:18.240Z</time>
      </trkpt>
      <trkpt lat="45.59419" lon="3.49645">
        <ele>759.14251708984</ele>
        <time>2020-06-17T09:51:24.701Z</time>
      </trkpt>
      <trkpt lat="45.59411" lon="3.49581">
        <ele>756.46875</ele>
        <time>2020-06-17T09:51:31.169Z</time>
      </trkpt>
      <trkpt lat="45.5939" lon="3.49508">
        <ele>750.26776123047</ele>
        <time>2020-06-17T09:51:37.646Z</time>
      </trkpt>
      <trkpt lat="45.59387" lon="3.49492">
        <ele>751.28759765625</ele>
        <time>2020-06-17T09:51:44.125Z</time>
      </trkpt>
      <trkpt lat="45.59387" lon="3.49467">
        <ele>753.38726806641</ele>
        <time>2020-06-17T09:51:50.607Z</time>
      </trkpt>
      <trkpt lat="45.59393" lon="3.4943">
        <ele>755.73278808594</ele>
        <time>2020-06-17T09:51:57.093Z</time>
      </trkpt>
      <trkpt lat="45.59397" lon="3.49418">
        <ele>757.84442138672</ele>
        <time>2020-06-17T09:52:03.581Z</time>
      </trkpt>
      <trkpt lat="45.59402" lon="3.49412">
        <ele>758.54028320312</ele>
        <time>2020-06-17T09:52:10.070Z</time>
      </trkpt>
      <trkpt lat="45.59431" lon="3.49394">
        <ele>758.47918701172</ele>
        <time>2020-06-17T09:52:16.564Z</time>
      </trkpt>
      <trkpt lat="45.59452" lon="3.49377">
        <ele>750.51251220703</ele>
        <time>2020-06-17T09:52:23.062Z</time>
      </trkpt>
      <trkpt lat="45.59459" lon="3.49367">
        <ele>747.75299072266</ele>
        <time>2020-06-17T09:52:29.561Z</time>
      </trkpt>
      <trkpt lat="45.59467" lon="3.49343">
        <ele>745.44012451172</ele>
        <time>2020-06-17T09:52:36.063Z</time>
      </trkpt>
      <trkpt lat="45.59468" lon="3.49296">
        <ele>751.85900878906</ele>
        <time>2020-06-17T09:52:42.570Z</time>
      </trkpt>
      <trkpt lat="45.59479" lon="3.49258">
        <ele>754.24945068359</ele>
        <time>2020-06-17T09:52:49.082Z</time>
      </trkpt>
      <trkpt lat="45.59493" lon="3.49227">
        <ele>753.86553955078</ele>
        <time>2020-06-17T09:52:55.598Z</time>
      </trkpt>
      <trkpt lat="45.59496" lon="3.49211">
        <ele>754.68139648438</ele>
        <time>2020-06-17T09:53:02.116Z</time>
      </trkpt>
      <trkpt lat="45.59496" lon="3.49197">
        <ele>756.52593994141</ele>
        <time>2020-06-17T09:53:08.636Z</time>
      </trkpt>
      <trkpt lat="45.59492" lon="3.49186">
        <ele>758.79357910156</ele>
        <time>2020-06-17T09:53:15.157Z</time>
      </trkpt>
      <trkpt lat="45.59467" lon="3.49158">
        <ele>764.18518066406</ele>
        <time>2020-06-17T09:53:21.683Z</time>
      </trkpt>
      <trkpt lat="45.59457" lon="3.49148">
        <ele>765.62493896484</ele>
        <time>2020-06-17T09:53:28.211Z</time>
      </trkpt>
      <trkpt lat="45.59442" lon="3.49132">
        <ele>767.78460693359</ele>
        <time>2020-06-17T09:53:34.742Z</time>
      </trkpt>
      <trkpt lat="45.59427" lon="3.4911">
        <ele>769.94421386719</ele>
        <time>2020-06-17T09:53:41.276Z</time>
      </trkpt>
      <trkpt lat="45.59417" lon="3.49086">
        <ele>771.2177734375</ele>
        <time>2020-06-17T09:53:47.814Z</time>
      </trkpt>
      <trkpt lat="45.59408" lon="3.49056">
        <ele>772.15362548828</ele>
        <time>2020-06-17T09:53:54.355Z</time>
      </trkpt>
      <trkpt lat="45.594" lon="3.49029">
        <ele>772.98150634766</ele>
        <time>2020-06-17T09:54:00.900Z</time>
      </trkpt>
      <trkpt lat="45.59399" lon="3.49013">
        <ele>773.18585205078</ele>
        <time>2020-06-17T09:54:07.446Z</time>
      </trkpt>
      <trkpt lat="45.594" lon="3.48993">
        <ele>774.24163818359</ele>
        <time>2020-06-17T09:54:13.995Z</time>
      </trkpt>
      <trkpt lat="45.5941" lon="3.48947">
        <ele>775.83062744141</ele>
        <time>2020-06-17T09:54:20.549Z</time>
      </trkpt>
      <trkpt lat="45.59405" lon="3.48915">
        <ele>778.02880859375</ele>
        <time>2020-06-17T09:54:27.107Z</time>
      </trkpt>
      <trkpt lat="45.59402" lon="3.48892">
        <ele>778.94067382812</ele>
        <time>2020-06-17T09:54:33.667Z</time>
      </trkpt>
      <trkpt lat="45.59402" lon="3.48874">
        <ele>779.37255859375</ele>
        <time>2020-06-17T09:54:40.229Z</time>
      </trkpt>
      <trkpt lat="45.59407" lon="3.48855">
        <ele>779.63342285156</ele>
        <time>2020-06-17T09:54:46.794Z</time>
      </trkpt>
      <trkpt lat="45.59413" lon="3.48846">
        <ele>779.44372558594</ele>
        <time>2020-06-17T09:54:53.360Z</time>
      </trkpt>
      <trkpt lat="45.59426" lon="3.48838">
        <ele>778.48388671875</ele>
        <time>2020-06-17T09:54:59.928Z</time>
      </trkpt>
      <trkpt lat="45.59449" lon="3.48831">
        <ele>776.52825927734</ele>
        <time>2020-06-17T09:55:06.500Z</time>
      </trkpt>
      <trkpt lat="45.59457" lon="3.48827">
        <ele>776.73394775391</ele>
        <time>2020-06-17T09:55:13.073Z</time>
      </trkpt>
      <trkpt lat="45.59465" lon="3.48819">
        <ele>777.40582275391</ele>
        <time>2020-06-17T09:55:19.648Z</time>
      </trkpt>
      <trkpt lat="45.59471" lon="3.48809">
        <ele>778.01611328125</ele>
        <time>2020-06-17T09:55:26.224Z</time>
      </trkpt>
      <trkpt lat="45.59477" lon="3.48793">
        <ele>778.87994384766</ele>
        <time>2020-06-17T09:55:32.802Z</time>
      </trkpt>
      <trkpt lat="45.59481" lon="3.48768">
        <ele>779.52850341797</ele>
        <time>2020-06-17T09:55:39.383Z</time>
      </trkpt>
      <trkpt lat="45.59481" lon="3.48745">
        <ele>779.49163818359</ele>
        <time>2020-06-17T09:55:45.967Z</time>
      </trkpt>
      <trkpt lat="45.59477" lon="3.48724">
        <ele>780.59539794922</ele>
        <time>2020-06-17T09:55:52.553Z</time>
      </trkpt>
      <trkpt lat="45.5947" lon="3.4871">
        <ele>782.52709960938</ele>
        <time>2020-06-17T09:55:59.141Z</time>
      </trkpt>
      <trkpt lat="45.59462" lon="3.487">
        <ele>782.84918212891</ele>
        <time>2020-06-17T09:56:05.731Z</time>
      </trkpt>
      <trkpt lat="45.59451" lon="3.48692">
        <ele>782.58520507812</ele>
        <time>2020-06-17T09:56:12.323Z</time>
      </trkpt>
      <trkpt lat="45.59437" lon="3.48687">
        <ele>782.24926757812</ele>
        <time>2020-06-17T09:56:18.917Z</time>
      </trkpt>
      <trkpt lat="45.59427" lon="3.48686">
        <ele>782.00927734375</ele>
        <time>2020-06-17T09:56:25.513Z</time>
      </trkpt>
      <trkpt lat="45.59381" lon="3.48691">
        <ele>781.61468505859</ele>
        <time>2020-06-17T09:56:32.116Z</time>
      </trkpt>
      <trkpt lat="45.59361" lon="3.48693">
        <ele>782.91046142578</ele>
        <time>2020-06-17T09:56:38.723Z</time>
      </trkpt>
      <trkpt lat="45.5933" lon="3.48702">
        <ele>785.20208740234</ele>
        <time>2020-06-17T09:56:45.335Z</time>
      </trkpt>
      <trkpt lat="45.59203" lon="3.48741">
        <ele>789.88464355469</ele>
        <time>2020-06-17T09:56:51.967Z</time>
      </trkpt>
      <trkpt lat="45.59182" lon="3.48748">
        <ele>791.84332275391</ele>
        <time>2020-06-17T09:56:58.603Z</time>
      </trkpt>
      <trkpt lat="45.59145" lon="3.48763">
        <ele>797.56634521484</ele>
        <time>2020-06-17T09:57:05.245Z</time>
      </trkpt>
      <trkpt lat="45.59061" lon="3.488">
        <ele>803.21978759766</ele>
        <time>2020-06-17T09:57:11.901Z</time>
      </trkpt>
      <trkpt lat="45.5904" lon="3.48813">
        <ele>803.033203125</ele>
        <time>2020-06-17T09:57:18.561Z</time>
      </trkpt>
      <trkpt lat="45.59032" lon="3.48821">
        <ele>803.32116699219</ele>
        <time>2020-06-17T09:57:25.222Z</time>
      </trkpt>
      <trkpt lat="45.59024" lon="3.48837">
        <ele>804.13439941406</ele>
        <time>2020-06-17T09:57:31.885Z</time>
      </trkpt>
      <trkpt lat="45.59021" lon="3.48858">
        <ele>805.36108398438</ele>
        <time>2020-06-17T09:57:38.551Z</time>
      </trkpt>
      <trkpt lat="45.59022" lon="3.48886">
        <ele>806.83685302734</ele>
        <time>2020-06-17T09:57:45.220Z</time>
      </trkpt>
      <trkpt lat="45.59027" lon="3.48932">
        <ele>809.70434570312</ele>
        <time>2020-06-17T09:57:51.894Z</time>
      </trkpt>
      <trkpt lat="45.59035" lon="3.48993">
        <ele>812.9697265625</ele>
        <time>2020-06-17T09:57:58.575Z</time>
      </trkpt>
      <trkpt lat="45.59036" lon="3.49019">
        <ele>813.70129394531</ele>
        <time>2020-06-17T09:58:05.259Z</time>
      </trkpt>
      <trkpt lat="45.59033" lon="3.49039">
        <ele>812.78942871094</ele>
        <time>2020-06-17T09:58:11.945Z</time>
      </trkpt>
      <trkpt lat="45.59028" lon="3.49058">
        <ele>811.61364746094</ele>
        <time>2020-06-17T09:58:18.634Z</time>
      </trkpt>
      <trkpt lat="45.59021" lon="3.49072">
        <ele>810.52880859375</ele>
        <time>2020-06-17T09:58:25.325Z</time>
      </trkpt>
      <trkpt lat="45.59005" lon="3.49095">
        <ele>811.41668701172</ele>
        <time>2020-06-17T09:58:32.019Z</time>
      </trkpt>
      <trkpt lat="45.58977" lon="3.49122">
        <ele>811.70367431641</ele>
        <time>2020-06-17T09:58:38.719Z</time>
      </trkpt>
      <trkpt lat="45.58934" lon="3.49155">
        <ele>813.31353759766</ele>
        <time>2020-06-17T09:58:45.427Z</time>
      </trkpt>
      <trkpt lat="45.58902" lon="3.49174">
        <ele>813.82940673828</ele>
        <time>2020-06-17T09:58:52.140Z</time>
      </trkpt>
      <trkpt lat="45.5888" lon="3.49183">
        <ele>813.98089599609</ele>
        <time>2020-06-17T09:58:58.857Z</time>
      </trkpt>
      <trkpt lat="45.58853" lon="3.49192">
        <ele>815.26708984375</ele>
        <time>2020-06-17T09:59:05.578Z</time>
      </trkpt>
      <trkpt lat="45.58833" lon="3.49197">
        <ele>815.98699951172</ele>
        <time>2020-06-17T09:59:12.302Z</time>
      </trkpt>
      <trkpt lat="45.5881" lon="3.49201">
        <ele>816.33947753906</ele>
        <time>2020-06-17T09:59:19.030Z</time>
      </trkpt>
      <trkpt lat="45.5879" lon="3.49202">
        <ele>816.669921875</ele>
        <time>2020-06-17T09:59:25.761Z</time>
      </trkpt>
      <trkpt lat="45.58775" lon="3.49199">
        <ele>816.84991455078</ele>
        <time>2020-06-17T09:59:32.495Z</time>
      </trkpt>
      <trkpt lat="45.58757" lon="3.4919">
        <ele>816.41796875</ele>
        <time>2020-06-17T09:59:39.232Z</time>
      </trkpt>
      <trkpt lat="45.58747" lon="3.49179">
        <ele>815.81085205078</ele>
        <time>2020-06-17T09:59:45.971Z</time>
      </trkpt>
      <trkpt lat="45.58731" lon="3.49148">
        <ele>815.27093505859</ele>
        <time>2020-06-17T09:59:52.714Z</time>
      </trkpt>
      <trkpt lat="45.58716" lon="3.49116">
        <ele>814.63311767578</ele>
        <time>2020-06-17T09:59:59.462Z</time>
      </trkpt>
      <trkpt lat="45.58701" lon="3.491">
        <ele>814.41711425781</ele>
        <time>2020-06-17T10:00:06.213Z</time>
      </trkpt>
      <trkpt lat="45.5869" lon="3.49092">
        <ele>814.48736572266</ele>
        <time>2020-06-17T10:00:12.965Z</time>
      </trkpt>
      <trkpt lat="45.58664" lon="3.49071">
        <ele>814.60729980469</ele>
        <time>2020-06-17T10:00:19.722Z</time>
      </trkpt>
      <trkpt lat="45.58654" lon="3.49066">
        <ele>814.72729492188</ele>
        <time>2020-06-17T10:00:26.481Z</time>
      </trkpt>
      <trkpt lat="45.58645" lon="3.49064">
        <ele>814.89526367188</ele>
        <time>2020-06-17T10:00:33.241Z</time>
      </trkpt>
      <trkpt lat="45.58637" lon="3.49065">
        <ele>815.11126708984</ele>
        <time>2020-06-17T10:00:40.003Z</time>
      </trkpt>
      <trkpt lat="45.58631" lon="3.49069">
        <ele>815.44274902344</ele>
        <time>2020-06-17T10:00:46.766Z</time>
      </trkpt>
      <trkpt lat="45.58622" lon="3.49075">
        <ele>816.01861572266</ele>
        <time>2020-06-17T10:00:53.530Z</time>
      </trkpt>
      <trkpt lat="45.58608" lon="3.49076">
        <ele>816.71447753906</ele>
        <time>2020-06-17T10:01:00.297Z</time>
      </trkpt>
      <trkpt lat="45.58592" lon="3.4907">
        <ele>817.33837890625</ele>
        <time>2020-06-17T10:01:07.066Z</time>
      </trkpt>
      <trkpt lat="45.58577" lon="3.4907">
        <ele>818.05828857422</ele>
        <time>2020-06-17T10:01:13.838Z</time>
      </trkpt>
      <trkpt lat="45.5854" lon="3.49077">
        <ele>819.17645263672</ele>
        <time>2020-06-17T10:01:20.616Z</time>
      </trkpt>
      <trkpt lat="45.5849" lon="3.49091">
        <ele>819.5751953125</ele>
        <time>2020-06-17T10:01:27.402Z</time>
      </trkpt>
      <trkpt lat="45.58446" lon="3.49103">
        <ele>819.08953857422</ele>
        <time>2020-06-17T10:01:34.195Z</time>
      </trkpt>
      <trkpt lat="45.58435" lon="3.49104">
        <ele>818.60961914062</ele>
        <time>2020-06-17T10:01:40.990Z</time>
      </trkpt>
      <trkpt lat="45.58424" lon="3.49103">
        <ele>818.03369140625</ele>
        <time>2020-06-17T10:01:47.786Z</time>
      </trkpt>
      <trkpt lat="45.58414" lon="3.49099">
        <ele>817.34136962891</ele>
        <time>2020-06-17T10:01:54.584Z</time>
      </trkpt>
      <trkpt lat="45.58399" lon="3.49085">
        <ele>815.61364746094</ele>
        <time>2020-06-17T10:02:01.385Z</time>
      </trkpt>
      <trkpt lat="45.58378" lon="3.49064">
        <ele>813.09405517578</ele>
        <time>2020-06-17T10:02:08.190Z</time>
      </trkpt>
      <trkpt lat="45.58364" lon="3.4905">
        <ele>811.41436767578</ele>
        <time>2020-06-17T10:02:14.998Z</time>
      </trkpt>
      <trkpt lat="45.58346" lon="3.49041">
        <ele>809.90258789062</ele>
        <time>2020-06-17T10:02:21.809Z</time>
      </trkpt>
      <trkpt lat="45.58314" lon="3.49031">
        <ele>807.69305419922</ele>
        <time>2020-06-17T10:02:28.625Z</time>
      </trkpt>
      <trkpt lat="45.58294" lon="3.49029">
        <ele>807.02117919922</ele>
        <time>2020-06-17T10:02:35.444Z</time>
      </trkpt>
      <trkpt lat="45.58279" lon="3.49032">
        <ele>806.94915771484</ele>
        <time>2020-06-17T10:02:42.266Z</time>
      </trkpt>
      <trkpt lat="45.5825" lon="3.49048">
        <ele>807.7890625</ele>
        <time>2020-06-17T10:02:49.093Z</time>
      </trkpt>
      <trkpt lat="45.58227" lon="3.49064">
        <ele>810.16125488281</ele>
        <time>2020-06-17T10:02:55.924Z</time>
      </trkpt>
      <trkpt lat="45.58214" lon="3.49077">
        <ele>811.88616943359</ele>
        <time>2020-06-17T10:03:02.757Z</time>
      </trkpt>
      <trkpt lat="45.58204" lon="3.49089">
        <ele>812.95904541016</ele>
        <time>2020-06-17T10:03:09.593Z</time>
      </trkpt>
      <trkpt lat="45.58188" lon="3.49113">
        <ele>812.85638427734</ele>
        <time>2020-06-17T10:03:16.432Z</time>
      </trkpt>
      <trkpt lat="45.58177" lon="3.4914">
        <ele>813.93615722656</ele>
        <time>2020-06-17T10:03:23.275Z</time>
      </trkpt>
      <trkpt lat="45.58162" lon="3.49193">
        <ele>813.25329589844</ele>
        <time>2020-06-17T10:03:30.124Z</time>
      </trkpt>
      <trkpt lat="45.58155" lon="3.49208">
        <ele>812.37896728516</ele>
        <time>2020-06-17T10:03:36.975Z</time>
      </trkpt>
      <trkpt lat="45.58147" lon="3.49217">
        <ele>811.94702148438</ele>
        <time>2020-06-17T10:03:43.828Z</time>
      </trkpt>
      <trkpt lat="45.5814" lon="3.49219">
        <ele>811.287109375</ele>
        <time>2020-06-17T10:03:50.682Z</time>
      </trkpt>
      <trkpt lat="45.58126" lon="3.49219">
        <ele>810.92767333984</ele>
        <time>2020-06-17T10:03:57.538Z</time>
      </trkpt>
      <trkpt lat="45.58115" lon="3.49212">
        <ele>810.85565185547</ele>
        <time>2020-06-17T10:04:04.396Z</time>
      </trkpt>
      <trkpt lat="45.58091" lon="3.49179">
        <ele>809.89819335938</ele>
        <time>2020-06-17T10:04:11.259Z</time>
      </trkpt>
      <trkpt lat="45.58076" lon="3.49156">
        <ele>809.43029785156</ele>
        <time>2020-06-17T10:04:18.126Z</time>
      </trkpt>
      <trkpt lat="45.58071" lon="3.4915">
        <ele>809.33428955078</ele>
        <time>2020-06-17T10:04:24.994Z</time>
      </trkpt>
      <trkpt lat="45.58062" lon="3.49143">
        <ele>809.29833984375</ele>
        <time>2020-06-17T10:04:31.864Z</time>
      </trkpt>
      <trkpt lat="45.58055" lon="3.49141">
        <ele>809.39428710938</ele>
        <time>2020-06-17T10:04:38.735Z</time>
      </trkpt>
      <trkpt lat="45.58045" lon="3.49141">
        <ele>809.40447998047</ele>
        <time>2020-06-17T10:04:45.607Z</time>
      </trkpt>
      <trkpt lat="45.58032" lon="3.49145">
        <ele>809.39251708984</ele>
        <time>2020-06-17T10:04:52.482Z</time>
      </trkpt>
      <trkpt lat="45.57952" lon="3.49191">
        <ele>811.56677246094</ele>
        <time>2020-06-17T10:04:59.370Z</time>
      </trkpt>
      <trkpt lat="45.57918" lon="3.49208">
        <ele>812.79058837891</ele>
        <time>2020-06-17T10:05:06.264Z</time>
      </trkpt>
      <trkpt lat="45.57902" lon="3.49214">
        <ele>813.10864257812</ele>
        <time>2020-06-17T10:05:13.161Z</time>
      </trkpt>
      <trkpt lat="45.57865" lon="3.49221">
        <ele>811.70697021484</ele>
        <time>2020-06-17T10:05:20.064Z</time>
      </trkpt>
      <trkpt lat="45.57829" lon="3.49224">
        <ele>810.68371582031</ele>
        <time>2020-06-17T10:05:26.973Z</time>
      </trkpt>
      <trkpt lat="45.57794" lon="3.49225">
        <ele>812.52288818359</ele>
        <time>2020-06-17T10:05:33.887Z</time>
      </trkpt>
      <trkpt lat="45.57766" lon="3.49223">
        <ele>812.16296386719</ele>
        <time>2020-06-17T10:05:40.806Z</time>
      </trkpt>
      <trkpt lat="45.57756" lon="3.49224">
        <ele>812.30938720703</ele>
        <time>2020-06-17T10:05:47.726Z</time>
      </trkpt>
      <trkpt lat="45.57746" lon="3.49231">
        <ele>813.36517333984</ele>
        <time>2020-06-17T10:05:54.648Z</time>
      </trkpt>
      <trkpt lat="45.57702" lon="3.49269">
        <ele>817.15399169922</ele>
        <time>2020-06-17T10:06:01.578Z</time>
      </trkpt>
      <trkpt lat="45.57676" lon="3.493">
        <ele>817.07000732422</ele>
        <time>2020-06-17T10:06:08.514Z</time>
      </trkpt>
      <trkpt lat="45.57663" lon="3.4932">
        <ele>817.51391601562</ele>
        <time>2020-06-17T10:06:15.453Z</time>
      </trkpt>
      <trkpt lat="45.57652" lon="3.49338">
        <ele>818.005859375</ele>
        <time>2020-06-17T10:06:22.394Z</time>
      </trkpt>
      <trkpt lat="45.57642" lon="3.49348">
        <ele>817.76586914062</ele>
        <time>2020-06-17T10:06:29.337Z</time>
      </trkpt>
      <trkpt lat="45.57633" lon="3.49357">
        <ele>818.09484863281</ele>
        <time>2020-06-17T10:06:36.282Z</time>
      </trkpt>
      <trkpt lat="45.5762" lon="3.49365">
        <ele>818.65875244141</ele>
        <time>2020-06-17T10:06:43.229Z</time>
      </trkpt>
      <trkpt lat="45.5759" lon="3.49378">
        <ele>819.04266357422</ele>
        <time>2020-06-17T10:06:50.181Z</time>
      </trkpt>
      <trkpt lat="45.57563" lon="3.49387">
        <ele>816.19122314453</ele>
        <time>2020-06-17T10:06:57.138Z</time>
      </trkpt>
      <trkpt lat="45.57537" lon="3.49385">
        <ele>814.79229736328</ele>
        <time>2020-06-17T10:07:04.099Z</time>
      </trkpt>
      <trkpt lat="45.5751" lon="3.49379">
        <ele>815.72814941406</ele>
        <time>2020-06-17T10:07:11.064Z</time>
      </trkpt>
      <trkpt lat="45.57491" lon="3.49365">
        <ele>815.80017089844</ele>
        <time>2020-06-17T10:07:18.033Z</time>
      </trkpt>
      <trkpt lat="45.57486" lon="3.49357">
        <ele>815.56018066406</ele>
        <time>2020-06-17T10:07:25.003Z</time>
      </trkpt>
      <trkpt lat="45.57481" lon="3.49343">
        <ele>815.20843505859</ele>
        <time>2020-06-17T10:07:31.975Z</time>
      </trkpt>
      <trkpt lat="45.57477" lon="3.49322">
        <ele>814.896484375</ele>
        <time>2020-06-17T10:07:38.949Z</time>
      </trkpt>
      <trkpt lat="45.57472" lon="3.49305">
        <ele>814.728515625</ele>
        <time>2020-06-17T10:07:45.925Z</time>
      </trkpt>
      <trkpt lat="45.57462" lon="3.4929">
        <ele>815.06274414062</ele>
        <time>2020-06-17T10:07:52.904Z</time>
      </trkpt>
      <trkpt lat="45.57454" lon="3.49282">
        <ele>815.54266357422</ele>
        <time>2020-06-17T10:07:59.884Z</time>
      </trkpt>
      <trkpt lat="45.57415" lon="3.49253">
        <ele>817.79718017578</ele>
        <time>2020-06-17T10:08:06.871Z</time>
      </trkpt>
      <trkpt lat="45.57327" lon="3.49192">
        <ele>822.26043701172</ele>
        <time>2020-06-17T10:08:13.874Z</time>
      </trkpt>
      <trkpt lat="45.57308" lon="3.49188">
        <ele>823.66418457031</ele>
        <time>2020-06-17T10:08:20.880Z</time>
      </trkpt>
      <trkpt lat="45.57287" lon="3.49188">
        <ele>824.80120849609</ele>
        <time>2020-06-17T10:08:27.889Z</time>
      </trkpt>
      <trkpt lat="45.57238" lon="3.49201">
        <ele>827.34478759766</ele>
        <time>2020-06-17T10:08:34.906Z</time>
      </trkpt>
      <trkpt lat="45.57216" lon="3.49204">
        <ele>829.51861572266</ele>
        <time>2020-06-17T10:08:41.927Z</time>
      </trkpt>
      <trkpt lat="45.57184" lon="3.49209">
        <ele>830.50244140625</ele>
        <time>2020-06-17T10:08:48.953Z</time>
      </trkpt>
      <trkpt lat="45.57148" lon="3.49221">
        <ele>832.66644287109</ele>
        <time>2020-06-17T10:08:55.985Z</time>
      </trkpt>
      <trkpt lat="45.57127" lon="3.49235">
        <ele>834.56427001953</ele>
        <time>2020-06-17T10:09:03.021Z</time>
      </trkpt>
      <trkpt lat="45.57112" lon="3.4925">
        <ele>835.85968017578</ele>
        <time>2020-06-17T10:09:10.060Z</time>
      </trkpt>
      <trkpt lat="45.57073" lon="3.49296">
        <ele>839.10192871094</ele>
        <time>2020-06-17T10:09:17.107Z</time>
      </trkpt>
      <trkpt lat="45.57055" lon="3.49312">
        <ele>839.72583007812</ele>
        <time>2020-06-17T10:09:24.157Z</time>
      </trkpt>
      <trkpt lat="45.57042" lon="3.49319">
        <ele>840.18280029297</ele>
        <time>2020-06-17T10:09:31.209Z</time>
      </trkpt>
      <trkpt lat="45.57016" lon="3.49329">
        <ele>840.55511474609</ele>
        <time>2020-06-17T10:09:38.266Z</time>
      </trkpt>
      <trkpt lat="45.57004" lon="3.49334">
        <ele>840.39910888672</ele>
        <time>2020-06-17T10:09:45.325Z</time>
      </trkpt>
      <trkpt lat="45.56993" lon="3.49341">
        <ele>840.45910644531</ele>
        <time>2020-06-17T10:09:52.386Z</time>
      </trkpt>
      <trkpt lat="45.56984" lon="3.49347">
        <ele>840.53106689453</ele>
        <time>2020-06-17T10:09:59.448Z</time>
      </trkpt>
      <trkpt lat="45.56948" lon="3.49387">
        <ele>846.02600097656</ele>
        <time>2020-06-17T10:10:06.517Z</time>
      </trkpt>
      <trkpt lat="45.56913" lon="3.49428">
        <ele>849.26818847656</ele>
        <time>2020-06-17T10:10:13.594Z</time>
      </trkpt>
      <trkpt lat="45.56893" lon="3.49457">
        <ele>850.58563232422</ele>
        <time>2020-06-17T10:10:20.675Z</time>
      </trkpt>
      <trkpt lat="45.56871" lon="3.49478">
        <ele>852.45837402344</ele>
        <time>2020-06-17T10:10:27.760Z</time>
      </trkpt>
      <trkpt lat="45.56844" lon="3.49501">
        <ele>852.5966796875</ele>
        <time>2020-06-17T10:10:34.851Z</time>
      </trkpt>
      <trkpt lat="45.56833" lon="3.49513">
        <ele>851.6728515625</ele>
        <time>2020-06-17T10:10:41.944Z</time>
      </trkpt>
      <trkpt lat="45.56814" lon="3.49538">
        <ele>851.05383300781</ele>
        <time>2020-06-17T10:10:49.041Z</time>
      </trkpt>
      <trkpt lat="45.56804" lon="3.49561">
        <ele>851.83374023438</ele>
        <time>2020-06-17T10:10:56.141Z</time>
      </trkpt>
      <trkpt lat="45.568" lon="3.49583">
        <ele>853.06866455078</ele>
        <time>2020-06-17T10:11:03.243Z</time>
      </trkpt>
      <trkpt lat="45.56797" lon="3.49628">
        <ele>854.13635253906</ele>
        <time>2020-06-17T10:11:10.351Z</time>
      </trkpt>
      <trkpt lat="45.56794" lon="3.49648">
        <ele>854.23229980469</ele>
        <time>2020-06-17T10:11:17.461Z</time>
      </trkpt>
      <trkpt lat="45.56786" lon="3.49671">
        <ele>854.12432861328</ele>
        <time>2020-06-17T10:11:24.574Z</time>
      </trkpt>
      <trkpt lat="45.56772" lon="3.49696">
        <ele>853.75238037109</ele>
        <time>2020-06-17T10:11:31.690Z</time>
      </trkpt>
      <trkpt lat="45.56752" lon="3.49719">
        <ele>853.14270019531</ele>
        <time>2020-06-17T10:11:38.810Z</time>
      </trkpt>
      <trkpt lat="45.5673" lon="3.49736">
        <ele>854.16253662109</ele>
        <time>2020-06-17T10:11:45.934Z</time>
      </trkpt>
      <trkpt lat="45.56715" lon="3.49744">
        <ele>854.84600830078</ele>
        <time>2020-06-17T10:11:53.061Z</time>
      </trkpt>
      <trkpt lat="45.56705" lon="3.4975">
        <ele>855.92584228516</ele>
        <time>2020-06-17T10:12:00.190Z</time>
      </trkpt>
      <trkpt lat="45.56689" lon="3.49755">
        <ele>856.13952636719</ele>
        <time>2020-06-17T10:12:07.321Z</time>
      </trkpt>
      <trkpt lat="45.56604" lon="3.49782">
        <ele>858.20672607422</ele>
        <time>2020-06-17T10:12:14.466Z</time>
      </trkpt>
      <trkpt lat="45.5651" lon="3.4981">
        <ele>860.56011962891</ele>
        <time>2020-06-17T10:12:21.627Z</time>
      </trkpt>
      <trkpt lat="45.56486" lon="3.49818">
        <ele>859.88824462891</ele>
        <time>2020-06-17T10:12:28.792Z</time>
      </trkpt>
      <trkpt lat="45.5647" lon="3.49827">
        <ele>859.5283203125</ele>
        <time>2020-06-17T10:12:35.959Z</time>
      </trkpt>
      <trkpt lat="45.56438" lon="3.49853">
        <ele>859.93280029297</ele>
        <time>2020-06-17T10:12:43.132Z</time>
      </trkpt>
      <trkpt lat="45.56366" lon="3.49919">
        <ele>860.34375</ele>
        <time>2020-06-17T10:12:50.319Z</time>
      </trkpt>
      <trkpt lat="45.56304" lon="3.49975">
        <ele>860.17443847656</ele>
        <time>2020-06-17T10:12:57.518Z</time>
      </trkpt>
      <trkpt lat="45.5628" lon="3.50003">
        <ele>860.86712646484</ele>
        <time>2020-06-17T10:13:04.722Z</time>
      </trkpt>
      <trkpt lat="45.56248" lon="3.50048">
        <ele>860.45794677734</ele>
        <time>2020-06-17T10:13:11.933Z</time>
      </trkpt>
      <trkpt lat="45.56227" lon="3.50071">
        <ele>857.20648193359</ele>
        <time>2020-06-17T10:13:19.148Z</time>
      </trkpt>
      <trkpt lat="45.56171" lon="3.50116">
        <ele>852.47198486328</ele>
        <time>2020-06-17T10:13:26.373Z</time>
      </trkpt>
      <trkpt lat="45.5613" lon="3.50152">
        <ele>851.26721191406</ele>
        <time>2020-06-17T10:13:33.606Z</time>
      </trkpt>
      <trkpt lat="45.56093" lon="3.50178">
        <ele>847.84661865234</ele>
        <time>2020-06-17T10:13:40.846Z</time>
      </trkpt>
      <trkpt lat="45.56068" lon="3.50193">
        <ele>845.01831054688</ele>
        <time>2020-06-17T10:13:48.090Z</time>
      </trkpt>
      <trkpt lat="45.56034" lon="3.50213">
        <ele>842.29217529297</ele>
        <time>2020-06-17T10:13:55.340Z</time>
      </trkpt>
      <trkpt lat="45.56004" lon="3.50242">
        <ele>841.40838623047</ele>
        <time>2020-06-17T10:14:02.596Z</time>
      </trkpt>
      <trkpt lat="45.55998" lon="3.50247">
        <ele>841.25238037109</ele>
        <time>2020-06-17T10:14:09.853Z</time>
      </trkpt>
      <trkpt lat="45.55988" lon="3.50254">
        <ele>840.88043212891</ele>
        <time>2020-06-17T10:14:17.112Z</time>
      </trkpt>
      <trkpt lat="45.55945" lon="3.5026">
        <ele>839.03344726562</ele>
        <time>2020-06-17T10:14:24.378Z</time>
      </trkpt>
      <trkpt lat="45.5591" lon="3.50266">
        <ele>839.89733886719</ele>
        <time>2020-06-17T10:14:31.649Z</time>
      </trkpt>
      <trkpt lat="45.55858" lon="3.50274">
        <ele>841.25744628906</ele>
        <time>2020-06-17T10:14:38.929Z</time>
      </trkpt>
      <trkpt lat="45.55849" lon="3.50276">
        <ele>841.58142089844</ele>
        <time>2020-06-17T10:14:46.210Z</time>
      </trkpt>
      <trkpt lat="45.55839" lon="3.50273">
        <ele>840.81353759766</ele>
        <time>2020-06-17T10:14:53.493Z</time>
      </trkpt>
      <trkpt lat="45.55834" lon="3.50271">
        <ele>840.32165527344</ele>
        <time>2020-06-17T10:15:00.777Z</time>
      </trkpt>
      <trkpt lat="45.55824" lon="3.50262">
        <ele>838.99310302734</ele>
        <time>2020-06-17T10:15:08.062Z</time>
      </trkpt>
      <trkpt lat="45.55814" lon="3.50242">
        <ele>837.67333984375</ele>
        <time>2020-06-17T10:15:15.350Z</time>
      </trkpt>
      <trkpt lat="45.55814" lon="3.50219">
        <ele>836.29357910156</ele>
        <time>2020-06-17T10:15:22.641Z</time>
      </trkpt>
      <trkpt lat="45.55815" lon="3.50208">
        <ele>835.64569091797</ele>
        <time>2020-06-17T10:15:29.933Z</time>
      </trkpt>
      <trkpt lat="45.5582" lon="3.50194">
        <ele>834.16387939453</ele>
        <time>2020-06-17T10:15:37.227Z</time>
      </trkpt>
      <trkpt lat="45.5583" lon="3.50169">
        <ele>831.39587402344</ele>
        <time>2020-06-17T10:15:44.524Z</time>
      </trkpt>
      <trkpt lat="45.55833" lon="3.50149">
        <ele>830.46002197266</ele>
        <time>2020-06-17T10:15:51.823Z</time>
      </trkpt>
      <trkpt lat="45.55833" lon="3.5014">
        <ele>830.13610839844</ele>
        <time>2020-06-17T10:15:59.123Z</time>
      </trkpt>
      <trkpt lat="45.55831" lon="3.5012">
        <ele>829.56018066406</ele>
        <time>2020-06-17T10:16:06.426Z</time>
      </trkpt>
      <trkpt lat="45.55823" lon="3.50102">
        <ele>829.48822021484</ele>
        <time>2020-06-17T10:16:13.731Z</time>
      </trkpt>
      <trkpt lat="45.55804" lon="3.50083">
        <ele>830.98883056641</ele>
        <time>2020-06-17T10:16:21.040Z</time>
      </trkpt>
      <trkpt lat="45.55791" lon="3.50075">
        <ele>830.81982421875</ele>
        <time>2020-06-17T10:16:28.351Z</time>
      </trkpt>
      <trkpt lat="45.55779" lon="3.5007">
        <ele>830.30395507812</ele>
        <time>2020-06-17T10:16:35.664Z</time>
      </trkpt>
      <trkpt lat="45.55751" lon="3.50069">
        <ele>830.79486083984</ele>
        <time>2020-06-17T10:16:42.981Z</time>
      </trkpt>
      <trkpt lat="45.55732" lon="3.50069">
        <ele>831.70672607422</ele>
        <time>2020-06-17T10:16:50.301Z</time>
      </trkpt>
      <trkpt lat="45.55714" lon="3.50068">
        <ele>832.22302246094</ele>
        <time>2020-06-17T10:16:57.624Z</time>
      </trkpt>
      <trkpt lat="45.557" lon="3.50062">
        <ele>831.38317871094</ele>
        <time>2020-06-17T10:17:04.950Z</time>
      </trkpt>
      <trkpt lat="45.55686" lon="3.50052">
        <ele>830.20733642578</ele>
        <time>2020-06-17T10:17:12.278Z</time>
      </trkpt>
      <trkpt lat="45.55669" lon="3.5004">
        <ele>828.79156494141</ele>
        <time>2020-06-17T10:17:19.609Z</time>
      </trkpt>
      <trkpt lat="45.55656" lon="3.50035">
        <ele>828.05969238281</ele>
        <time>2020-06-17T10:17:26.942Z</time>
      </trkpt>
      <trkpt lat="45.55611" lon="3.50036">
        <ele>826.7841796875</ele>
        <time>2020-06-17T10:17:34.283Z</time>
      </trkpt>
      <trkpt lat="45.55578" lon="3.50033">
        <ele>825.34442138672</ele>
        <time>2020-06-17T10:17:41.629Z</time>
      </trkpt>
      <trkpt lat="45.55555" lon="3.50036">
        <ele>824.21795654297</ele>
        <time>2020-06-17T10:17:48.979Z</time>
      </trkpt>
      <trkpt lat="45.55522" lon="3.50043">
        <ele>822.87335205078</ele>
        <time>2020-06-17T10:17:56.334Z</time>
      </trkpt>
      <trkpt lat="45.55506" lon="3.50037">
        <ele>821.81756591797</ele>
        <time>2020-06-17T10:18:03.692Z</time>
      </trkpt>
      <trkpt lat="45.55497" lon="3.50027">
        <ele>820.90570068359</ele>
        <time>2020-06-17T10:18:11.051Z</time>
      </trkpt>
      <trkpt lat="45.55475" lon="3.50008">
        <ele>818.20977783203</ele>
        <time>2020-06-17T10:18:18.415Z</time>
      </trkpt>
      <trkpt lat="45.55467" lon="3.50004">
        <ele>817.34252929688</ele>
        <time>2020-06-17T10:18:25.780Z</time>
      </trkpt>
      <trkpt lat="45.55457" lon="3.50002">
        <ele>817.31854248047</ele>
        <time>2020-06-17T10:18:33.147Z</time>
      </trkpt>
      <trkpt lat="45.55431" lon="3.50003">
        <ele>817.24841308594</ele>
        <time>2020-06-17T10:18:40.518Z</time>
      </trkpt>
      <trkpt lat="45.55398" lon="3.50012">
        <ele>817.71630859375</ele>
        <time>2020-06-17T10:18:47.894Z</time>
      </trkpt>
      <trkpt lat="45.55387" lon="3.50009">
        <ele>817.29638671875</ele>
        <time>2020-06-17T10:18:55.272Z</time>
      </trkpt>
      <trkpt lat="45.55377" lon="3.49998">
        <ele>816.29510498047</ele>
        <time>2020-06-17T10:19:02.652Z</time>
      </trkpt>
      <trkpt lat="45.55373" lon="3.49983">
        <ele>814.9033203125</ele>
        <time>2020-06-17T10:19:10.034Z</time>
      </trkpt>
      <trkpt lat="45.55373" lon="3.49968">
        <ele>813.46356201172</ele>
        <time>2020-06-17T10:19:17.417Z</time>
      </trkpt>
      <trkpt lat="45.55382" lon="3.4994">
        <ele>810.66802978516</ele>
        <time>2020-06-17T10:19:24.804Z</time>
      </trkpt>
      <trkpt lat="45.55382" lon="3.49919">
        <ele>808.82421875</ele>
        <time>2020-06-17T10:19:32.193Z</time>
      </trkpt>
      <trkpt lat="45.55377" lon="3.49901">
        <ele>807.37249755859</ele>
        <time>2020-06-17T10:19:39.584Z</time>
      </trkpt>
      <trkpt lat="45.55369" lon="3.49886">
        <ele>806.20867919922</ele>
        <time>2020-06-17T10:19:46.977Z</time>
      </trkpt>
      <trkpt lat="45.55355" lon="3.49871">
        <ele>805.11682128906</ele>
        <time>2020-06-17T10:19:54.373Z</time>
      </trkpt>
      <trkpt lat="45.55338" lon="3.49861">
        <ele>804.48095703125</ele>
        <time>2020-06-17T10:20:01.772Z</time>
      </trkpt>
      <trkpt lat="45.55323" lon="3.49851">
        <ele>803.82104492188</ele>
        <time>2020-06-17T10:20:09.174Z</time>
      </trkpt>
      <trkpt lat="45.55296" lon="3.49821">
        <ele>802.26165771484</ele>
        <time>2020-06-17T10:20:16.581Z</time>
      </trkpt>
      <trkpt lat="45.55279" lon="3.49804">
        <ele>801.24182128906</ele>
        <time>2020-06-17T10:20:23.992Z</time>
      </trkpt>
      <trkpt lat="45.55267" lon="3.49797">
        <ele>800.82189941406</ele>
        <time>2020-06-17T10:20:31.405Z</time>
      </trkpt>
      <trkpt lat="45.55241" lon="3.49793">
        <ele>800.68804931641</ele>
        <time>2020-06-17T10:20:38.822Z</time>
      </trkpt>
      <trkpt lat="45.55218" lon="3.49791">
        <ele>801.32397460938</ele>
        <time>2020-06-17T10:20:46.243Z</time>
      </trkpt>
      <trkpt lat="45.55206" lon="3.49793">
        <ele>800.83654785156</ele>
        <time>2020-06-17T10:20:53.666Z</time>
      </trkpt>
      <trkpt lat="45.55197" lon="3.49801">
        <ele>801.06451416016</ele>
        <time>2020-06-17T10:21:01.090Z</time>
      </trkpt>
      <trkpt lat="45.55188" lon="3.49812">
        <ele>801.58044433594</ele>
        <time>2020-06-17T10:21:08.516Z</time>
      </trkpt>
      <trkpt lat="45.55177" lon="3.49827">
        <ele>801.93792724609</ele>
        <time>2020-06-17T10:21:15.945Z</time>
      </trkpt>
      <trkpt lat="45.5517" lon="3.49831">
        <ele>801.63800048828</ele>
        <time>2020-06-17T10:21:23.375Z</time>
      </trkpt>
      <trkpt lat="45.55139" lon="3.49859">
        <ele>801.15832519531</ele>
        <time>2020-06-17T10:21:30.811Z</time>
      </trkpt>
      <trkpt lat="45.5513" lon="3.49868">
        <ele>801.36138916016</ele>
        <time>2020-06-17T10:21:38.248Z</time>
      </trkpt>
    </trkseg>
  </trk>
</gpx>